<?xml version="1.0" encoding="UTF-8" standalone="no" ?>
<gpx xmlns="http://www.topografix.com/GPX/1/1" xmlns:xsi="http://www.w3.org/2001/XMLSchema-instance" xsi:schemaLocation="http://www.topografix.com/GPX/1/1 http://www.topografix.com/GPX/1/1/gpx.xsd" version="1.1" creator="VisuGPX - https://www.visugpx.com">
  <metadata>
    <name>230213</name>
    <desc><![CDATA[club vtt des rochers]]></desc>
  </metadata>
  <trk>
    <name><![CDATA[sam230213]]></name>
    <trkseg>
      <trkpt lat="44.47207" lon="0.9342">
        <ele>70.31</ele>
        <time>2013-02-23T13:18:44Z</time>
      </trkpt>
      <trkpt lat="44.47206" lon="0.93419">
        <ele>70.79</ele>
        <time>2013-02-23T13:18:53Z</time>
      </trkpt>
      <trkpt lat="44.47198" lon="0.93424">
        <ele>70.31</ele>
        <time>2013-02-23T13:19:00Z</time>
      </trkpt>
      <trkpt lat="44.47193" lon="0.93425">
        <ele>68.87</ele>
        <time>2013-02-23T13:19:13Z</time>
      </trkpt>
      <trkpt lat="44.47193" lon="0.93425">
        <ele>69.35</ele>
        <time>2013-02-23T13:19:30Z</time>
      </trkpt>
      <trkpt lat="44.47194" lon="0.93425">
        <ele>69.35</ele>
        <time>2013-02-23T13:19:49Z</time>
      </trkpt>
      <trkpt lat="44.47194" lon="0.93425">
        <ele>69.83</ele>
        <time>2013-02-23T13:20:09Z</time>
      </trkpt>
      <trkpt lat="44.47193" lon="0.93425">
        <ele>70.31</ele>
        <time>2013-02-23T13:20:31Z</time>
      </trkpt>
      <trkpt lat="44.47194" lon="0.93425">
        <ele>70.79</ele>
        <time>2013-02-23T13:20:46Z</time>
      </trkpt>
      <trkpt lat="44.47191" lon="0.9345">
        <ele>70.31</ele>
        <time>2013-02-23T13:20:58Z</time>
      </trkpt>
      <trkpt lat="44.4719" lon="0.93453">
        <ele>70.31</ele>
        <time>2013-02-23T13:20:59Z</time>
      </trkpt>
      <trkpt lat="44.47188" lon="0.93455">
        <ele>70.31</ele>
        <time>2013-02-23T13:21:00Z</time>
      </trkpt>
      <trkpt lat="44.47162" lon="0.93471">
        <ele>69.83</ele>
        <time>2013-02-23T13:21:12Z</time>
      </trkpt>
      <trkpt lat="44.47122" lon="0.93488">
        <ele>68.87</ele>
        <time>2013-02-23T13:21:28Z</time>
      </trkpt>
      <trkpt lat="44.4711" lon="0.93493">
        <ele>69.35</ele>
        <time>2013-02-23T13:21:38Z</time>
      </trkpt>
      <trkpt lat="44.47109" lon="0.93492">
        <ele>69.35</ele>
        <time>2013-02-23T13:21:41Z</time>
      </trkpt>
      <trkpt lat="44.47107" lon="0.93491">
        <ele>69.35</ele>
        <time>2013-02-23T13:21:42Z</time>
      </trkpt>
      <trkpt lat="44.47106" lon="0.93489">
        <ele>69.83</ele>
        <time>2013-02-23T13:21:43Z</time>
      </trkpt>
      <trkpt lat="44.47084" lon="0.9348">
        <ele>69.35</ele>
        <time>2013-02-23T13:21:51Z</time>
      </trkpt>
      <trkpt lat="44.47051" lon="0.93512">
        <ele>69.83</ele>
        <time>2013-02-23T13:22:02Z</time>
      </trkpt>
      <trkpt lat="44.47002" lon="0.93559">
        <ele>69.83</ele>
        <time>2013-02-23T13:22:16Z</time>
      </trkpt>
      <trkpt lat="44.46953" lon="0.93593">
        <ele>70.31</ele>
        <time>2013-02-23T13:22:31Z</time>
      </trkpt>
      <trkpt lat="44.46907" lon="0.93576">
        <ele>70.31</ele>
        <time>2013-02-23T13:22:43Z</time>
      </trkpt>
      <trkpt lat="44.46842" lon="0.93549">
        <ele>69.83</ele>
        <time>2013-02-23T13:22:59Z</time>
      </trkpt>
      <trkpt lat="44.46812" lon="0.93538">
        <ele>69.83</ele>
        <time>2013-02-23T13:23:07Z</time>
      </trkpt>
      <trkpt lat="44.46809" lon="0.93539">
        <ele>69.83</ele>
        <time>2013-02-23T13:23:08Z</time>
      </trkpt>
      <trkpt lat="44.46806" lon="0.93542">
        <ele>70.31</ele>
        <time>2013-02-23T13:23:09Z</time>
      </trkpt>
      <trkpt lat="44.46805" lon="0.93546">
        <ele>70.79</ele>
        <time>2013-02-23T13:23:10Z</time>
      </trkpt>
      <trkpt lat="44.468" lon="0.93573">
        <ele>73.2</ele>
        <time>2013-02-23T13:23:15Z</time>
      </trkpt>
      <trkpt lat="44.46797" lon="0.93592">
        <ele>75.6</ele>
        <time>2013-02-23T13:23:19Z</time>
      </trkpt>
      <trkpt lat="44.46799" lon="0.93595">
        <ele>75.6</ele>
        <time>2013-02-23T13:23:20Z</time>
      </trkpt>
      <trkpt lat="44.46803" lon="0.93596">
        <ele>75.6</ele>
        <time>2013-02-23T13:23:21Z</time>
      </trkpt>
      <trkpt lat="44.46807" lon="0.93597">
        <ele>75.6</ele>
        <time>2013-02-23T13:23:22Z</time>
      </trkpt>
      <trkpt lat="44.4681" lon="0.93598">
        <ele>75.6</ele>
        <time>2013-02-23T13:23:23Z</time>
      </trkpt>
      <trkpt lat="44.46859" lon="0.93622">
        <ele>76.08</ele>
        <time>2013-02-23T13:23:38Z</time>
      </trkpt>
      <trkpt lat="44.4686" lon="0.93625">
        <ele>76.08</ele>
        <time>2013-02-23T13:23:39Z</time>
      </trkpt>
      <trkpt lat="44.4686" lon="0.93626">
        <ele>76.56</ele>
        <time>2013-02-23T13:23:50Z</time>
      </trkpt>
      <trkpt lat="44.4686" lon="0.9363">
        <ele>77.04</ele>
        <time>2013-02-23T13:23:59Z</time>
      </trkpt>
      <trkpt lat="44.46859" lon="0.93633">
        <ele>77.04</ele>
        <time>2013-02-23T13:24:00Z</time>
      </trkpt>
      <trkpt lat="44.46859" lon="0.93636">
        <ele>77.04</ele>
        <time>2013-02-23T13:24:01Z</time>
      </trkpt>
      <trkpt lat="44.46859" lon="0.93639">
        <ele>77.04</ele>
        <time>2013-02-23T13:24:02Z</time>
      </trkpt>
      <trkpt lat="44.46859" lon="0.93642">
        <ele>77.04</ele>
        <time>2013-02-23T13:24:03Z</time>
      </trkpt>
      <trkpt lat="44.46846" lon="0.93683">
        <ele>78</ele>
        <time>2013-02-23T13:24:13Z</time>
      </trkpt>
      <trkpt lat="44.46819" lon="0.93762">
        <ele>79.45</ele>
        <time>2013-02-23T13:24:30Z</time>
      </trkpt>
      <trkpt lat="44.46793" lon="0.93843">
        <ele>78.97</ele>
        <time>2013-02-23T13:24:46Z</time>
      </trkpt>
      <trkpt lat="44.46763" lon="0.9393">
        <ele>79.45</ele>
        <time>2013-02-23T13:25:03Z</time>
      </trkpt>
      <trkpt lat="44.46727" lon="0.94026">
        <ele>79.45</ele>
        <time>2013-02-23T13:25:22Z</time>
      </trkpt>
      <trkpt lat="44.46723" lon="0.94028">
        <ele>79.45</ele>
        <time>2013-02-23T13:25:23Z</time>
      </trkpt>
      <trkpt lat="44.46719" lon="0.94028">
        <ele>79.45</ele>
        <time>2013-02-23T13:25:24Z</time>
      </trkpt>
      <trkpt lat="44.46715" lon="0.94027">
        <ele>79.45</ele>
        <time>2013-02-23T13:25:25Z</time>
      </trkpt>
      <trkpt lat="44.4671" lon="0.94026">
        <ele>79.45</ele>
        <time>2013-02-23T13:25:26Z</time>
      </trkpt>
      <trkpt lat="44.46706" lon="0.94024">
        <ele>79.45</ele>
        <time>2013-02-23T13:25:27Z</time>
      </trkpt>
      <trkpt lat="44.46702" lon="0.94022">
        <ele>79.45</ele>
        <time>2013-02-23T13:25:28Z</time>
      </trkpt>
      <trkpt lat="44.46659" lon="0.94006">
        <ele>79.93</ele>
        <time>2013-02-23T13:25:38Z</time>
      </trkpt>
      <trkpt lat="44.46616" lon="0.9399">
        <ele>80.41</ele>
        <time>2013-02-23T13:25:48Z</time>
      </trkpt>
      <trkpt lat="44.46612" lon="0.93987">
        <ele>80.41</ele>
        <time>2013-02-23T13:25:49Z</time>
      </trkpt>
      <trkpt lat="44.46609" lon="0.93984">
        <ele>80.41</ele>
        <time>2013-02-23T13:25:50Z</time>
      </trkpt>
      <trkpt lat="44.46579" lon="0.93958">
        <ele>79.93</ele>
        <time>2013-02-23T13:25:58Z</time>
      </trkpt>
      <trkpt lat="44.46575" lon="0.93955">
        <ele>79.93</ele>
        <time>2013-02-23T13:25:59Z</time>
      </trkpt>
      <trkpt lat="44.46572" lon="0.93952">
        <ele>79.93</ele>
        <time>2013-02-23T13:26:00Z</time>
      </trkpt>
      <trkpt lat="44.46568" lon="0.93948">
        <ele>79.93</ele>
        <time>2013-02-23T13:26:01Z</time>
      </trkpt>
      <trkpt lat="44.46564" lon="0.93945">
        <ele>79.93</ele>
        <time>2013-02-23T13:26:02Z</time>
      </trkpt>
      <trkpt lat="44.46557" lon="0.93938">
        <ele>79.93</ele>
        <time>2013-02-23T13:26:04Z</time>
      </trkpt>
      <trkpt lat="44.46553" lon="0.93935">
        <ele>79.45</ele>
        <time>2013-02-23T13:26:05Z</time>
      </trkpt>
      <trkpt lat="44.46486" lon="0.93876">
        <ele>78.97</ele>
        <time>2013-02-23T13:26:22Z</time>
      </trkpt>
      <trkpt lat="44.46444" lon="0.93849">
        <ele>79.45</ele>
        <time>2013-02-23T13:26:32Z</time>
      </trkpt>
      <trkpt lat="44.4644" lon="0.93848">
        <ele>79.45</ele>
        <time>2013-02-23T13:26:33Z</time>
      </trkpt>
      <trkpt lat="44.46435" lon="0.93849">
        <ele>79.45</ele>
        <time>2013-02-23T13:26:34Z</time>
      </trkpt>
      <trkpt lat="44.46431" lon="0.9385">
        <ele>79.45</ele>
        <time>2013-02-23T13:26:35Z</time>
      </trkpt>
      <trkpt lat="44.46427" lon="0.93852">
        <ele>79.45</ele>
        <time>2013-02-23T13:26:36Z</time>
      </trkpt>
      <trkpt lat="44.46422" lon="0.93853">
        <ele>79.45</ele>
        <time>2013-02-23T13:26:37Z</time>
      </trkpt>
      <trkpt lat="44.46416" lon="0.93853">
        <ele>78.97</ele>
        <time>2013-02-23T13:26:38Z</time>
      </trkpt>
      <trkpt lat="44.46411" lon="0.9385">
        <ele>78.97</ele>
        <time>2013-02-23T13:26:39Z</time>
      </trkpt>
      <trkpt lat="44.46406" lon="0.93847">
        <ele>78.97</ele>
        <time>2013-02-23T13:26:40Z</time>
      </trkpt>
      <trkpt lat="44.46402" lon="0.93842">
        <ele>78.97</ele>
        <time>2013-02-23T13:26:41Z</time>
      </trkpt>
      <trkpt lat="44.46398" lon="0.93837">
        <ele>78.97</ele>
        <time>2013-02-23T13:26:42Z</time>
      </trkpt>
      <trkpt lat="44.46394" lon="0.93832">
        <ele>78.97</ele>
        <time>2013-02-23T13:26:43Z</time>
      </trkpt>
      <trkpt lat="44.46369" lon="0.93796">
        <ele>78.48</ele>
        <time>2013-02-23T13:26:50Z</time>
      </trkpt>
      <trkpt lat="44.46365" lon="0.93791">
        <ele>78.48</ele>
        <time>2013-02-23T13:26:51Z</time>
      </trkpt>
      <trkpt lat="44.46309" lon="0.93706">
        <ele>77.04</ele>
        <time>2013-02-23T13:27:07Z</time>
      </trkpt>
      <trkpt lat="44.46286" lon="0.93675">
        <ele>75.6</ele>
        <time>2013-02-23T13:27:13Z</time>
      </trkpt>
      <trkpt lat="44.46282" lon="0.93673">
        <ele>75.6</ele>
        <time>2013-02-23T13:27:14Z</time>
      </trkpt>
      <trkpt lat="44.46278" lon="0.93676">
        <ele>75.12</ele>
        <time>2013-02-23T13:27:15Z</time>
      </trkpt>
      <trkpt lat="44.46275" lon="0.9368">
        <ele>75.12</ele>
        <time>2013-02-23T13:27:16Z</time>
      </trkpt>
      <trkpt lat="44.46272" lon="0.93685">
        <ele>75.12</ele>
        <time>2013-02-23T13:27:17Z</time>
      </trkpt>
      <trkpt lat="44.46245" lon="0.93747">
        <ele>75.12</ele>
        <time>2013-02-23T13:27:28Z</time>
      </trkpt>
      <trkpt lat="44.46243" lon="0.93753">
        <ele>75.6</ele>
        <time>2013-02-23T13:27:29Z</time>
      </trkpt>
      <trkpt lat="44.46241" lon="0.93757">
        <ele>75.6</ele>
        <time>2013-02-23T13:27:30Z</time>
      </trkpt>
      <trkpt lat="44.4624" lon="0.93762">
        <ele>75.6</ele>
        <time>2013-02-23T13:27:31Z</time>
      </trkpt>
      <trkpt lat="44.46238" lon="0.93766">
        <ele>76.08</ele>
        <time>2013-02-23T13:27:32Z</time>
      </trkpt>
      <trkpt lat="44.46236" lon="0.9377">
        <ele>76.08</ele>
        <time>2013-02-23T13:27:33Z</time>
      </trkpt>
      <trkpt lat="44.46233" lon="0.93774">
        <ele>76.08</ele>
        <time>2013-02-23T13:27:34Z</time>
      </trkpt>
      <trkpt lat="44.46197" lon="0.93825">
        <ele>75.6</ele>
        <time>2013-02-23T13:27:48Z</time>
      </trkpt>
      <trkpt lat="44.46157" lon="0.93848">
        <ele>76.08</ele>
        <time>2013-02-23T13:28:01Z</time>
      </trkpt>
      <trkpt lat="44.46122" lon="0.93863">
        <ele>76.08</ele>
        <time>2013-02-23T13:28:12Z</time>
      </trkpt>
      <trkpt lat="44.46093" lon="0.93928">
        <ele>76.56</ele>
        <time>2013-02-23T13:28:28Z</time>
      </trkpt>
      <trkpt lat="44.46069" lon="0.93986">
        <ele>79.45</ele>
        <time>2013-02-23T13:28:42Z</time>
      </trkpt>
      <trkpt lat="44.46043" lon="0.94048">
        <ele>79.45</ele>
        <time>2013-02-23T13:28:57Z</time>
      </trkpt>
      <trkpt lat="44.46009" lon="0.94124">
        <ele>79.93</ele>
        <time>2013-02-23T13:29:15Z</time>
      </trkpt>
      <trkpt lat="44.45988" lon="0.94175">
        <ele>79.45</ele>
        <time>2013-02-23T13:29:27Z</time>
      </trkpt>
      <trkpt lat="44.45961" lon="0.94239">
        <ele>81.37</ele>
        <time>2013-02-23T13:29:41Z</time>
      </trkpt>
      <trkpt lat="44.45929" lon="0.94308">
        <ele>83.29</ele>
        <time>2013-02-23T13:29:57Z</time>
      </trkpt>
      <trkpt lat="44.45906" lon="0.94362">
        <ele>84.73</ele>
        <time>2013-02-23T13:30:11Z</time>
      </trkpt>
      <trkpt lat="44.45883" lon="0.94417">
        <ele>85.69</ele>
        <time>2013-02-23T13:30:26Z</time>
      </trkpt>
      <trkpt lat="44.45865" lon="0.94459">
        <ele>87.62</ele>
        <time>2013-02-23T13:30:38Z</time>
      </trkpt>
      <trkpt lat="44.45855" lon="0.94481">
        <ele>89.06</ele>
        <time>2013-02-23T13:30:45Z</time>
      </trkpt>
      <trkpt lat="44.45854" lon="0.94484">
        <ele>89.06</ele>
        <time>2013-02-23T13:30:46Z</time>
      </trkpt>
      <trkpt lat="44.45853" lon="0.94487">
        <ele>89.06</ele>
        <time>2013-02-23T13:30:47Z</time>
      </trkpt>
      <trkpt lat="44.45852" lon="0.9449">
        <ele>89.54</ele>
        <time>2013-02-23T13:30:48Z</time>
      </trkpt>
      <trkpt lat="44.4585" lon="0.94491">
        <ele>90.02</ele>
        <time>2013-02-23T13:30:49Z</time>
      </trkpt>
      <trkpt lat="44.4585" lon="0.94493">
        <ele>90.02</ele>
        <time>2013-02-23T13:30:50Z</time>
      </trkpt>
      <trkpt lat="44.45851" lon="0.94494">
        <ele>90.02</ele>
        <time>2013-02-23T13:30:51Z</time>
      </trkpt>
      <trkpt lat="44.45852" lon="0.94494">
        <ele>90.02</ele>
        <time>2013-02-23T13:30:52Z</time>
      </trkpt>
      <trkpt lat="44.45854" lon="0.94493">
        <ele>90.02</ele>
        <time>2013-02-23T13:30:53Z</time>
      </trkpt>
      <trkpt lat="44.45854" lon="0.94491">
        <ele>90.02</ele>
        <time>2013-02-23T13:30:54Z</time>
      </trkpt>
      <trkpt lat="44.45855" lon="0.94489">
        <ele>89.54</ele>
        <time>2013-02-23T13:30:55Z</time>
      </trkpt>
      <trkpt lat="44.45855" lon="0.94488">
        <ele>89.54</ele>
        <time>2013-02-23T13:30:56Z</time>
      </trkpt>
      <trkpt lat="44.45856" lon="0.94486">
        <ele>89.54</ele>
        <time>2013-02-23T13:30:57Z</time>
      </trkpt>
      <trkpt lat="44.45858" lon="0.94482">
        <ele>89.06</ele>
        <time>2013-02-23T13:31:00Z</time>
      </trkpt>
      <trkpt lat="44.45858" lon="0.94478">
        <ele>89.06</ele>
        <time>2013-02-23T13:31:02Z</time>
      </trkpt>
      <trkpt lat="44.45857" lon="0.94476">
        <ele>89.06</ele>
        <time>2013-02-23T13:31:03Z</time>
      </trkpt>
      <trkpt lat="44.45856" lon="0.94476">
        <ele>88.58</ele>
        <time>2013-02-23T13:31:04Z</time>
      </trkpt>
      <trkpt lat="44.45856" lon="0.94477">
        <ele>89.06</ele>
        <time>2013-02-23T13:31:05Z</time>
      </trkpt>
      <trkpt lat="44.45855" lon="0.94479">
        <ele>89.06</ele>
        <time>2013-02-23T13:31:06Z</time>
      </trkpt>
      <trkpt lat="44.45855" lon="0.94493">
        <ele>90.5</ele>
        <time>2013-02-23T13:31:15Z</time>
      </trkpt>
      <trkpt lat="44.45854" lon="0.94495">
        <ele>90.5</ele>
        <time>2013-02-23T13:31:16Z</time>
      </trkpt>
      <trkpt lat="44.45852" lon="0.94495">
        <ele>90.5</ele>
        <time>2013-02-23T13:31:17Z</time>
      </trkpt>
      <trkpt lat="44.45851" lon="0.94494">
        <ele>90.5</ele>
        <time>2013-02-23T13:31:18Z</time>
      </trkpt>
      <trkpt lat="44.4585" lon="0.94493">
        <ele>90.02</ele>
        <time>2013-02-23T13:31:19Z</time>
      </trkpt>
      <trkpt lat="44.4585" lon="0.94492">
        <ele>90.02</ele>
        <time>2013-02-23T13:31:20Z</time>
      </trkpt>
      <trkpt lat="44.45849" lon="0.94491">
        <ele>90.02</ele>
        <time>2013-02-23T13:31:21Z</time>
      </trkpt>
      <trkpt lat="44.45843" lon="0.94492">
        <ele>89.06</ele>
        <time>2013-02-23T13:31:29Z</time>
      </trkpt>
      <trkpt lat="44.45842" lon="0.94491">
        <ele>89.06</ele>
        <time>2013-02-23T13:31:30Z</time>
      </trkpt>
      <trkpt lat="44.45841" lon="0.9449">
        <ele>88.58</ele>
        <time>2013-02-23T13:31:32Z</time>
      </trkpt>
      <trkpt lat="44.4582" lon="0.94484">
        <ele>89.06</ele>
        <time>2013-02-23T13:31:45Z</time>
      </trkpt>
      <trkpt lat="44.45795" lon="0.94481">
        <ele>89.54</ele>
        <time>2013-02-23T13:31:58Z</time>
      </trkpt>
      <trkpt lat="44.45769" lon="0.94481">
        <ele>90.5</ele>
        <time>2013-02-23T13:32:12Z</time>
      </trkpt>
      <trkpt lat="44.45768" lon="0.94481">
        <ele>90.5</ele>
        <time>2013-02-23T13:32:13Z</time>
      </trkpt>
      <trkpt lat="44.45765" lon="0.94481">
        <ele>90.98</ele>
        <time>2013-02-23T13:32:14Z</time>
      </trkpt>
      <trkpt lat="44.45763" lon="0.94481">
        <ele>90.98</ele>
        <time>2013-02-23T13:32:15Z</time>
      </trkpt>
      <trkpt lat="44.4573" lon="0.94477">
        <ele>93.87</ele>
        <time>2013-02-23T13:32:29Z</time>
      </trkpt>
      <trkpt lat="44.45726" lon="0.94477">
        <ele>94.35</ele>
        <time>2013-02-23T13:32:31Z</time>
      </trkpt>
      <trkpt lat="44.45724" lon="0.94478">
        <ele>94.35</ele>
        <time>2013-02-23T13:32:32Z</time>
      </trkpt>
      <trkpt lat="44.45697" lon="0.94479">
        <ele>95.79</ele>
        <time>2013-02-23T13:32:44Z</time>
      </trkpt>
      <trkpt lat="44.45669" lon="0.9448">
        <ele>99.63</ele>
        <time>2013-02-23T13:32:56Z</time>
      </trkpt>
      <trkpt lat="44.45636" lon="0.94481">
        <ele>103.96</ele>
        <time>2013-02-23T13:33:10Z</time>
      </trkpt>
      <trkpt lat="44.45604" lon="0.94482">
        <ele>103.48</ele>
        <time>2013-02-23T13:33:22Z</time>
      </trkpt>
      <trkpt lat="44.45566" lon="0.94484">
        <ele>103.48</ele>
        <time>2013-02-23T13:33:33Z</time>
      </trkpt>
      <trkpt lat="44.45536" lon="0.94484">
        <ele>103.96</ele>
        <time>2013-02-23T13:33:43Z</time>
      </trkpt>
      <trkpt lat="44.455" lon="0.94485">
        <ele>102.52</ele>
        <time>2013-02-23T13:33:56Z</time>
      </trkpt>
      <trkpt lat="44.45473" lon="0.94484">
        <ele>105.88</ele>
        <time>2013-02-23T13:34:07Z</time>
      </trkpt>
      <trkpt lat="44.4547" lon="0.94485">
        <ele>106.36</ele>
        <time>2013-02-23T13:34:08Z</time>
      </trkpt>
      <trkpt lat="44.45468" lon="0.94484">
        <ele>106.36</ele>
        <time>2013-02-23T13:34:09Z</time>
      </trkpt>
      <trkpt lat="44.45467" lon="0.94483">
        <ele>106.36</ele>
        <time>2013-02-23T13:34:10Z</time>
      </trkpt>
      <trkpt lat="44.45465" lon="0.94482">
        <ele>106.84</ele>
        <time>2013-02-23T13:34:11Z</time>
      </trkpt>
      <trkpt lat="44.45464" lon="0.94481">
        <ele>106.84</ele>
        <time>2013-02-23T13:34:12Z</time>
      </trkpt>
      <trkpt lat="44.45461" lon="0.94481">
        <ele>106.84</ele>
        <time>2013-02-23T13:34:13Z</time>
      </trkpt>
      <trkpt lat="44.45459" lon="0.94482">
        <ele>106.84</ele>
        <time>2013-02-23T13:34:14Z</time>
      </trkpt>
      <trkpt lat="44.45458" lon="0.94483">
        <ele>106.84</ele>
        <time>2013-02-23T13:34:15Z</time>
      </trkpt>
      <trkpt lat="44.45456" lon="0.94483">
        <ele>107.32</ele>
        <time>2013-02-23T13:34:16Z</time>
      </trkpt>
      <trkpt lat="44.45451" lon="0.94483">
        <ele>107.81</ele>
        <time>2013-02-23T13:34:19Z</time>
      </trkpt>
      <trkpt lat="44.45437" lon="0.94483">
        <ele>109.73</ele>
        <time>2013-02-23T13:34:27Z</time>
      </trkpt>
      <trkpt lat="44.45427" lon="0.94465">
        <ele>110.69</ele>
        <time>2013-02-23T13:34:41Z</time>
      </trkpt>
      <trkpt lat="44.4542" lon="0.94452">
        <ele>112.13</ele>
        <time>2013-02-23T13:34:52Z</time>
      </trkpt>
      <trkpt lat="44.45419" lon="0.9445">
        <ele>112.13</ele>
        <time>2013-02-23T13:34:53Z</time>
      </trkpt>
      <trkpt lat="44.45409" lon="0.94434">
        <ele>114.05</ele>
        <time>2013-02-23T13:35:04Z</time>
      </trkpt>
      <trkpt lat="44.45407" lon="0.94426">
        <ele>116.94</ele>
        <time>2013-02-23T13:35:08Z</time>
      </trkpt>
      <trkpt lat="44.45398" lon="0.94399">
        <ele>117.9</ele>
        <time>2013-02-23T13:35:20Z</time>
      </trkpt>
      <trkpt lat="44.45391" lon="0.94389">
        <ele>119.34</ele>
        <time>2013-02-23T13:35:25Z</time>
      </trkpt>
      <trkpt lat="44.45375" lon="0.94364">
        <ele>122.71</ele>
        <time>2013-02-23T13:35:36Z</time>
      </trkpt>
      <trkpt lat="44.45355" lon="0.94348">
        <ele>125.11</ele>
        <time>2013-02-23T13:35:48Z</time>
      </trkpt>
      <trkpt lat="44.45333" lon="0.94336">
        <ele>124.15</ele>
        <time>2013-02-23T13:35:59Z</time>
      </trkpt>
      <trkpt lat="44.45311" lon="0.94308">
        <ele>126.55</ele>
        <time>2013-02-23T13:36:13Z</time>
      </trkpt>
      <trkpt lat="44.45286" lon="0.9429">
        <ele>124.15</ele>
        <time>2013-02-23T13:36:25Z</time>
      </trkpt>
      <trkpt lat="44.45281" lon="0.94292">
        <ele>122.71</ele>
        <time>2013-02-23T13:36:27Z</time>
      </trkpt>
      <trkpt lat="44.45279" lon="0.94294">
        <ele>122.22</ele>
        <time>2013-02-23T13:36:28Z</time>
      </trkpt>
      <trkpt lat="44.45278" lon="0.94296">
        <ele>121.74</ele>
        <time>2013-02-23T13:36:29Z</time>
      </trkpt>
      <trkpt lat="44.45277" lon="0.94298">
        <ele>121.26</ele>
        <time>2013-02-23T13:36:30Z</time>
      </trkpt>
      <trkpt lat="44.45276" lon="0.943">
        <ele>121.26</ele>
        <time>2013-02-23T13:36:31Z</time>
      </trkpt>
      <trkpt lat="44.45275" lon="0.94302">
        <ele>121.26</ele>
        <time>2013-02-23T13:36:32Z</time>
      </trkpt>
      <trkpt lat="44.45273" lon="0.94305">
        <ele>121.26</ele>
        <time>2013-02-23T13:36:33Z</time>
      </trkpt>
      <trkpt lat="44.45272" lon="0.94308">
        <ele>121.26</ele>
        <time>2013-02-23T13:36:34Z</time>
      </trkpt>
      <trkpt lat="44.45268" lon="0.94316">
        <ele>122.22</ele>
        <time>2013-02-23T13:36:38Z</time>
      </trkpt>
      <trkpt lat="44.45268" lon="0.94318">
        <ele>122.71</ele>
        <time>2013-02-23T13:36:39Z</time>
      </trkpt>
      <trkpt lat="44.45267" lon="0.94321">
        <ele>123.19</ele>
        <time>2013-02-23T13:36:40Z</time>
      </trkpt>
      <trkpt lat="44.45267" lon="0.94323">
        <ele>123.67</ele>
        <time>2013-02-23T13:36:41Z</time>
      </trkpt>
      <trkpt lat="44.45266" lon="0.94325">
        <ele>124.15</ele>
        <time>2013-02-23T13:36:42Z</time>
      </trkpt>
      <trkpt lat="44.45265" lon="0.94328">
        <ele>124.63</ele>
        <time>2013-02-23T13:36:43Z</time>
      </trkpt>
      <trkpt lat="44.45257" lon="0.94359">
        <ele>126.07</ele>
        <time>2013-02-23T13:36:54Z</time>
      </trkpt>
      <trkpt lat="44.45251" lon="0.94392">
        <ele>127.51</ele>
        <time>2013-02-23T13:37:05Z</time>
      </trkpt>
      <trkpt lat="44.45244" lon="0.94425">
        <ele>129.43</ele>
        <time>2013-02-23T13:37:18Z</time>
      </trkpt>
      <trkpt lat="44.45244" lon="0.94428">
        <ele>129.43</ele>
        <time>2013-02-23T13:37:19Z</time>
      </trkpt>
      <trkpt lat="44.45241" lon="0.94443">
        <ele>128.95</ele>
        <time>2013-02-23T13:37:25Z</time>
      </trkpt>
      <trkpt lat="44.45234" lon="0.94479">
        <ele>131.36</ele>
        <time>2013-02-23T13:37:40Z</time>
      </trkpt>
      <trkpt lat="44.45219" lon="0.9449">
        <ele>128.95</ele>
        <time>2013-02-23T13:37:52Z</time>
      </trkpt>
      <trkpt lat="44.45198" lon="0.94495">
        <ele>126.55</ele>
        <time>2013-02-23T13:38:05Z</time>
      </trkpt>
      <trkpt lat="44.45175" lon="0.94495">
        <ele>125.59</ele>
        <time>2013-02-23T13:38:18Z</time>
      </trkpt>
      <trkpt lat="44.45164" lon="0.94496">
        <ele>125.59</ele>
        <time>2013-02-23T13:38:25Z</time>
      </trkpt>
      <trkpt lat="44.45163" lon="0.94499">
        <ele>125.59</ele>
        <time>2013-02-23T13:38:28Z</time>
      </trkpt>
      <trkpt lat="44.45163" lon="0.94508">
        <ele>126.07</ele>
        <time>2013-02-23T13:38:33Z</time>
      </trkpt>
      <trkpt lat="44.45167" lon="0.9452">
        <ele>126.07</ele>
        <time>2013-02-23T13:38:41Z</time>
      </trkpt>
      <trkpt lat="44.45175" lon="0.94531">
        <ele>125.59</ele>
        <time>2013-02-23T13:38:49Z</time>
      </trkpt>
      <trkpt lat="44.45192" lon="0.94558">
        <ele>123.19</ele>
        <time>2013-02-23T13:39:02Z</time>
      </trkpt>
      <trkpt lat="44.45199" lon="0.94573">
        <ele>121.74</ele>
        <time>2013-02-23T13:39:09Z</time>
      </trkpt>
      <trkpt lat="44.45194" lon="0.94587">
        <ele>121.74</ele>
        <time>2013-02-23T13:39:16Z</time>
      </trkpt>
      <trkpt lat="44.45168" lon="0.94623">
        <ele>123.19</ele>
        <time>2013-02-23T13:39:33Z</time>
      </trkpt>
      <trkpt lat="44.45142" lon="0.94658">
        <ele>124.15</ele>
        <time>2013-02-23T13:39:50Z</time>
      </trkpt>
      <trkpt lat="44.45132" lon="0.94671">
        <ele>124.63</ele>
        <time>2013-02-23T13:39:56Z</time>
      </trkpt>
      <trkpt lat="44.45125" lon="0.94679">
        <ele>125.11</ele>
        <time>2013-02-23T13:40:00Z</time>
      </trkpt>
      <trkpt lat="44.45092" lon="0.94711">
        <ele>124.15</ele>
        <time>2013-02-23T13:40:17Z</time>
      </trkpt>
      <trkpt lat="44.45085" lon="0.94719">
        <ele>123.67</ele>
        <time>2013-02-23T13:40:21Z</time>
      </trkpt>
      <trkpt lat="44.45085" lon="0.94722">
        <ele>123.67</ele>
        <time>2013-02-23T13:40:22Z</time>
      </trkpt>
      <trkpt lat="44.45085" lon="0.94725">
        <ele>123.67</ele>
        <time>2013-02-23T13:40:23Z</time>
      </trkpt>
      <trkpt lat="44.45086" lon="0.94728">
        <ele>123.67</ele>
        <time>2013-02-23T13:40:24Z</time>
      </trkpt>
      <trkpt lat="44.45086" lon="0.94732">
        <ele>123.19</ele>
        <time>2013-02-23T13:40:25Z</time>
      </trkpt>
      <trkpt lat="44.45086" lon="0.94736">
        <ele>123.19</ele>
        <time>2013-02-23T13:40:26Z</time>
      </trkpt>
      <trkpt lat="44.45087" lon="0.94739">
        <ele>123.19</ele>
        <time>2013-02-23T13:40:27Z</time>
      </trkpt>
      <trkpt lat="44.45088" lon="0.94743">
        <ele>123.19</ele>
        <time>2013-02-23T13:40:28Z</time>
      </trkpt>
      <trkpt lat="44.45088" lon="0.94748">
        <ele>123.67</ele>
        <time>2013-02-23T13:40:29Z</time>
      </trkpt>
      <trkpt lat="44.45096" lon="0.94815">
        <ele>122.22</ele>
        <time>2013-02-23T13:40:43Z</time>
      </trkpt>
      <trkpt lat="44.45096" lon="0.94821">
        <ele>122.22</ele>
        <time>2013-02-23T13:40:44Z</time>
      </trkpt>
      <trkpt lat="44.4509" lon="0.94846">
        <ele>120.78</ele>
        <time>2013-02-23T13:40:48Z</time>
      </trkpt>
      <trkpt lat="44.45088" lon="0.94853">
        <ele>120.78</ele>
        <time>2013-02-23T13:40:49Z</time>
      </trkpt>
      <trkpt lat="44.45086" lon="0.94859">
        <ele>120.78</ele>
        <time>2013-02-23T13:40:50Z</time>
      </trkpt>
      <trkpt lat="44.45084" lon="0.94866">
        <ele>120.78</ele>
        <time>2013-02-23T13:40:51Z</time>
      </trkpt>
      <trkpt lat="44.45082" lon="0.94872">
        <ele>120.78</ele>
        <time>2013-02-23T13:40:52Z</time>
      </trkpt>
      <trkpt lat="44.45079" lon="0.94884">
        <ele>120.78</ele>
        <time>2013-02-23T13:40:54Z</time>
      </trkpt>
      <trkpt lat="44.45077" lon="0.9489">
        <ele>120.78</ele>
        <time>2013-02-23T13:40:55Z</time>
      </trkpt>
      <trkpt lat="44.45065" lon="0.94936">
        <ele>121.74</ele>
        <time>2013-02-23T13:41:04Z</time>
      </trkpt>
      <trkpt lat="44.45066" lon="0.94941">
        <ele>121.26</ele>
        <time>2013-02-23T13:41:05Z</time>
      </trkpt>
      <trkpt lat="44.45078" lon="0.94947">
        <ele>121.26</ele>
        <time>2013-02-23T13:41:09Z</time>
      </trkpt>
      <trkpt lat="44.45147" lon="0.94972">
        <ele>118.38</ele>
        <time>2013-02-23T13:41:27Z</time>
      </trkpt>
      <trkpt lat="44.45151" lon="0.94973">
        <ele>118.38</ele>
        <time>2013-02-23T13:41:28Z</time>
      </trkpt>
      <trkpt lat="44.45155" lon="0.94974">
        <ele>117.9</ele>
        <time>2013-02-23T13:41:29Z</time>
      </trkpt>
      <trkpt lat="44.45192" lon="0.94986">
        <ele>120.78</ele>
        <time>2013-02-23T13:41:41Z</time>
      </trkpt>
      <trkpt lat="44.45195" lon="0.94986">
        <ele>121.26</ele>
        <time>2013-02-23T13:41:42Z</time>
      </trkpt>
      <trkpt lat="44.45197" lon="0.95003">
        <ele>125.11</ele>
        <time>2013-02-23T13:41:50Z</time>
      </trkpt>
      <trkpt lat="44.45195" lon="0.95014">
        <ele>127.03</ele>
        <time>2013-02-23T13:41:53Z</time>
      </trkpt>
      <trkpt lat="44.45188" lon="0.95061">
        <ele>126.55</ele>
        <time>2013-02-23T13:42:06Z</time>
      </trkpt>
      <trkpt lat="44.45183" lon="0.95108">
        <ele>127.51</ele>
        <time>2013-02-23T13:42:17Z</time>
      </trkpt>
      <trkpt lat="44.45178" lon="0.95153">
        <ele>125.59</ele>
        <time>2013-02-23T13:42:27Z</time>
      </trkpt>
      <trkpt lat="44.45167" lon="0.95202">
        <ele>126.55</ele>
        <time>2013-02-23T13:42:38Z</time>
      </trkpt>
      <trkpt lat="44.45142" lon="0.9524">
        <ele>126.07</ele>
        <time>2013-02-23T13:42:49Z</time>
      </trkpt>
      <trkpt lat="44.45108" lon="0.95282">
        <ele>125.11</ele>
        <time>2013-02-23T13:43:02Z</time>
      </trkpt>
      <trkpt lat="44.45072" lon="0.95327">
        <ele>125.11</ele>
        <time>2013-02-23T13:43:16Z</time>
      </trkpt>
      <trkpt lat="44.45041" lon="0.95366">
        <ele>126.55</ele>
        <time>2013-02-23T13:43:29Z</time>
      </trkpt>
      <trkpt lat="44.45014" lon="0.95399">
        <ele>127.51</ele>
        <time>2013-02-23T13:43:41Z</time>
      </trkpt>
      <trkpt lat="44.4501" lon="0.95407">
        <ele>127.51</ele>
        <time>2013-02-23T13:43:52Z</time>
      </trkpt>
      <trkpt lat="44.4501" lon="0.95407">
        <ele>127.03</ele>
        <time>2013-02-23T13:44:14Z</time>
      </trkpt>
      <trkpt lat="44.4501" lon="0.95407">
        <ele>126.55</ele>
        <time>2013-02-23T13:44:34Z</time>
      </trkpt>
      <trkpt lat="44.4501" lon="0.95408">
        <ele>126.07</ele>
        <time>2013-02-23T13:45:01Z</time>
      </trkpt>
      <trkpt lat="44.4501" lon="0.95408">
        <ele>126.55</ele>
        <time>2013-02-23T13:45:13Z</time>
      </trkpt>
      <trkpt lat="44.4501" lon="0.95414">
        <ele>126.55</ele>
        <time>2013-02-23T13:45:16Z</time>
      </trkpt>
      <trkpt lat="44.45012" lon="0.95416">
        <ele>126.55</ele>
        <time>2013-02-23T13:45:17Z</time>
      </trkpt>
      <trkpt lat="44.45013" lon="0.95419">
        <ele>126.55</ele>
        <time>2013-02-23T13:45:18Z</time>
      </trkpt>
      <trkpt lat="44.45015" lon="0.95422">
        <ele>126.55</ele>
        <time>2013-02-23T13:45:19Z</time>
      </trkpt>
      <trkpt lat="44.45017" lon="0.95425">
        <ele>126.55</ele>
        <time>2013-02-23T13:45:20Z</time>
      </trkpt>
      <trkpt lat="44.45019" lon="0.95428">
        <ele>126.55</ele>
        <time>2013-02-23T13:45:21Z</time>
      </trkpt>
      <trkpt lat="44.4502" lon="0.95432">
        <ele>126.55</ele>
        <time>2013-02-23T13:45:22Z</time>
      </trkpt>
      <trkpt lat="44.45022" lon="0.95435">
        <ele>126.55</ele>
        <time>2013-02-23T13:45:23Z</time>
      </trkpt>
      <trkpt lat="44.45053" lon="0.9549">
        <ele>127.51</ele>
        <time>2013-02-23T13:45:38Z</time>
      </trkpt>
      <trkpt lat="44.45063" lon="0.95513">
        <ele>127.51</ele>
        <time>2013-02-23T13:45:44Z</time>
      </trkpt>
      <trkpt lat="44.45063" lon="0.95517">
        <ele>127.51</ele>
        <time>2013-02-23T13:45:45Z</time>
      </trkpt>
      <trkpt lat="44.45061" lon="0.9552">
        <ele>127.51</ele>
        <time>2013-02-23T13:45:46Z</time>
      </trkpt>
      <trkpt lat="44.45058" lon="0.95523">
        <ele>127.51</ele>
        <time>2013-02-23T13:45:47Z</time>
      </trkpt>
      <trkpt lat="44.45055" lon="0.95525">
        <ele>127.51</ele>
        <time>2013-02-23T13:45:48Z</time>
      </trkpt>
      <trkpt lat="44.45052" lon="0.95528">
        <ele>127.99</ele>
        <time>2013-02-23T13:45:49Z</time>
      </trkpt>
      <trkpt lat="44.4505" lon="0.95531">
        <ele>127.99</ele>
        <time>2013-02-23T13:45:50Z</time>
      </trkpt>
      <trkpt lat="44.44998" lon="0.95576">
        <ele>128.95</ele>
        <time>2013-02-23T13:46:07Z</time>
      </trkpt>
      <trkpt lat="44.44941" lon="0.95612">
        <ele>130.88</ele>
        <time>2013-02-23T13:46:25Z</time>
      </trkpt>
      <trkpt lat="44.44904" lon="0.95642">
        <ele>133.76</ele>
        <time>2013-02-23T13:46:38Z</time>
      </trkpt>
      <trkpt lat="44.44898" lon="0.95645">
        <ele>133.76</ele>
        <time>2013-02-23T13:46:40Z</time>
      </trkpt>
      <trkpt lat="44.44894" lon="0.95645">
        <ele>133.76</ele>
        <time>2013-02-23T13:46:41Z</time>
      </trkpt>
      <trkpt lat="44.44883" lon="0.9564">
        <ele>134.24</ele>
        <time>2013-02-23T13:46:45Z</time>
      </trkpt>
      <trkpt lat="44.4488" lon="0.95639">
        <ele>134.24</ele>
        <time>2013-02-23T13:46:47Z</time>
      </trkpt>
      <trkpt lat="44.44878" lon="0.95638">
        <ele>134.72</ele>
        <time>2013-02-23T13:46:48Z</time>
      </trkpt>
      <trkpt lat="44.44877" lon="0.95638">
        <ele>134.72</ele>
        <time>2013-02-23T13:46:49Z</time>
      </trkpt>
      <trkpt lat="44.44876" lon="0.95637">
        <ele>134.72</ele>
        <time>2013-02-23T13:46:50Z</time>
      </trkpt>
      <trkpt lat="44.44875" lon="0.95636">
        <ele>134.72</ele>
        <time>2013-02-23T13:46:51Z</time>
      </trkpt>
      <trkpt lat="44.44847" lon="0.95622">
        <ele>134.72</ele>
        <time>2013-02-23T13:47:02Z</time>
      </trkpt>
      <trkpt lat="44.44798" lon="0.95596">
        <ele>134.24</ele>
        <time>2013-02-23T13:47:16Z</time>
      </trkpt>
      <trkpt lat="44.44738" lon="0.95595">
        <ele>132.8</ele>
        <time>2013-02-23T13:47:32Z</time>
      </trkpt>
      <trkpt lat="44.44678" lon="0.95588">
        <ele>132.8</ele>
        <time>2013-02-23T13:47:48Z</time>
      </trkpt>
      <trkpt lat="44.44607" lon="0.95577">
        <ele>132.8</ele>
        <time>2013-02-23T13:48:07Z</time>
      </trkpt>
      <trkpt lat="44.44595" lon="0.95575">
        <ele>132.32</ele>
        <time>2013-02-23T13:48:10Z</time>
      </trkpt>
      <trkpt lat="44.44591" lon="0.95575">
        <ele>131.84</ele>
        <time>2013-02-23T13:48:11Z</time>
      </trkpt>
      <trkpt lat="44.44586" lon="0.95574">
        <ele>131.36</ele>
        <time>2013-02-23T13:48:12Z</time>
      </trkpt>
      <trkpt lat="44.44582" lon="0.95574">
        <ele>131.36</ele>
        <time>2013-02-23T13:48:13Z</time>
      </trkpt>
      <trkpt lat="44.44577" lon="0.95575">
        <ele>130.88</ele>
        <time>2013-02-23T13:48:14Z</time>
      </trkpt>
      <trkpt lat="44.44561" lon="0.95579">
        <ele>130.4</ele>
        <time>2013-02-23T13:48:18Z</time>
      </trkpt>
      <trkpt lat="44.44535" lon="0.95592">
        <ele>129.92</ele>
        <time>2013-02-23T13:48:24Z</time>
      </trkpt>
      <trkpt lat="44.44481" lon="0.95644">
        <ele>129.92</ele>
        <time>2013-02-23T13:48:40Z</time>
      </trkpt>
      <trkpt lat="44.44437" lon="0.95693">
        <ele>130.88</ele>
        <time>2013-02-23T13:48:57Z</time>
      </trkpt>
      <trkpt lat="44.44431" lon="0.95698">
        <ele>130.88</ele>
        <time>2013-02-23T13:49:00Z</time>
      </trkpt>
      <trkpt lat="44.44429" lon="0.95697">
        <ele>130.88</ele>
        <time>2013-02-23T13:49:01Z</time>
      </trkpt>
      <trkpt lat="44.44428" lon="0.95696">
        <ele>130.88</ele>
        <time>2013-02-23T13:49:02Z</time>
      </trkpt>
      <trkpt lat="44.44428" lon="0.95695">
        <ele>130.88</ele>
        <time>2013-02-23T13:49:03Z</time>
      </trkpt>
      <trkpt lat="44.44427" lon="0.95693">
        <ele>130.4</ele>
        <time>2013-02-23T13:49:04Z</time>
      </trkpt>
      <trkpt lat="44.44427" lon="0.95692">
        <ele>130.4</ele>
        <time>2013-02-23T13:49:05Z</time>
      </trkpt>
      <trkpt lat="44.44427" lon="0.9569">
        <ele>130.4</ele>
        <time>2013-02-23T13:49:06Z</time>
      </trkpt>
      <trkpt lat="44.44427" lon="0.95689">
        <ele>129.92</ele>
        <time>2013-02-23T13:49:07Z</time>
      </trkpt>
      <trkpt lat="44.44427" lon="0.95687">
        <ele>129.92</ele>
        <time>2013-02-23T13:49:08Z</time>
      </trkpt>
      <trkpt lat="44.44427" lon="0.95685">
        <ele>129.43</ele>
        <time>2013-02-23T13:49:09Z</time>
      </trkpt>
      <trkpt lat="44.44426" lon="0.95683">
        <ele>129.43</ele>
        <time>2013-02-23T13:49:10Z</time>
      </trkpt>
      <trkpt lat="44.44425" lon="0.95681">
        <ele>129.43</ele>
        <time>2013-02-23T13:49:11Z</time>
      </trkpt>
      <trkpt lat="44.44425" lon="0.95679">
        <ele>128.95</ele>
        <time>2013-02-23T13:49:12Z</time>
      </trkpt>
      <trkpt lat="44.44424" lon="0.95678">
        <ele>128.95</ele>
        <time>2013-02-23T13:49:13Z</time>
      </trkpt>
      <trkpt lat="44.44423" lon="0.95676">
        <ele>128.95</ele>
        <time>2013-02-23T13:49:14Z</time>
      </trkpt>
      <trkpt lat="44.44422" lon="0.95673">
        <ele>128.95</ele>
        <time>2013-02-23T13:49:15Z</time>
      </trkpt>
      <trkpt lat="44.4442" lon="0.9567">
        <ele>128.95</ele>
        <time>2013-02-23T13:49:16Z</time>
      </trkpt>
      <trkpt lat="44.44419" lon="0.95666">
        <ele>128.95</ele>
        <time>2013-02-23T13:49:17Z</time>
      </trkpt>
      <trkpt lat="44.44417" lon="0.95661">
        <ele>128.95</ele>
        <time>2013-02-23T13:49:18Z</time>
      </trkpt>
      <trkpt lat="44.44415" lon="0.95656">
        <ele>128.47</ele>
        <time>2013-02-23T13:49:19Z</time>
      </trkpt>
      <trkpt lat="44.44413" lon="0.95651">
        <ele>128.47</ele>
        <time>2013-02-23T13:49:20Z</time>
      </trkpt>
      <trkpt lat="44.4441" lon="0.95646">
        <ele>128.47</ele>
        <time>2013-02-23T13:49:21Z</time>
      </trkpt>
      <trkpt lat="44.44408" lon="0.9564">
        <ele>128.95</ele>
        <time>2013-02-23T13:49:22Z</time>
      </trkpt>
      <trkpt lat="44.44406" lon="0.95634">
        <ele>128.47</ele>
        <time>2013-02-23T13:49:23Z</time>
      </trkpt>
      <trkpt lat="44.44363" lon="0.95522">
        <ele>125.11</ele>
        <time>2013-02-23T13:49:40Z</time>
      </trkpt>
      <trkpt lat="44.44313" lon="0.95392">
        <ele>119.82</ele>
        <time>2013-02-23T13:49:57Z</time>
      </trkpt>
      <trkpt lat="44.44312" lon="0.95385">
        <ele>119.82</ele>
        <time>2013-02-23T13:49:58Z</time>
      </trkpt>
      <trkpt lat="44.44313" lon="0.95377">
        <ele>119.82</ele>
        <time>2013-02-23T13:49:59Z</time>
      </trkpt>
      <trkpt lat="44.44316" lon="0.95371">
        <ele>119.34</ele>
        <time>2013-02-23T13:50:00Z</time>
      </trkpt>
      <trkpt lat="44.44321" lon="0.95365">
        <ele>119.34</ele>
        <time>2013-02-23T13:50:01Z</time>
      </trkpt>
      <trkpt lat="44.44335" lon="0.95352">
        <ele>119.34</ele>
        <time>2013-02-23T13:50:04Z</time>
      </trkpt>
      <trkpt lat="44.44339" lon="0.95346">
        <ele>119.34</ele>
        <time>2013-02-23T13:50:05Z</time>
      </trkpt>
      <trkpt lat="44.44343" lon="0.95341">
        <ele>118.86</ele>
        <time>2013-02-23T13:50:06Z</time>
      </trkpt>
      <trkpt lat="44.44347" lon="0.95335">
        <ele>118.86</ele>
        <time>2013-02-23T13:50:07Z</time>
      </trkpt>
      <trkpt lat="44.44351" lon="0.9533">
        <ele>118.86</ele>
        <time>2013-02-23T13:50:08Z</time>
      </trkpt>
      <trkpt lat="44.44354" lon="0.95324">
        <ele>118.86</ele>
        <time>2013-02-23T13:50:09Z</time>
      </trkpt>
      <trkpt lat="44.44364" lon="0.95309">
        <ele>118.86</ele>
        <time>2013-02-23T13:50:12Z</time>
      </trkpt>
      <trkpt lat="44.44365" lon="0.95304">
        <ele>118.86</ele>
        <time>2013-02-23T13:50:13Z</time>
      </trkpt>
      <trkpt lat="44.44365" lon="0.95299">
        <ele>118.38</ele>
        <time>2013-02-23T13:50:14Z</time>
      </trkpt>
      <trkpt lat="44.44365" lon="0.95295">
        <ele>117.9</ele>
        <time>2013-02-23T13:50:15Z</time>
      </trkpt>
      <trkpt lat="44.44364" lon="0.9529">
        <ele>117.9</ele>
        <time>2013-02-23T13:50:16Z</time>
      </trkpt>
      <trkpt lat="44.44364" lon="0.95279">
        <ele>117.42</ele>
        <time>2013-02-23T13:50:18Z</time>
      </trkpt>
      <trkpt lat="44.44365" lon="0.95274">
        <ele>117.42</ele>
        <time>2013-02-23T13:50:19Z</time>
      </trkpt>
      <trkpt lat="44.44367" lon="0.9527">
        <ele>117.42</ele>
        <time>2013-02-23T13:50:20Z</time>
      </trkpt>
      <trkpt lat="44.44368" lon="0.95267">
        <ele>116.94</ele>
        <time>2013-02-23T13:50:21Z</time>
      </trkpt>
      <trkpt lat="44.44368" lon="0.95263">
        <ele>116.94</ele>
        <time>2013-02-23T13:50:22Z</time>
      </trkpt>
      <trkpt lat="44.44372" lon="0.95214">
        <ele>114.53</ele>
        <time>2013-02-23T13:50:32Z</time>
      </trkpt>
      <trkpt lat="44.44361" lon="0.95186">
        <ele>112.61</ele>
        <time>2013-02-23T13:50:41Z</time>
      </trkpt>
      <trkpt lat="44.44355" lon="0.95193">
        <ele>113.09</ele>
        <time>2013-02-23T13:50:49Z</time>
      </trkpt>
      <trkpt lat="44.44355" lon="0.95193">
        <ele>113.57</ele>
        <time>2013-02-23T13:51:03Z</time>
      </trkpt>
      <trkpt lat="44.44355" lon="0.95194">
        <ele>113.09</ele>
        <time>2013-02-23T13:51:29Z</time>
      </trkpt>
      <trkpt lat="44.44355" lon="0.95194">
        <ele>113.09</ele>
        <time>2013-02-23T13:51:31Z</time>
      </trkpt>
      <trkpt lat="44.44343" lon="0.95201">
        <ele>113.09</ele>
        <time>2013-02-23T13:51:37Z</time>
      </trkpt>
      <trkpt lat="44.4432" lon="0.95177">
        <ele>112.61</ele>
        <time>2013-02-23T13:51:45Z</time>
      </trkpt>
      <trkpt lat="44.44286" lon="0.95111">
        <ele>109.25</ele>
        <time>2013-02-23T13:52:00Z</time>
      </trkpt>
      <trkpt lat="44.44259" lon="0.95058">
        <ele>109.73</ele>
        <time>2013-02-23T13:52:14Z</time>
      </trkpt>
      <trkpt lat="44.44237" lon="0.95021">
        <ele>108.29</ele>
        <time>2013-02-23T13:52:26Z</time>
      </trkpt>
      <trkpt lat="44.44229" lon="0.95021">
        <ele>106.36</ele>
        <time>2013-02-23T13:52:31Z</time>
      </trkpt>
      <trkpt lat="44.44223" lon="0.95028">
        <ele>104.92</ele>
        <time>2013-02-23T13:52:36Z</time>
      </trkpt>
      <trkpt lat="44.44222" lon="0.95032">
        <ele>105.4</ele>
        <time>2013-02-23T13:52:38Z</time>
      </trkpt>
      <trkpt lat="44.44219" lon="0.95039">
        <ele>106.84</ele>
        <time>2013-02-23T13:52:42Z</time>
      </trkpt>
      <trkpt lat="44.44208" lon="0.9505">
        <ele>107.81</ele>
        <time>2013-02-23T13:52:50Z</time>
      </trkpt>
      <trkpt lat="44.44188" lon="0.95069">
        <ele>111.17</ele>
        <time>2013-02-23T13:53:02Z</time>
      </trkpt>
      <trkpt lat="44.44178" lon="0.9508">
        <ele>111.65</ele>
        <time>2013-02-23T13:53:09Z</time>
      </trkpt>
      <trkpt lat="44.44171" lon="0.95084">
        <ele>112.61</ele>
        <time>2013-02-23T13:53:13Z</time>
      </trkpt>
      <trkpt lat="44.44151" lon="0.95104">
        <ele>116.46</ele>
        <time>2013-02-23T13:53:25Z</time>
      </trkpt>
      <trkpt lat="44.44146" lon="0.95109">
        <ele>116.94</ele>
        <time>2013-02-23T13:53:28Z</time>
      </trkpt>
      <trkpt lat="44.44142" lon="0.95126">
        <ele>116.94</ele>
        <time>2013-02-23T13:53:37Z</time>
      </trkpt>
      <trkpt lat="44.44144" lon="0.95144">
        <ele>117.42</ele>
        <time>2013-02-23T13:53:46Z</time>
      </trkpt>
      <trkpt lat="44.44142" lon="0.95155">
        <ele>115.5</ele>
        <time>2013-02-23T13:53:58Z</time>
      </trkpt>
      <trkpt lat="44.44136" lon="0.95159">
        <ele>114.53</ele>
        <time>2013-02-23T13:54:02Z</time>
      </trkpt>
      <trkpt lat="44.44099" lon="0.95176">
        <ele>110.21</ele>
        <time>2013-02-23T13:54:16Z</time>
      </trkpt>
      <trkpt lat="44.44073" lon="0.95189">
        <ele>111.17</ele>
        <time>2013-02-23T13:54:27Z</time>
      </trkpt>
      <trkpt lat="44.44045" lon="0.95201">
        <ele>112.61</ele>
        <time>2013-02-23T13:54:40Z</time>
      </trkpt>
      <trkpt lat="44.44034" lon="0.95204">
        <ele>111.65</ele>
        <time>2013-02-23T13:54:45Z</time>
      </trkpt>
      <trkpt lat="44.4403" lon="0.95201">
        <ele>112.13</ele>
        <time>2013-02-23T13:54:49Z</time>
      </trkpt>
      <trkpt lat="44.44023" lon="0.95183">
        <ele>113.09</ele>
        <time>2013-02-23T13:54:58Z</time>
      </trkpt>
      <trkpt lat="44.44003" lon="0.9514">
        <ele>116.46</ele>
        <time>2013-02-23T13:55:11Z</time>
      </trkpt>
      <trkpt lat="44.43977" lon="0.95096">
        <ele>114.05</ele>
        <time>2013-02-23T13:55:24Z</time>
      </trkpt>
      <trkpt lat="44.43951" lon="0.95084">
        <ele>110.69</ele>
        <time>2013-02-23T13:55:34Z</time>
      </trkpt>
      <trkpt lat="44.43941" lon="0.95068">
        <ele>108.77</ele>
        <time>2013-02-23T13:55:39Z</time>
      </trkpt>
      <trkpt lat="44.43916" lon="0.9505">
        <ele>103.96</ele>
        <time>2013-02-23T13:55:49Z</time>
      </trkpt>
      <trkpt lat="44.43916" lon="0.9504">
        <ele>102.04</ele>
        <time>2013-02-23T13:55:53Z</time>
      </trkpt>
      <trkpt lat="44.43943" lon="0.95016">
        <ele>102.04</ele>
        <time>2013-02-23T13:56:07Z</time>
      </trkpt>
      <trkpt lat="44.43956" lon="0.95008">
        <ele>101.56</ele>
        <time>2013-02-23T13:56:13Z</time>
      </trkpt>
      <trkpt lat="44.44" lon="0.94997">
        <ele>100.6</ele>
        <time>2013-02-23T13:56:30Z</time>
      </trkpt>
      <trkpt lat="44.44047" lon="0.94987">
        <ele>99.63</ele>
        <time>2013-02-23T13:56:48Z</time>
      </trkpt>
      <trkpt lat="44.44077" lon="0.94993">
        <ele>99.63</ele>
        <time>2013-02-23T13:56:59Z</time>
      </trkpt>
      <trkpt lat="44.44086" lon="0.94961">
        <ele>99.15</ele>
        <time>2013-02-23T13:57:08Z</time>
      </trkpt>
      <trkpt lat="44.44105" lon="0.94943">
        <ele>97.71</ele>
        <time>2013-02-23T13:57:16Z</time>
      </trkpt>
      <trkpt lat="44.44108" lon="0.94943">
        <ele>97.71</ele>
        <time>2013-02-23T13:57:17Z</time>
      </trkpt>
      <trkpt lat="44.44145" lon="0.94931">
        <ele>97.71</ele>
        <time>2013-02-23T13:57:29Z</time>
      </trkpt>
      <trkpt lat="44.44148" lon="0.94926">
        <ele>98.19</ele>
        <time>2013-02-23T13:57:31Z</time>
      </trkpt>
      <trkpt lat="44.44147" lon="0.94923">
        <ele>98.19</ele>
        <time>2013-02-23T13:57:32Z</time>
      </trkpt>
      <trkpt lat="44.44147" lon="0.94921">
        <ele>97.71</ele>
        <time>2013-02-23T13:57:33Z</time>
      </trkpt>
      <trkpt lat="44.44146" lon="0.94919">
        <ele>97.71</ele>
        <time>2013-02-23T13:57:34Z</time>
      </trkpt>
      <trkpt lat="44.44145" lon="0.94916">
        <ele>97.71</ele>
        <time>2013-02-23T13:57:35Z</time>
      </trkpt>
      <trkpt lat="44.44144" lon="0.94914">
        <ele>97.71</ele>
        <time>2013-02-23T13:57:36Z</time>
      </trkpt>
      <trkpt lat="44.44143" lon="0.94912">
        <ele>97.23</ele>
        <time>2013-02-23T13:57:37Z</time>
      </trkpt>
      <trkpt lat="44.44133" lon="0.94894">
        <ele>94.35</ele>
        <time>2013-02-23T13:57:47Z</time>
      </trkpt>
      <trkpt lat="44.44132" lon="0.94892">
        <ele>94.35</ele>
        <time>2013-02-23T13:57:48Z</time>
      </trkpt>
      <trkpt lat="44.44126" lon="0.94883">
        <ele>96.27</ele>
        <time>2013-02-23T13:57:53Z</time>
      </trkpt>
      <trkpt lat="44.44125" lon="0.94881">
        <ele>96.75</ele>
        <time>2013-02-23T13:57:54Z</time>
      </trkpt>
      <trkpt lat="44.44125" lon="0.94879">
        <ele>96.75</ele>
        <time>2013-02-23T13:57:55Z</time>
      </trkpt>
      <trkpt lat="44.44124" lon="0.94878">
        <ele>96.75</ele>
        <time>2013-02-23T13:57:56Z</time>
      </trkpt>
      <trkpt lat="44.44123" lon="0.94876">
        <ele>97.23</ele>
        <time>2013-02-23T13:57:57Z</time>
      </trkpt>
      <trkpt lat="44.44122" lon="0.94874">
        <ele>97.71</ele>
        <time>2013-02-23T13:57:58Z</time>
      </trkpt>
      <trkpt lat="44.44121" lon="0.94872">
        <ele>97.71</ele>
        <time>2013-02-23T13:57:59Z</time>
      </trkpt>
      <trkpt lat="44.4412" lon="0.94871">
        <ele>97.71</ele>
        <time>2013-02-23T13:58:00Z</time>
      </trkpt>
      <trkpt lat="44.44119" lon="0.9487">
        <ele>98.19</ele>
        <time>2013-02-23T13:58:01Z</time>
      </trkpt>
      <trkpt lat="44.44119" lon="0.94868">
        <ele>98.19</ele>
        <time>2013-02-23T13:58:02Z</time>
      </trkpt>
      <trkpt lat="44.44117" lon="0.94867">
        <ele>98.19</ele>
        <time>2013-02-23T13:58:03Z</time>
      </trkpt>
      <trkpt lat="44.44116" lon="0.94865">
        <ele>98.67</ele>
        <time>2013-02-23T13:58:15Z</time>
      </trkpt>
      <trkpt lat="44.44116" lon="0.94866">
        <ele>98.19</ele>
        <time>2013-02-23T13:58:32Z</time>
      </trkpt>
      <trkpt lat="44.44116" lon="0.94865">
        <ele>97.71</ele>
        <time>2013-02-23T13:58:37Z</time>
      </trkpt>
      <trkpt lat="44.44103" lon="0.94845">
        <ele>97.23</ele>
        <time>2013-02-23T13:58:49Z</time>
      </trkpt>
      <trkpt lat="44.44087" lon="0.94818">
        <ele>98.19</ele>
        <time>2013-02-23T13:59:03Z</time>
      </trkpt>
      <trkpt lat="44.44067" lon="0.94785">
        <ele>100.6</ele>
        <time>2013-02-23T13:59:20Z</time>
      </trkpt>
      <trkpt lat="44.44047" lon="0.94755">
        <ele>103.48</ele>
        <time>2013-02-23T13:59:36Z</time>
      </trkpt>
      <trkpt lat="44.44023" lon="0.94718">
        <ele>107.32</ele>
        <time>2013-02-23T13:59:56Z</time>
      </trkpt>
      <trkpt lat="44.44003" lon="0.94688">
        <ele>110.69</ele>
        <time>2013-02-23T14:00:11Z</time>
      </trkpt>
      <trkpt lat="44.43985" lon="0.9466">
        <ele>111.17</ele>
        <time>2013-02-23T14:00:25Z</time>
      </trkpt>
      <trkpt lat="44.43984" lon="0.94659">
        <ele>111.17</ele>
        <time>2013-02-23T14:00:26Z</time>
      </trkpt>
      <trkpt lat="44.43983" lon="0.94659">
        <ele>111.17</ele>
        <time>2013-02-23T14:00:27Z</time>
      </trkpt>
      <trkpt lat="44.43982" lon="0.9466">
        <ele>111.65</ele>
        <time>2013-02-23T14:00:28Z</time>
      </trkpt>
      <trkpt lat="44.4398" lon="0.94664">
        <ele>112.13</ele>
        <time>2013-02-23T14:00:33Z</time>
      </trkpt>
      <trkpt lat="44.43979" lon="0.94664">
        <ele>112.13</ele>
        <time>2013-02-23T14:00:34Z</time>
      </trkpt>
      <trkpt lat="44.43978" lon="0.94663">
        <ele>112.13</ele>
        <time>2013-02-23T14:00:35Z</time>
      </trkpt>
      <trkpt lat="44.43979" lon="0.94658">
        <ele>112.13</ele>
        <time>2013-02-23T14:00:39Z</time>
      </trkpt>
      <trkpt lat="44.43978" lon="0.94656">
        <ele>111.65</ele>
        <time>2013-02-23T14:00:40Z</time>
      </trkpt>
      <trkpt lat="44.43971" lon="0.94651">
        <ele>112.61</ele>
        <time>2013-02-23T14:00:52Z</time>
      </trkpt>
      <trkpt lat="44.43964" lon="0.94644">
        <ele>113.09</ele>
        <time>2013-02-23T14:01:01Z</time>
      </trkpt>
      <trkpt lat="44.43958" lon="0.9464">
        <ele>113.09</ele>
        <time>2013-02-23T14:01:08Z</time>
      </trkpt>
      <trkpt lat="44.43954" lon="0.94636">
        <ele>112.61</ele>
        <time>2013-02-23T14:01:13Z</time>
      </trkpt>
      <trkpt lat="44.43953" lon="0.94635">
        <ele>113.09</ele>
        <time>2013-02-23T14:01:14Z</time>
      </trkpt>
      <trkpt lat="44.43951" lon="0.94635">
        <ele>113.09</ele>
        <time>2013-02-23T14:01:15Z</time>
      </trkpt>
      <trkpt lat="44.4395" lon="0.94633">
        <ele>113.09</ele>
        <time>2013-02-23T14:01:16Z</time>
      </trkpt>
      <trkpt lat="44.43949" lon="0.94632">
        <ele>113.09</ele>
        <time>2013-02-23T14:01:17Z</time>
      </trkpt>
      <trkpt lat="44.43934" lon="0.9462">
        <ele>113.57</ele>
        <time>2013-02-23T14:01:27Z</time>
      </trkpt>
      <trkpt lat="44.43932" lon="0.94619">
        <ele>113.57</ele>
        <time>2013-02-23T14:01:28Z</time>
      </trkpt>
      <trkpt lat="44.43931" lon="0.94618">
        <ele>113.57</ele>
        <time>2013-02-23T14:01:29Z</time>
      </trkpt>
      <trkpt lat="44.43929" lon="0.94617">
        <ele>113.57</ele>
        <time>2013-02-23T14:01:30Z</time>
      </trkpt>
      <trkpt lat="44.43927" lon="0.94615">
        <ele>114.05</ele>
        <time>2013-02-23T14:01:31Z</time>
      </trkpt>
      <trkpt lat="44.43905" lon="0.94594">
        <ele>114.53</ele>
        <time>2013-02-23T14:01:43Z</time>
      </trkpt>
      <trkpt lat="44.43874" lon="0.94566">
        <ele>119.34</ele>
        <time>2013-02-23T14:01:59Z</time>
      </trkpt>
      <trkpt lat="44.43839" lon="0.94533">
        <ele>122.22</ele>
        <time>2013-02-23T14:02:14Z</time>
      </trkpt>
      <trkpt lat="44.43821" lon="0.94519">
        <ele>122.71</ele>
        <time>2013-02-23T14:02:22Z</time>
      </trkpt>
      <trkpt lat="44.43818" lon="0.94521">
        <ele>123.19</ele>
        <time>2013-02-23T14:02:23Z</time>
      </trkpt>
      <trkpt lat="44.43798" lon="0.94554">
        <ele>124.63</ele>
        <time>2013-02-23T14:02:35Z</time>
      </trkpt>
      <trkpt lat="44.43795" lon="0.94555">
        <ele>124.63</ele>
        <time>2013-02-23T14:02:36Z</time>
      </trkpt>
      <trkpt lat="44.43792" lon="0.94554">
        <ele>124.63</ele>
        <time>2013-02-23T14:02:37Z</time>
      </trkpt>
      <trkpt lat="44.4379" lon="0.94552">
        <ele>124.63</ele>
        <time>2013-02-23T14:02:38Z</time>
      </trkpt>
      <trkpt lat="44.43787" lon="0.9455">
        <ele>124.63</ele>
        <time>2013-02-23T14:02:39Z</time>
      </trkpt>
      <trkpt lat="44.43785" lon="0.94547">
        <ele>124.63</ele>
        <time>2013-02-23T14:02:40Z</time>
      </trkpt>
      <trkpt lat="44.43783" lon="0.94545">
        <ele>124.63</ele>
        <time>2013-02-23T14:02:41Z</time>
      </trkpt>
      <trkpt lat="44.43748" lon="0.94509">
        <ele>125.11</ele>
        <time>2013-02-23T14:02:58Z</time>
      </trkpt>
      <trkpt lat="44.43744" lon="0.94506">
        <ele>126.07</ele>
        <time>2013-02-23T14:03:10Z</time>
      </trkpt>
      <trkpt lat="44.43743" lon="0.94505">
        <ele>125.59</ele>
        <time>2013-02-23T14:03:24Z</time>
      </trkpt>
      <trkpt lat="44.43742" lon="0.94503">
        <ele>125.59</ele>
        <time>2013-02-23T14:03:25Z</time>
      </trkpt>
      <trkpt lat="44.4374" lon="0.94501">
        <ele>126.07</ele>
        <time>2013-02-23T14:03:26Z</time>
      </trkpt>
      <trkpt lat="44.43718" lon="0.94463">
        <ele>127.51</ele>
        <time>2013-02-23T14:03:39Z</time>
      </trkpt>
      <trkpt lat="44.43682" lon="0.94426">
        <ele>127.51</ele>
        <time>2013-02-23T14:03:53Z</time>
      </trkpt>
      <trkpt lat="44.43643" lon="0.94395">
        <ele>124.15</ele>
        <time>2013-02-23T14:04:05Z</time>
      </trkpt>
      <trkpt lat="44.43564" lon="0.94335">
        <ele>118.38</ele>
        <time>2013-02-23T14:04:19Z</time>
      </trkpt>
      <trkpt lat="44.43504" lon="0.9427">
        <ele>118.38</ele>
        <time>2013-02-23T14:04:30Z</time>
      </trkpt>
      <trkpt lat="44.43492" lon="0.94252">
        <ele>118.38</ele>
        <time>2013-02-23T14:04:33Z</time>
      </trkpt>
      <trkpt lat="44.43491" lon="0.94246">
        <ele>118.38</ele>
        <time>2013-02-23T14:04:34Z</time>
      </trkpt>
      <trkpt lat="44.43491" lon="0.9424">
        <ele>117.9</ele>
        <time>2013-02-23T14:04:35Z</time>
      </trkpt>
      <trkpt lat="44.43494" lon="0.94235">
        <ele>117.9</ele>
        <time>2013-02-23T14:04:36Z</time>
      </trkpt>
      <trkpt lat="44.43497" lon="0.94232">
        <ele>117.42</ele>
        <time>2013-02-23T14:04:37Z</time>
      </trkpt>
      <trkpt lat="44.43499" lon="0.94229">
        <ele>117.42</ele>
        <time>2013-02-23T14:04:38Z</time>
      </trkpt>
      <trkpt lat="44.43533" lon="0.94209">
        <ele>116.94</ele>
        <time>2013-02-23T14:04:50Z</time>
      </trkpt>
      <trkpt lat="44.43568" lon="0.94209">
        <ele>116.46</ele>
        <time>2013-02-23T14:05:03Z</time>
      </trkpt>
      <trkpt lat="44.43585" lon="0.9418">
        <ele>116.46</ele>
        <time>2013-02-23T14:05:14Z</time>
      </trkpt>
      <trkpt lat="44.43607" lon="0.94141">
        <ele>115.5</ele>
        <time>2013-02-23T14:05:27Z</time>
      </trkpt>
      <trkpt lat="44.43616" lon="0.94125">
        <ele>115.01</ele>
        <time>2013-02-23T14:05:32Z</time>
      </trkpt>
      <trkpt lat="44.43643" lon="0.94081">
        <ele>115.5</ele>
        <time>2013-02-23T14:05:46Z</time>
      </trkpt>
      <trkpt lat="44.43673" lon="0.94031">
        <ele>117.42</ele>
        <time>2013-02-23T14:06:01Z</time>
      </trkpt>
      <trkpt lat="44.43702" lon="0.9399">
        <ele>118.86</ele>
        <time>2013-02-23T14:06:14Z</time>
      </trkpt>
      <trkpt lat="44.4373" lon="0.93943">
        <ele>119.34</ele>
        <time>2013-02-23T14:06:29Z</time>
      </trkpt>
      <trkpt lat="44.43743" lon="0.93916">
        <ele>118.86</ele>
        <time>2013-02-23T14:06:39Z</time>
      </trkpt>
      <trkpt lat="44.43742" lon="0.93913">
        <ele>118.38</ele>
        <time>2013-02-23T14:06:40Z</time>
      </trkpt>
      <trkpt lat="44.43738" lon="0.93906">
        <ele>117.42</ele>
        <time>2013-02-23T14:06:43Z</time>
      </trkpt>
      <trkpt lat="44.43735" lon="0.93902">
        <ele>118.38</ele>
        <time>2013-02-23T14:06:54Z</time>
      </trkpt>
      <trkpt lat="44.43734" lon="0.93898">
        <ele>117.9</ele>
        <time>2013-02-23T14:07:17Z</time>
      </trkpt>
      <trkpt lat="44.43733" lon="0.93896">
        <ele>117.42</ele>
        <time>2013-02-23T14:07:18Z</time>
      </trkpt>
      <trkpt lat="44.43704" lon="0.93853">
        <ele>118.38</ele>
        <time>2013-02-23T14:07:32Z</time>
      </trkpt>
      <trkpt lat="44.43664" lon="0.938">
        <ele>117.9</ele>
        <time>2013-02-23T14:07:47Z</time>
      </trkpt>
      <trkpt lat="44.43653" lon="0.93787">
        <ele>116.94</ele>
        <time>2013-02-23T14:07:51Z</time>
      </trkpt>
      <trkpt lat="44.43644" lon="0.93793">
        <ele>116.94</ele>
        <time>2013-02-23T14:07:55Z</time>
      </trkpt>
      <trkpt lat="44.43609" lon="0.93818">
        <ele>109.25</ele>
        <time>2013-02-23T14:08:08Z</time>
      </trkpt>
      <trkpt lat="44.43606" lon="0.93819">
        <ele>108.29</ele>
        <time>2013-02-23T14:08:09Z</time>
      </trkpt>
      <trkpt lat="44.43603" lon="0.93819">
        <ele>107.32</ele>
        <time>2013-02-23T14:08:10Z</time>
      </trkpt>
      <trkpt lat="44.436" lon="0.9382">
        <ele>106.36</ele>
        <time>2013-02-23T14:08:11Z</time>
      </trkpt>
      <trkpt lat="44.43598" lon="0.93821">
        <ele>105.4</ele>
        <time>2013-02-23T14:08:12Z</time>
      </trkpt>
      <trkpt lat="44.43595" lon="0.93822">
        <ele>104.44</ele>
        <time>2013-02-23T14:08:13Z</time>
      </trkpt>
      <trkpt lat="44.43593" lon="0.93822">
        <ele>103.48</ele>
        <time>2013-02-23T14:08:14Z</time>
      </trkpt>
      <trkpt lat="44.43591" lon="0.93822">
        <ele>103</ele>
        <time>2013-02-23T14:08:15Z</time>
      </trkpt>
      <trkpt lat="44.43592" lon="0.93818">
        <ele>101.08</ele>
        <time>2013-02-23T14:08:19Z</time>
      </trkpt>
      <trkpt lat="44.43595" lon="0.93815">
        <ele>101.08</ele>
        <time>2013-02-23T14:08:22Z</time>
      </trkpt>
      <trkpt lat="44.43596" lon="0.93813">
        <ele>102.04</ele>
        <time>2013-02-23T14:08:33Z</time>
      </trkpt>
      <trkpt lat="44.43595" lon="0.93813">
        <ele>101.08</ele>
        <time>2013-02-23T14:08:52Z</time>
      </trkpt>
      <trkpt lat="44.43596" lon="0.93811">
        <ele>101.56</ele>
        <time>2013-02-23T14:09:02Z</time>
      </trkpt>
      <trkpt lat="44.43598" lon="0.93811">
        <ele>101.56</ele>
        <time>2013-02-23T14:09:03Z</time>
      </trkpt>
      <trkpt lat="44.43599" lon="0.93809">
        <ele>102.04</ele>
        <time>2013-02-23T14:09:04Z</time>
      </trkpt>
      <trkpt lat="44.436" lon="0.93806">
        <ele>102.04</ele>
        <time>2013-02-23T14:09:05Z</time>
      </trkpt>
      <trkpt lat="44.43602" lon="0.93804">
        <ele>102.04</ele>
        <time>2013-02-23T14:09:06Z</time>
      </trkpt>
      <trkpt lat="44.43604" lon="0.938">
        <ele>102.04</ele>
        <time>2013-02-23T14:09:07Z</time>
      </trkpt>
      <trkpt lat="44.43605" lon="0.93798">
        <ele>102.04</ele>
        <time>2013-02-23T14:09:08Z</time>
      </trkpt>
      <trkpt lat="44.43607" lon="0.93795">
        <ele>102.04</ele>
        <time>2013-02-23T14:09:09Z</time>
      </trkpt>
      <trkpt lat="44.43608" lon="0.93792">
        <ele>102.04</ele>
        <time>2013-02-23T14:09:10Z</time>
      </trkpt>
      <trkpt lat="44.43631" lon="0.93745">
        <ele>101.08</ele>
        <time>2013-02-23T14:09:23Z</time>
      </trkpt>
      <trkpt lat="44.43649" lon="0.93674">
        <ele>99.63</ele>
        <time>2013-02-23T14:09:38Z</time>
      </trkpt>
      <trkpt lat="44.43661" lon="0.93607">
        <ele>97.71</ele>
        <time>2013-02-23T14:09:51Z</time>
      </trkpt>
      <trkpt lat="44.43662" lon="0.93601">
        <ele>97.71</ele>
        <time>2013-02-23T14:09:52Z</time>
      </trkpt>
      <trkpt lat="44.43664" lon="0.93596">
        <ele>97.23</ele>
        <time>2013-02-23T14:09:53Z</time>
      </trkpt>
      <trkpt lat="44.43671" lon="0.93582">
        <ele>96.75</ele>
        <time>2013-02-23T14:09:56Z</time>
      </trkpt>
      <trkpt lat="44.43674" lon="0.93578">
        <ele>96.27</ele>
        <time>2013-02-23T14:09:57Z</time>
      </trkpt>
      <trkpt lat="44.43717" lon="0.93546">
        <ele>94.83</ele>
        <time>2013-02-23T14:10:10Z</time>
      </trkpt>
      <trkpt lat="44.43746" lon="0.93532">
        <ele>94.83</ele>
        <time>2013-02-23T14:10:20Z</time>
      </trkpt>
      <trkpt lat="44.43773" lon="0.93509">
        <ele>93.87</ele>
        <time>2013-02-23T14:10:29Z</time>
      </trkpt>
      <trkpt lat="44.43777" lon="0.93505">
        <ele>93.39</ele>
        <time>2013-02-23T14:10:30Z</time>
      </trkpt>
      <trkpt lat="44.43782" lon="0.935">
        <ele>92.9</ele>
        <time>2013-02-23T14:10:31Z</time>
      </trkpt>
      <trkpt lat="44.43786" lon="0.93496">
        <ele>92.42</ele>
        <time>2013-02-23T14:10:32Z</time>
      </trkpt>
      <trkpt lat="44.43792" lon="0.93492">
        <ele>91.94</ele>
        <time>2013-02-23T14:10:33Z</time>
      </trkpt>
      <trkpt lat="44.43798" lon="0.9349">
        <ele>91.94</ele>
        <time>2013-02-23T14:10:34Z</time>
      </trkpt>
      <trkpt lat="44.43803" lon="0.9349">
        <ele>91.46</ele>
        <time>2013-02-23T14:10:35Z</time>
      </trkpt>
      <trkpt lat="44.43809" lon="0.93492">
        <ele>90.98</ele>
        <time>2013-02-23T14:10:36Z</time>
      </trkpt>
      <trkpt lat="44.43813" lon="0.93496">
        <ele>90.98</ele>
        <time>2013-02-23T14:10:37Z</time>
      </trkpt>
      <trkpt lat="44.43817" lon="0.935">
        <ele>90.98</ele>
        <time>2013-02-23T14:10:38Z</time>
      </trkpt>
      <trkpt lat="44.4382" lon="0.93504">
        <ele>90.5</ele>
        <time>2013-02-23T14:10:39Z</time>
      </trkpt>
      <trkpt lat="44.43823" lon="0.93507">
        <ele>90.5</ele>
        <time>2013-02-23T14:10:40Z</time>
      </trkpt>
      <trkpt lat="44.43862" lon="0.93527">
        <ele>91.46</ele>
        <time>2013-02-23T14:10:50Z</time>
      </trkpt>
      <trkpt lat="44.43866" lon="0.9353">
        <ele>91.46</ele>
        <time>2013-02-23T14:10:51Z</time>
      </trkpt>
      <trkpt lat="44.4387" lon="0.93534">
        <ele>90.98</ele>
        <time>2013-02-23T14:10:52Z</time>
      </trkpt>
      <trkpt lat="44.43881" lon="0.93545">
        <ele>90.5</ele>
        <time>2013-02-23T14:10:55Z</time>
      </trkpt>
      <trkpt lat="44.43885" lon="0.93548">
        <ele>90.5</ele>
        <time>2013-02-23T14:10:56Z</time>
      </trkpt>
      <trkpt lat="44.43889" lon="0.9355">
        <ele>90.5</ele>
        <time>2013-02-23T14:10:57Z</time>
      </trkpt>
      <trkpt lat="44.43902" lon="0.93554">
        <ele>90.98</ele>
        <time>2013-02-23T14:11:00Z</time>
      </trkpt>
      <trkpt lat="44.43912" lon="0.93554">
        <ele>90.98</ele>
        <time>2013-02-23T14:11:02Z</time>
      </trkpt>
      <trkpt lat="44.43934" lon="0.9355">
        <ele>89.54</ele>
        <time>2013-02-23T14:11:07Z</time>
      </trkpt>
      <trkpt lat="44.43938" lon="0.93547">
        <ele>89.54</ele>
        <time>2013-02-23T14:11:08Z</time>
      </trkpt>
      <trkpt lat="44.43943" lon="0.93544">
        <ele>90.02</ele>
        <time>2013-02-23T14:11:09Z</time>
      </trkpt>
      <trkpt lat="44.43992" lon="0.93512">
        <ele>95.31</ele>
        <time>2013-02-23T14:11:23Z</time>
      </trkpt>
      <trkpt lat="44.43999" lon="0.93516">
        <ele>95.79</ele>
        <time>2013-02-23T14:11:25Z</time>
      </trkpt>
      <trkpt lat="44.44026" lon="0.93546">
        <ele>96.27</ele>
        <time>2013-02-23T14:11:33Z</time>
      </trkpt>
      <trkpt lat="44.4403" lon="0.93548">
        <ele>96.27</ele>
        <time>2013-02-23T14:11:34Z</time>
      </trkpt>
      <trkpt lat="44.44034" lon="0.93548">
        <ele>96.27</ele>
        <time>2013-02-23T14:11:35Z</time>
      </trkpt>
      <trkpt lat="44.44037" lon="0.93546">
        <ele>96.75</ele>
        <time>2013-02-23T14:11:36Z</time>
      </trkpt>
      <trkpt lat="44.44041" lon="0.93544">
        <ele>97.23</ele>
        <time>2013-02-23T14:11:37Z</time>
      </trkpt>
      <trkpt lat="44.44044" lon="0.9354">
        <ele>97.71</ele>
        <time>2013-02-23T14:11:38Z</time>
      </trkpt>
      <trkpt lat="44.44047" lon="0.93536">
        <ele>98.19</ele>
        <time>2013-02-23T14:11:39Z</time>
      </trkpt>
      <trkpt lat="44.4405" lon="0.93532">
        <ele>98.19</ele>
        <time>2013-02-23T14:11:40Z</time>
      </trkpt>
      <trkpt lat="44.44052" lon="0.93528">
        <ele>98.67</ele>
        <time>2013-02-23T14:11:41Z</time>
      </trkpt>
      <trkpt lat="44.44057" lon="0.93518">
        <ele>99.63</ele>
        <time>2013-02-23T14:11:43Z</time>
      </trkpt>
      <trkpt lat="44.44075" lon="0.93457">
        <ele>105.4</ele>
        <time>2013-02-23T14:11:56Z</time>
      </trkpt>
      <trkpt lat="44.44108" lon="0.93454">
        <ele>109.25</ele>
        <time>2013-02-23T14:12:06Z</time>
      </trkpt>
      <trkpt lat="44.44139" lon="0.93458">
        <ele>111.65</ele>
        <time>2013-02-23T14:12:19Z</time>
      </trkpt>
      <trkpt lat="44.44138" lon="0.93458">
        <ele>112.13</ele>
        <time>2013-02-23T14:12:37Z</time>
      </trkpt>
      <trkpt lat="44.44139" lon="0.93458">
        <ele>112.13</ele>
        <time>2013-02-23T14:12:57Z</time>
      </trkpt>
      <trkpt lat="44.44139" lon="0.93458">
        <ele>113.09</ele>
        <time>2013-02-23T14:13:23Z</time>
      </trkpt>
      <trkpt lat="44.44139" lon="0.93459">
        <ele>113.09</ele>
        <time>2013-02-23T14:13:44Z</time>
      </trkpt>
      <trkpt lat="44.44139" lon="0.93461">
        <ele>113.09</ele>
        <time>2013-02-23T14:13:56Z</time>
      </trkpt>
      <trkpt lat="44.44139" lon="0.93461">
        <ele>113.57</ele>
        <time>2013-02-23T14:14:11Z</time>
      </trkpt>
      <trkpt lat="44.4414" lon="0.93462">
        <ele>113.57</ele>
        <time>2013-02-23T14:14:15Z</time>
      </trkpt>
      <trkpt lat="44.44141" lon="0.93462">
        <ele>113.09</ele>
        <time>2013-02-23T14:14:16Z</time>
      </trkpt>
      <trkpt lat="44.44142" lon="0.93462">
        <ele>113.09</ele>
        <time>2013-02-23T14:14:17Z</time>
      </trkpt>
      <trkpt lat="44.44142" lon="0.9346">
        <ele>113.09</ele>
        <time>2013-02-23T14:14:18Z</time>
      </trkpt>
      <trkpt lat="44.44143" lon="0.93458">
        <ele>113.09</ele>
        <time>2013-02-23T14:14:19Z</time>
      </trkpt>
      <trkpt lat="44.44145" lon="0.93457">
        <ele>113.09</ele>
        <time>2013-02-23T14:14:20Z</time>
      </trkpt>
      <trkpt lat="44.44146" lon="0.93455">
        <ele>113.09</ele>
        <time>2013-02-23T14:14:21Z</time>
      </trkpt>
      <trkpt lat="44.44148" lon="0.93454">
        <ele>113.09</ele>
        <time>2013-02-23T14:14:22Z</time>
      </trkpt>
      <trkpt lat="44.44151" lon="0.93452">
        <ele>113.09</ele>
        <time>2013-02-23T14:14:23Z</time>
      </trkpt>
      <trkpt lat="44.44153" lon="0.93451">
        <ele>113.09</ele>
        <time>2013-02-23T14:14:24Z</time>
      </trkpt>
      <trkpt lat="44.44155" lon="0.93449">
        <ele>112.61</ele>
        <time>2013-02-23T14:14:25Z</time>
      </trkpt>
      <trkpt lat="44.44157" lon="0.93447">
        <ele>112.61</ele>
        <time>2013-02-23T14:14:26Z</time>
      </trkpt>
      <trkpt lat="44.4416" lon="0.93444">
        <ele>112.61</ele>
        <time>2013-02-23T14:14:27Z</time>
      </trkpt>
      <trkpt lat="44.44185" lon="0.93412">
        <ele>112.13</ele>
        <time>2013-02-23T14:14:38Z</time>
      </trkpt>
      <trkpt lat="44.442" lon="0.93407">
        <ele>112.13</ele>
        <time>2013-02-23T14:14:44Z</time>
      </trkpt>
      <trkpt lat="44.44202" lon="0.93405">
        <ele>111.65</ele>
        <time>2013-02-23T14:14:45Z</time>
      </trkpt>
      <trkpt lat="44.44204" lon="0.93404">
        <ele>111.65</ele>
        <time>2013-02-23T14:14:46Z</time>
      </trkpt>
      <trkpt lat="44.44206" lon="0.93404">
        <ele>111.17</ele>
        <time>2013-02-23T14:14:47Z</time>
      </trkpt>
      <trkpt lat="44.44209" lon="0.93405">
        <ele>110.21</ele>
        <time>2013-02-23T14:14:48Z</time>
      </trkpt>
      <trkpt lat="44.44212" lon="0.93406">
        <ele>109.25</ele>
        <time>2013-02-23T14:14:49Z</time>
      </trkpt>
      <trkpt lat="44.44238" lon="0.93415">
        <ele>106.84</ele>
        <time>2013-02-23T14:14:57Z</time>
      </trkpt>
      <trkpt lat="44.44239" lon="0.9342">
        <ele>107.32</ele>
        <time>2013-02-23T14:14:58Z</time>
      </trkpt>
      <trkpt lat="44.44239" lon="0.93425">
        <ele>107.32</ele>
        <time>2013-02-23T14:14:59Z</time>
      </trkpt>
      <trkpt lat="44.44237" lon="0.93429">
        <ele>107.32</ele>
        <time>2013-02-23T14:15:00Z</time>
      </trkpt>
      <trkpt lat="44.44234" lon="0.9344">
        <ele>106.84</ele>
        <time>2013-02-23T14:15:02Z</time>
      </trkpt>
      <trkpt lat="44.44231" lon="0.93444">
        <ele>106.36</ele>
        <time>2013-02-23T14:15:03Z</time>
      </trkpt>
      <trkpt lat="44.44229" lon="0.93447">
        <ele>106.36</ele>
        <time>2013-02-23T14:15:04Z</time>
      </trkpt>
      <trkpt lat="44.44198" lon="0.93489">
        <ele>111.17</ele>
        <time>2013-02-23T14:15:17Z</time>
      </trkpt>
      <trkpt lat="44.44192" lon="0.93515">
        <ele>112.13</ele>
        <time>2013-02-23T14:15:23Z</time>
      </trkpt>
      <trkpt lat="44.44194" lon="0.93519">
        <ele>112.13</ele>
        <time>2013-02-23T14:15:24Z</time>
      </trkpt>
      <trkpt lat="44.44203" lon="0.93529">
        <ele>111.17</ele>
        <time>2013-02-23T14:15:27Z</time>
      </trkpt>
      <trkpt lat="44.44206" lon="0.93534">
        <ele>110.69</ele>
        <time>2013-02-23T14:15:28Z</time>
      </trkpt>
      <trkpt lat="44.44207" lon="0.9354">
        <ele>110.21</ele>
        <time>2013-02-23T14:15:29Z</time>
      </trkpt>
      <trkpt lat="44.44206" lon="0.93546">
        <ele>110.21</ele>
        <time>2013-02-23T14:15:30Z</time>
      </trkpt>
      <trkpt lat="44.44204" lon="0.93551">
        <ele>110.21</ele>
        <time>2013-02-23T14:15:31Z</time>
      </trkpt>
      <trkpt lat="44.44189" lon="0.93582">
        <ele>113.09</ele>
        <time>2013-02-23T14:15:40Z</time>
      </trkpt>
      <trkpt lat="44.4419" lon="0.93585">
        <ele>113.09</ele>
        <time>2013-02-23T14:15:41Z</time>
      </trkpt>
      <trkpt lat="44.44192" lon="0.93588">
        <ele>113.57</ele>
        <time>2013-02-23T14:15:42Z</time>
      </trkpt>
      <trkpt lat="44.44228" lon="0.93612">
        <ele>113.57</ele>
        <time>2013-02-23T14:15:51Z</time>
      </trkpt>
      <trkpt lat="44.44232" lon="0.93613">
        <ele>113.57</ele>
        <time>2013-02-23T14:15:52Z</time>
      </trkpt>
      <trkpt lat="44.44235" lon="0.93614">
        <ele>113.57</ele>
        <time>2013-02-23T14:15:53Z</time>
      </trkpt>
      <trkpt lat="44.44239" lon="0.93614">
        <ele>114.05</ele>
        <time>2013-02-23T14:15:54Z</time>
      </trkpt>
      <trkpt lat="44.44243" lon="0.93613">
        <ele>114.05</ele>
        <time>2013-02-23T14:15:55Z</time>
      </trkpt>
      <trkpt lat="44.44247" lon="0.93614">
        <ele>114.53</ele>
        <time>2013-02-23T14:15:56Z</time>
      </trkpt>
      <trkpt lat="44.44252" lon="0.93615">
        <ele>114.53</ele>
        <time>2013-02-23T14:15:57Z</time>
      </trkpt>
      <trkpt lat="44.44292" lon="0.93625">
        <ele>115.5</ele>
        <time>2013-02-23T14:16:07Z</time>
      </trkpt>
      <trkpt lat="44.44297" lon="0.93625">
        <ele>115.5</ele>
        <time>2013-02-23T14:16:08Z</time>
      </trkpt>
      <trkpt lat="44.44301" lon="0.93625">
        <ele>115.5</ele>
        <time>2013-02-23T14:16:09Z</time>
      </trkpt>
      <trkpt lat="44.44306" lon="0.93624">
        <ele>115.5</ele>
        <time>2013-02-23T14:16:10Z</time>
      </trkpt>
      <trkpt lat="44.4431" lon="0.93623">
        <ele>115.5</ele>
        <time>2013-02-23T14:16:11Z</time>
      </trkpt>
      <trkpt lat="44.44314" lon="0.93621">
        <ele>115.5</ele>
        <time>2013-02-23T14:16:12Z</time>
      </trkpt>
      <trkpt lat="44.44318" lon="0.93619">
        <ele>115.5</ele>
        <time>2013-02-23T14:16:13Z</time>
      </trkpt>
      <trkpt lat="44.44322" lon="0.93616">
        <ele>115.98</ele>
        <time>2013-02-23T14:16:14Z</time>
      </trkpt>
      <trkpt lat="44.44326" lon="0.93613">
        <ele>115.98</ele>
        <time>2013-02-23T14:16:15Z</time>
      </trkpt>
      <trkpt lat="44.44365" lon="0.9356">
        <ele>116.46</ele>
        <time>2013-02-23T14:16:29Z</time>
      </trkpt>
      <trkpt lat="44.44371" lon="0.93552">
        <ele>115.98</ele>
        <time>2013-02-23T14:16:31Z</time>
      </trkpt>
      <trkpt lat="44.44414" lon="0.93513">
        <ele>115.98</ele>
        <time>2013-02-23T14:16:45Z</time>
      </trkpt>
      <trkpt lat="44.44463" lon="0.9346">
        <ele>116.46</ele>
        <time>2013-02-23T14:17:01Z</time>
      </trkpt>
      <trkpt lat="44.4451" lon="0.93436">
        <ele>121.26</ele>
        <time>2013-02-23T14:17:15Z</time>
      </trkpt>
      <trkpt lat="44.44518" lon="0.93431">
        <ele>122.22</ele>
        <time>2013-02-23T14:17:19Z</time>
      </trkpt>
      <trkpt lat="44.4452" lon="0.9343">
        <ele>122.22</ele>
        <time>2013-02-23T14:17:32Z</time>
      </trkpt>
      <trkpt lat="44.44519" lon="0.93428">
        <ele>122.22</ele>
        <time>2013-02-23T14:17:40Z</time>
      </trkpt>
      <trkpt lat="44.4452" lon="0.93426">
        <ele>122.22</ele>
        <time>2013-02-23T14:17:41Z</time>
      </trkpt>
      <trkpt lat="44.44519" lon="0.93424">
        <ele>122.22</ele>
        <time>2013-02-23T14:17:42Z</time>
      </trkpt>
      <trkpt lat="44.44519" lon="0.9342">
        <ele>122.22</ele>
        <time>2013-02-23T14:17:43Z</time>
      </trkpt>
      <trkpt lat="44.44519" lon="0.93417">
        <ele>122.22</ele>
        <time>2013-02-23T14:17:44Z</time>
      </trkpt>
      <trkpt lat="44.44519" lon="0.93412">
        <ele>122.22</ele>
        <time>2013-02-23T14:17:45Z</time>
      </trkpt>
      <trkpt lat="44.44519" lon="0.93352">
        <ele>120.3</ele>
        <time>2013-02-23T14:17:57Z</time>
      </trkpt>
      <trkpt lat="44.44511" lon="0.93315">
        <ele>121.74</ele>
        <time>2013-02-23T14:18:05Z</time>
      </trkpt>
      <trkpt lat="44.44505" lon="0.9329">
        <ele>121.26</ele>
        <time>2013-02-23T14:18:10Z</time>
      </trkpt>
      <trkpt lat="44.44502" lon="0.93264">
        <ele>119.34</ele>
        <time>2013-02-23T14:18:15Z</time>
      </trkpt>
      <trkpt lat="44.44485" lon="0.93234">
        <ele>115.98</ele>
        <time>2013-02-23T14:18:20Z</time>
      </trkpt>
      <trkpt lat="44.44472" lon="0.9322">
        <ele>114.05</ele>
        <time>2013-02-23T14:18:22Z</time>
      </trkpt>
      <trkpt lat="44.44462" lon="0.93205">
        <ele>114.05</ele>
        <time>2013-02-23T14:18:28Z</time>
      </trkpt>
      <trkpt lat="44.44461" lon="0.93198">
        <ele>115.98</ele>
        <time>2013-02-23T14:18:36Z</time>
      </trkpt>
      <trkpt lat="44.44462" lon="0.9318">
        <ele>117.9</ele>
        <time>2013-02-23T14:18:49Z</time>
      </trkpt>
      <trkpt lat="44.44473" lon="0.93142">
        <ele>115.5</ele>
        <time>2013-02-23T14:19:01Z</time>
      </trkpt>
      <trkpt lat="44.44496" lon="0.93108">
        <ele>112.61</ele>
        <time>2013-02-23T14:19:11Z</time>
      </trkpt>
      <trkpt lat="44.44509" lon="0.93093">
        <ele>109.73</ele>
        <time>2013-02-23T14:19:15Z</time>
      </trkpt>
      <trkpt lat="44.44515" lon="0.93083">
        <ele>107.81</ele>
        <time>2013-02-23T14:19:17Z</time>
      </trkpt>
      <trkpt lat="44.44535" lon="0.93074">
        <ele>107.81</ele>
        <time>2013-02-23T14:19:25Z</time>
      </trkpt>
      <trkpt lat="44.44571" lon="0.93073">
        <ele>107.81</ele>
        <time>2013-02-23T14:19:38Z</time>
      </trkpt>
      <trkpt lat="44.44602" lon="0.93089">
        <ele>113.09</ele>
        <time>2013-02-23T14:19:50Z</time>
      </trkpt>
      <trkpt lat="44.44625" lon="0.93107">
        <ele>114.05</ele>
        <time>2013-02-23T14:20:01Z</time>
      </trkpt>
      <trkpt lat="44.44632" lon="0.9311">
        <ele>112.61</ele>
        <time>2013-02-23T14:20:05Z</time>
      </trkpt>
      <trkpt lat="44.44634" lon="0.93113">
        <ele>114.05</ele>
        <time>2013-02-23T14:20:18Z</time>
      </trkpt>
      <trkpt lat="44.44635" lon="0.93113">
        <ele>113.57</ele>
        <time>2013-02-23T14:20:28Z</time>
      </trkpt>
      <trkpt lat="44.44636" lon="0.9311">
        <ele>113.57</ele>
        <time>2013-02-23T14:20:30Z</time>
      </trkpt>
      <trkpt lat="44.44633" lon="0.93107">
        <ele>113.57</ele>
        <time>2013-02-23T14:20:33Z</time>
      </trkpt>
      <trkpt lat="44.4463" lon="0.93111">
        <ele>114.53</ele>
        <time>2013-02-23T14:20:44Z</time>
      </trkpt>
      <trkpt lat="44.44631" lon="0.93112">
        <ele>114.53</ele>
        <time>2013-02-23T14:20:58Z</time>
      </trkpt>
      <trkpt lat="44.44631" lon="0.93112">
        <ele>114.05</ele>
        <time>2013-02-23T14:21:27Z</time>
      </trkpt>
      <trkpt lat="44.44631" lon="0.93112">
        <ele>114.53</ele>
        <time>2013-02-23T14:22:00Z</time>
      </trkpt>
      <trkpt lat="44.44631" lon="0.93111">
        <ele>114.53</ele>
        <time>2013-02-23T14:22:24Z</time>
      </trkpt>
      <trkpt lat="44.44632" lon="0.93111">
        <ele>115.5</ele>
        <time>2013-02-23T14:22:55Z</time>
      </trkpt>
      <trkpt lat="44.44633" lon="0.93111">
        <ele>115.5</ele>
        <time>2013-02-23T14:23:12Z</time>
      </trkpt>
      <trkpt lat="44.44633" lon="0.93111">
        <ele>115.5</ele>
        <time>2013-02-23T14:23:41Z</time>
      </trkpt>
      <trkpt lat="44.44632" lon="0.9311">
        <ele>115.98</ele>
        <time>2013-02-23T14:24:18Z</time>
      </trkpt>
      <trkpt lat="44.44633" lon="0.93109">
        <ele>115.98</ele>
        <time>2013-02-23T14:24:51Z</time>
      </trkpt>
      <trkpt lat="44.44634" lon="0.9311">
        <ele>115.5</ele>
        <time>2013-02-23T14:25:23Z</time>
      </trkpt>
      <trkpt lat="44.44634" lon="0.9311">
        <ele>115.01</ele>
        <time>2013-02-23T14:25:58Z</time>
      </trkpt>
      <trkpt lat="44.44633" lon="0.9311">
        <ele>113.09</ele>
        <time>2013-02-23T14:26:27Z</time>
      </trkpt>
      <trkpt lat="44.44633" lon="0.9311">
        <ele>111.65</ele>
        <time>2013-02-23T14:27:09Z</time>
      </trkpt>
      <trkpt lat="44.44633" lon="0.93109">
        <ele>110.21</ele>
        <time>2013-02-23T14:27:51Z</time>
      </trkpt>
      <trkpt lat="44.44633" lon="0.9311">
        <ele>111.17</ele>
        <time>2013-02-23T14:28:24Z</time>
      </trkpt>
      <trkpt lat="44.44633" lon="0.9311">
        <ele>112.61</ele>
        <time>2013-02-23T14:29:12Z</time>
      </trkpt>
      <trkpt lat="44.44632" lon="0.9311">
        <ele>111.65</ele>
        <time>2013-02-23T14:29:54Z</time>
      </trkpt>
      <trkpt lat="44.44634" lon="0.93113">
        <ele>111.65</ele>
        <time>2013-02-23T14:30:11Z</time>
      </trkpt>
      <trkpt lat="44.44657" lon="0.93133">
        <ele>109.73</ele>
        <time>2013-02-23T14:30:23Z</time>
      </trkpt>
      <trkpt lat="44.44704" lon="0.93163">
        <ele>105.4</ele>
        <time>2013-02-23T14:30:36Z</time>
      </trkpt>
      <trkpt lat="44.4471" lon="0.93167">
        <ele>104.44</ele>
        <time>2013-02-23T14:30:37Z</time>
      </trkpt>
      <trkpt lat="44.44729" lon="0.93149">
        <ele>102.04</ele>
        <time>2013-02-23T14:30:43Z</time>
      </trkpt>
      <trkpt lat="44.44733" lon="0.93128">
        <ele>102.04</ele>
        <time>2013-02-23T14:30:46Z</time>
      </trkpt>
      <trkpt lat="44.44736" lon="0.93094">
        <ele>101.08</ele>
        <time>2013-02-23T14:30:51Z</time>
      </trkpt>
      <trkpt lat="44.44729" lon="0.93041">
        <ele>95.79</ele>
        <time>2013-02-23T14:30:58Z</time>
      </trkpt>
      <trkpt lat="44.44739" lon="0.92998">
        <ele>90.5</ele>
        <time>2013-02-23T14:31:02Z</time>
      </trkpt>
      <trkpt lat="44.44759" lon="0.9298">
        <ele>86.18</ele>
        <time>2013-02-23T14:31:07Z</time>
      </trkpt>
      <trkpt lat="44.44787" lon="0.92981">
        <ele>85.21</ele>
        <time>2013-02-23T14:31:12Z</time>
      </trkpt>
      <trkpt lat="44.44793" lon="0.92978">
        <ele>84.73</ele>
        <time>2013-02-23T14:31:13Z</time>
      </trkpt>
      <trkpt lat="44.44799" lon="0.92973">
        <ele>84.25</ele>
        <time>2013-02-23T14:31:14Z</time>
      </trkpt>
      <trkpt lat="44.44803" lon="0.92966">
        <ele>83.77</ele>
        <time>2013-02-23T14:31:15Z</time>
      </trkpt>
      <trkpt lat="44.44806" lon="0.92958">
        <ele>83.29</ele>
        <time>2013-02-23T14:31:16Z</time>
      </trkpt>
      <trkpt lat="44.44808" lon="0.92948">
        <ele>82.81</ele>
        <time>2013-02-23T14:31:17Z</time>
      </trkpt>
      <trkpt lat="44.4481" lon="0.92939">
        <ele>82.33</ele>
        <time>2013-02-23T14:31:18Z</time>
      </trkpt>
      <trkpt lat="44.44811" lon="0.92928">
        <ele>81.37</ele>
        <time>2013-02-23T14:31:19Z</time>
      </trkpt>
      <trkpt lat="44.4482" lon="0.92842">
        <ele>77.04</ele>
        <time>2013-02-23T14:31:28Z</time>
      </trkpt>
      <trkpt lat="44.4482" lon="0.9284">
        <ele>78</ele>
        <time>2013-02-23T14:31:38Z</time>
      </trkpt>
      <trkpt lat="44.44819" lon="0.9284">
        <ele>79.93</ele>
        <time>2013-02-23T14:32:00Z</time>
      </trkpt>
      <trkpt lat="44.44819" lon="0.92839">
        <ele>79.93</ele>
        <time>2013-02-23T14:32:27Z</time>
      </trkpt>
      <trkpt lat="44.4482" lon="0.92836">
        <ele>79.93</ele>
        <time>2013-02-23T14:32:28Z</time>
      </trkpt>
      <trkpt lat="44.44822" lon="0.92834">
        <ele>79.93</ele>
        <time>2013-02-23T14:32:29Z</time>
      </trkpt>
      <trkpt lat="44.44823" lon="0.92831">
        <ele>79.93</ele>
        <time>2013-02-23T14:32:30Z</time>
      </trkpt>
      <trkpt lat="44.44824" lon="0.92828">
        <ele>79.93</ele>
        <time>2013-02-23T14:32:31Z</time>
      </trkpt>
      <trkpt lat="44.44826" lon="0.92824">
        <ele>79.93</ele>
        <time>2013-02-23T14:32:32Z</time>
      </trkpt>
      <trkpt lat="44.44828" lon="0.92821">
        <ele>79.93</ele>
        <time>2013-02-23T14:32:33Z</time>
      </trkpt>
      <trkpt lat="44.4483" lon="0.92817">
        <ele>79.93</ele>
        <time>2013-02-23T14:32:34Z</time>
      </trkpt>
      <trkpt lat="44.44832" lon="0.92813">
        <ele>79.45</ele>
        <time>2013-02-23T14:32:35Z</time>
      </trkpt>
      <trkpt lat="44.44834" lon="0.92804">
        <ele>79.45</ele>
        <time>2013-02-23T14:32:37Z</time>
      </trkpt>
      <trkpt lat="44.44833" lon="0.928">
        <ele>78.97</ele>
        <time>2013-02-23T14:32:38Z</time>
      </trkpt>
      <trkpt lat="44.44832" lon="0.92796">
        <ele>78.48</ele>
        <time>2013-02-23T14:32:39Z</time>
      </trkpt>
      <trkpt lat="44.44829" lon="0.92791">
        <ele>78.48</ele>
        <time>2013-02-23T14:32:40Z</time>
      </trkpt>
      <trkpt lat="44.44826" lon="0.92787">
        <ele>78</ele>
        <time>2013-02-23T14:32:41Z</time>
      </trkpt>
      <trkpt lat="44.44792" lon="0.92731">
        <ele>75.6</ele>
        <time>2013-02-23T14:32:55Z</time>
      </trkpt>
      <trkpt lat="44.44765" lon="0.92683">
        <ele>75.12</ele>
        <time>2013-02-23T14:33:08Z</time>
      </trkpt>
      <trkpt lat="44.44759" lon="0.92669">
        <ele>76.08</ele>
        <time>2013-02-23T14:33:12Z</time>
      </trkpt>
      <trkpt lat="44.44743" lon="0.92636">
        <ele>77.04</ele>
        <time>2013-02-23T14:33:24Z</time>
      </trkpt>
      <trkpt lat="44.44722" lon="0.92591">
        <ele>78.97</ele>
        <time>2013-02-23T14:33:40Z</time>
      </trkpt>
      <trkpt lat="44.44703" lon="0.92554">
        <ele>81.37</ele>
        <time>2013-02-23T14:33:57Z</time>
      </trkpt>
      <trkpt lat="44.44703" lon="0.92551">
        <ele>81.85</ele>
        <time>2013-02-23T14:33:58Z</time>
      </trkpt>
      <trkpt lat="44.44707" lon="0.92542">
        <ele>82.33</ele>
        <time>2013-02-23T14:34:02Z</time>
      </trkpt>
      <trkpt lat="44.44728" lon="0.925">
        <ele>83.77</ele>
        <time>2013-02-23T14:34:20Z</time>
      </trkpt>
      <trkpt lat="44.4475" lon="0.92457">
        <ele>82.33</ele>
        <time>2013-02-23T14:34:36Z</time>
      </trkpt>
      <trkpt lat="44.44775" lon="0.92408">
        <ele>80.89</ele>
        <time>2013-02-23T14:34:53Z</time>
      </trkpt>
      <trkpt lat="44.44794" lon="0.9237">
        <ele>79.45</ele>
        <time>2013-02-23T14:35:06Z</time>
      </trkpt>
      <trkpt lat="44.44815" lon="0.92331">
        <ele>80.41</ele>
        <time>2013-02-23T14:35:20Z</time>
      </trkpt>
      <trkpt lat="44.44836" lon="0.92289">
        <ele>80.41</ele>
        <time>2013-02-23T14:35:35Z</time>
      </trkpt>
      <trkpt lat="44.44848" lon="0.92266">
        <ele>78.97</ele>
        <time>2013-02-23T14:35:42Z</time>
      </trkpt>
      <trkpt lat="44.44876" lon="0.92198">
        <ele>74.64</ele>
        <time>2013-02-23T14:35:54Z</time>
      </trkpt>
      <trkpt lat="44.4488" lon="0.92183">
        <ele>74.64</ele>
        <time>2013-02-23T14:35:59Z</time>
      </trkpt>
      <trkpt lat="44.44877" lon="0.9218">
        <ele>75.6</ele>
        <time>2013-02-23T14:36:09Z</time>
      </trkpt>
      <trkpt lat="44.44879" lon="0.9218">
        <ele>75.12</ele>
        <time>2013-02-23T14:36:39Z</time>
      </trkpt>
      <trkpt lat="44.44878" lon="0.92179">
        <ele>75.12</ele>
        <time>2013-02-23T14:37:00Z</time>
      </trkpt>
      <trkpt lat="44.44865" lon="0.92176">
        <ele>76.08</ele>
        <time>2013-02-23T14:37:22Z</time>
      </trkpt>
      <trkpt lat="44.44821" lon="0.92178">
        <ele>77.52</ele>
        <time>2013-02-23T14:37:36Z</time>
      </trkpt>
      <trkpt lat="44.44791" lon="0.9216">
        <ele>76.56</ele>
        <time>2013-02-23T14:37:48Z</time>
      </trkpt>
      <trkpt lat="44.4476" lon="0.92158">
        <ele>80.89</ele>
        <time>2013-02-23T14:38:01Z</time>
      </trkpt>
      <trkpt lat="44.44726" lon="0.92142">
        <ele>83.77</ele>
        <time>2013-02-23T14:38:14Z</time>
      </trkpt>
      <trkpt lat="44.44685" lon="0.92109">
        <ele>87.14</ele>
        <time>2013-02-23T14:38:30Z</time>
      </trkpt>
      <trkpt lat="44.4465" lon="0.92087">
        <ele>92.42</ele>
        <time>2013-02-23T14:38:43Z</time>
      </trkpt>
      <trkpt lat="44.44612" lon="0.92067">
        <ele>95.31</ele>
        <time>2013-02-23T14:38:57Z</time>
      </trkpt>
      <trkpt lat="44.44571" lon="0.92048">
        <ele>98.67</ele>
        <time>2013-02-23T14:39:12Z</time>
      </trkpt>
      <trkpt lat="44.44546" lon="0.92041">
        <ele>101.56</ele>
        <time>2013-02-23T14:39:22Z</time>
      </trkpt>
      <trkpt lat="44.44544" lon="0.9204">
        <ele>102.04</ele>
        <time>2013-02-23T14:39:23Z</time>
      </trkpt>
      <trkpt lat="44.44542" lon="0.9204">
        <ele>102.04</ele>
        <time>2013-02-23T14:39:24Z</time>
      </trkpt>
      <trkpt lat="44.44539" lon="0.9204">
        <ele>102.52</ele>
        <time>2013-02-23T14:39:25Z</time>
      </trkpt>
      <trkpt lat="44.44537" lon="0.9204">
        <ele>103</ele>
        <time>2013-02-23T14:39:26Z</time>
      </trkpt>
      <trkpt lat="44.44534" lon="0.92041">
        <ele>103</ele>
        <time>2013-02-23T14:39:27Z</time>
      </trkpt>
      <trkpt lat="44.44532" lon="0.92041">
        <ele>103</ele>
        <time>2013-02-23T14:39:28Z</time>
      </trkpt>
      <trkpt lat="44.44529" lon="0.92041">
        <ele>103.48</ele>
        <time>2013-02-23T14:39:29Z</time>
      </trkpt>
      <trkpt lat="44.44527" lon="0.92041">
        <ele>103.96</ele>
        <time>2013-02-23T14:39:30Z</time>
      </trkpt>
      <trkpt lat="44.44524" lon="0.92041">
        <ele>103.96</ele>
        <time>2013-02-23T14:39:31Z</time>
      </trkpt>
      <trkpt lat="44.44522" lon="0.92041">
        <ele>103.96</ele>
        <time>2013-02-23T14:39:32Z</time>
      </trkpt>
      <trkpt lat="44.44519" lon="0.92041">
        <ele>103.96</ele>
        <time>2013-02-23T14:39:33Z</time>
      </trkpt>
      <trkpt lat="44.44516" lon="0.92041">
        <ele>103.96</ele>
        <time>2013-02-23T14:39:34Z</time>
      </trkpt>
      <trkpt lat="44.44513" lon="0.92041">
        <ele>103.96</ele>
        <time>2013-02-23T14:39:35Z</time>
      </trkpt>
      <trkpt lat="44.44511" lon="0.9204">
        <ele>104.44</ele>
        <time>2013-02-23T14:39:36Z</time>
      </trkpt>
      <trkpt lat="44.44508" lon="0.9204">
        <ele>104.44</ele>
        <time>2013-02-23T14:39:37Z</time>
      </trkpt>
      <trkpt lat="44.44505" lon="0.9204">
        <ele>104.92</ele>
        <time>2013-02-23T14:39:38Z</time>
      </trkpt>
      <trkpt lat="44.44501" lon="0.9204">
        <ele>104.92</ele>
        <time>2013-02-23T14:39:39Z</time>
      </trkpt>
      <trkpt lat="44.44464" lon="0.92037">
        <ele>106.36</ele>
        <time>2013-02-23T14:39:52Z</time>
      </trkpt>
      <trkpt lat="44.44443" lon="0.92011">
        <ele>106.36</ele>
        <time>2013-02-23T14:40:03Z</time>
      </trkpt>
      <trkpt lat="44.44425" lon="0.91972">
        <ele>107.81</ele>
        <time>2013-02-23T14:40:15Z</time>
      </trkpt>
      <trkpt lat="44.44407" lon="0.91925">
        <ele>107.81</ele>
        <time>2013-02-23T14:40:29Z</time>
      </trkpt>
      <trkpt lat="44.44401" lon="0.91877">
        <ele>108.77</ele>
        <time>2013-02-23T14:40:42Z</time>
      </trkpt>
      <trkpt lat="44.44392" lon="0.91823">
        <ele>108.29</ele>
        <time>2013-02-23T14:40:56Z</time>
      </trkpt>
      <trkpt lat="44.44392" lon="0.91822">
        <ele>108.29</ele>
        <time>2013-02-23T14:40:57Z</time>
      </trkpt>
      <trkpt lat="44.44391" lon="0.9182">
        <ele>108.29</ele>
        <time>2013-02-23T14:40:58Z</time>
      </trkpt>
      <trkpt lat="44.44391" lon="0.91819">
        <ele>107.81</ele>
        <time>2013-02-23T14:40:59Z</time>
      </trkpt>
      <trkpt lat="44.44391" lon="0.91817">
        <ele>107.81</ele>
        <time>2013-02-23T14:41:00Z</time>
      </trkpt>
      <trkpt lat="44.44391" lon="0.91816">
        <ele>107.81</ele>
        <time>2013-02-23T14:41:01Z</time>
      </trkpt>
      <trkpt lat="44.44393" lon="0.91815">
        <ele>107.81</ele>
        <time>2013-02-23T14:41:11Z</time>
      </trkpt>
      <trkpt lat="44.4439" lon="0.91819">
        <ele>107.81</ele>
        <time>2013-02-23T14:41:22Z</time>
      </trkpt>
      <trkpt lat="44.44391" lon="0.9182">
        <ele>108.29</ele>
        <time>2013-02-23T14:41:42Z</time>
      </trkpt>
      <trkpt lat="44.44391" lon="0.91821">
        <ele>107.32</ele>
        <time>2013-02-23T14:42:02Z</time>
      </trkpt>
      <trkpt lat="44.44391" lon="0.9182">
        <ele>107.32</ele>
        <time>2013-02-23T14:42:03Z</time>
      </trkpt>
      <trkpt lat="44.44392" lon="0.91818">
        <ele>107.32</ele>
        <time>2013-02-23T14:42:04Z</time>
      </trkpt>
      <trkpt lat="44.44393" lon="0.91817">
        <ele>106.84</ele>
        <time>2013-02-23T14:42:05Z</time>
      </trkpt>
      <trkpt lat="44.44395" lon="0.91816">
        <ele>106.84</ele>
        <time>2013-02-23T14:42:06Z</time>
      </trkpt>
      <trkpt lat="44.44397" lon="0.91814">
        <ele>106.84</ele>
        <time>2013-02-23T14:42:07Z</time>
      </trkpt>
      <trkpt lat="44.44399" lon="0.91812">
        <ele>106.84</ele>
        <time>2013-02-23T14:42:08Z</time>
      </trkpt>
      <trkpt lat="44.44432" lon="0.91782">
        <ele>106.36</ele>
        <time>2013-02-23T14:42:20Z</time>
      </trkpt>
      <trkpt lat="44.44471" lon="0.91744">
        <ele>105.88</ele>
        <time>2013-02-23T14:42:33Z</time>
      </trkpt>
      <trkpt lat="44.44457" lon="0.91681">
        <ele>100.11</ele>
        <time>2013-02-23T14:42:45Z</time>
      </trkpt>
      <trkpt lat="44.44436" lon="0.91597">
        <ele>96.75</ele>
        <time>2013-02-23T14:43:00Z</time>
      </trkpt>
      <trkpt lat="44.44433" lon="0.91585">
        <ele>96.75</ele>
        <time>2013-02-23T14:43:02Z</time>
      </trkpt>
      <trkpt lat="44.44421" lon="0.91559">
        <ele>96.27</ele>
        <time>2013-02-23T14:43:07Z</time>
      </trkpt>
      <trkpt lat="44.44369" lon="0.91499">
        <ele>95.79</ele>
        <time>2013-02-23T14:43:23Z</time>
      </trkpt>
      <trkpt lat="44.44356" lon="0.91487">
        <ele>95.79</ele>
        <time>2013-02-23T14:43:27Z</time>
      </trkpt>
      <trkpt lat="44.4433" lon="0.91445">
        <ele>96.27</ele>
        <time>2013-02-23T14:43:37Z</time>
      </trkpt>
      <trkpt lat="44.44321" lon="0.91432">
        <ele>97.71</ele>
        <time>2013-02-23T14:43:41Z</time>
      </trkpt>
      <trkpt lat="44.44315" lon="0.91434">
        <ele>98.67</ele>
        <time>2013-02-23T14:43:45Z</time>
      </trkpt>
      <trkpt lat="44.44299" lon="0.91467">
        <ele>101.08</ele>
        <time>2013-02-23T14:44:00Z</time>
      </trkpt>
      <trkpt lat="44.44285" lon="0.91494">
        <ele>103.96</ele>
        <time>2013-02-23T14:44:13Z</time>
      </trkpt>
      <trkpt lat="44.44265" lon="0.91529">
        <ele>107.32</ele>
        <time>2013-02-23T14:44:28Z</time>
      </trkpt>
      <trkpt lat="44.44247" lon="0.91561">
        <ele>108.29</ele>
        <time>2013-02-23T14:44:41Z</time>
      </trkpt>
      <trkpt lat="44.44219" lon="0.91608">
        <ele>111.65</ele>
        <time>2013-02-23T14:44:59Z</time>
      </trkpt>
      <trkpt lat="44.44197" lon="0.91646">
        <ele>116.94</ele>
        <time>2013-02-23T14:45:13Z</time>
      </trkpt>
      <trkpt lat="44.4418" lon="0.91687">
        <ele>119.82</ele>
        <time>2013-02-23T14:45:27Z</time>
      </trkpt>
      <trkpt lat="44.44172" lon="0.91723">
        <ele>121.74</ele>
        <time>2013-02-23T14:45:40Z</time>
      </trkpt>
      <trkpt lat="44.44168" lon="0.91741">
        <ele>123.19</ele>
        <time>2013-02-23T14:45:47Z</time>
      </trkpt>
      <trkpt lat="44.44165" lon="0.91748">
        <ele>122.71</ele>
        <time>2013-02-23T14:46:00Z</time>
      </trkpt>
      <trkpt lat="44.44166" lon="0.91748">
        <ele>121.26</ele>
        <time>2013-02-23T14:46:22Z</time>
      </trkpt>
      <trkpt lat="44.44166" lon="0.91751">
        <ele>120.78</ele>
        <time>2013-02-23T14:46:53Z</time>
      </trkpt>
      <trkpt lat="44.44165" lon="0.91752">
        <ele>118.86</ele>
        <time>2013-02-23T14:47:17Z</time>
      </trkpt>
      <trkpt lat="44.44164" lon="0.91751">
        <ele>119.34</ele>
        <time>2013-02-23T14:47:18Z</time>
      </trkpt>
      <trkpt lat="44.44159" lon="0.91744">
        <ele>119.82</ele>
        <time>2013-02-23T14:47:22Z</time>
      </trkpt>
      <trkpt lat="44.44157" lon="0.91742">
        <ele>119.82</ele>
        <time>2013-02-23T14:47:23Z</time>
      </trkpt>
      <trkpt lat="44.44133" lon="0.91715">
        <ele>116.46</ele>
        <time>2013-02-23T14:47:36Z</time>
      </trkpt>
      <trkpt lat="44.44111" lon="0.91693">
        <ele>112.61</ele>
        <time>2013-02-23T14:47:46Z</time>
      </trkpt>
      <trkpt lat="44.44074" lon="0.91661">
        <ele>111.65</ele>
        <time>2013-02-23T14:47:59Z</time>
      </trkpt>
      <trkpt lat="44.4404" lon="0.91632">
        <ele>111.17</ele>
        <time>2013-02-23T14:48:11Z</time>
      </trkpt>
      <trkpt lat="44.43986" lon="0.91593">
        <ele>108.77</ele>
        <time>2013-02-23T14:48:29Z</time>
      </trkpt>
      <trkpt lat="44.43955" lon="0.91574">
        <ele>110.69</ele>
        <time>2013-02-23T14:48:41Z</time>
      </trkpt>
      <trkpt lat="44.4392" lon="0.91552">
        <ele>112.61</ele>
        <time>2013-02-23T14:48:55Z</time>
      </trkpt>
      <trkpt lat="44.43885" lon="0.91531">
        <ele>112.61</ele>
        <time>2013-02-23T14:49:09Z</time>
      </trkpt>
      <trkpt lat="44.43875" lon="0.91529">
        <ele>114.05</ele>
        <time>2013-02-23T14:49:20Z</time>
      </trkpt>
      <trkpt lat="44.4387" lon="0.91536">
        <ele>112.61</ele>
        <time>2013-02-23T14:49:32Z</time>
      </trkpt>
      <trkpt lat="44.43869" lon="0.91537">
        <ele>112.61</ele>
        <time>2013-02-23T14:49:34Z</time>
      </trkpt>
      <trkpt lat="44.43848" lon="0.91565">
        <ele>115.01</ele>
        <time>2013-02-23T14:49:48Z</time>
      </trkpt>
      <trkpt lat="44.43822" lon="0.91595">
        <ele>118.86</ele>
        <time>2013-02-23T14:50:04Z</time>
      </trkpt>
      <trkpt lat="44.43804" lon="0.91621">
        <ele>120.78</ele>
        <time>2013-02-23T14:50:16Z</time>
      </trkpt>
      <trkpt lat="44.43784" lon="0.91654">
        <ele>120.78</ele>
        <time>2013-02-23T14:50:30Z</time>
      </trkpt>
      <trkpt lat="44.43773" lon="0.91693">
        <ele>122.22</ele>
        <time>2013-02-23T14:50:42Z</time>
      </trkpt>
      <trkpt lat="44.43766" lon="0.91737">
        <ele>124.63</ele>
        <time>2013-02-23T14:50:54Z</time>
      </trkpt>
      <trkpt lat="44.43763" lon="0.91801">
        <ele>128.95</ele>
        <time>2013-02-23T14:51:10Z</time>
      </trkpt>
      <trkpt lat="44.43759" lon="0.91849">
        <ele>131.84</ele>
        <time>2013-02-23T14:51:22Z</time>
      </trkpt>
      <trkpt lat="44.4376" lon="0.91864">
        <ele>132.32</ele>
        <time>2013-02-23T14:51:26Z</time>
      </trkpt>
      <trkpt lat="44.43766" lon="0.9191">
        <ele>130.4</ele>
        <time>2013-02-23T14:51:38Z</time>
      </trkpt>
      <trkpt lat="44.43774" lon="0.91956">
        <ele>134.24</ele>
        <time>2013-02-23T14:51:49Z</time>
      </trkpt>
      <trkpt lat="44.4378" lon="0.92005">
        <ele>133.76</ele>
        <time>2013-02-23T14:52:02Z</time>
      </trkpt>
      <trkpt lat="44.43783" lon="0.92014">
        <ele>132.32</ele>
        <time>2013-02-23T14:52:12Z</time>
      </trkpt>
      <trkpt lat="44.43784" lon="0.92016">
        <ele>131.84</ele>
        <time>2013-02-23T14:52:31Z</time>
      </trkpt>
      <trkpt lat="44.43785" lon="0.92018">
        <ele>130.88</ele>
        <time>2013-02-23T14:52:48Z</time>
      </trkpt>
      <trkpt lat="44.43786" lon="0.92036">
        <ele>132.32</ele>
        <time>2013-02-23T14:53:03Z</time>
      </trkpt>
      <trkpt lat="44.43797" lon="0.92072">
        <ele>129.92</ele>
        <time>2013-02-23T14:53:13Z</time>
      </trkpt>
      <trkpt lat="44.43796" lon="0.92076">
        <ele>129.92</ele>
        <time>2013-02-23T14:53:14Z</time>
      </trkpt>
      <trkpt lat="44.43794" lon="0.92078">
        <ele>129.43</ele>
        <time>2013-02-23T14:53:15Z</time>
      </trkpt>
      <trkpt lat="44.43792" lon="0.92079">
        <ele>128.95</ele>
        <time>2013-02-23T14:53:16Z</time>
      </trkpt>
      <trkpt lat="44.4379" lon="0.92078">
        <ele>128.95</ele>
        <time>2013-02-23T14:53:17Z</time>
      </trkpt>
      <trkpt lat="44.43788" lon="0.92076">
        <ele>128.47</ele>
        <time>2013-02-23T14:53:18Z</time>
      </trkpt>
      <trkpt lat="44.43785" lon="0.92074">
        <ele>127.99</ele>
        <time>2013-02-23T14:53:19Z</time>
      </trkpt>
      <trkpt lat="44.43783" lon="0.92073">
        <ele>127.51</ele>
        <time>2013-02-23T14:53:20Z</time>
      </trkpt>
      <trkpt lat="44.43748" lon="0.92046">
        <ele>124.63</ele>
        <time>2013-02-23T14:53:31Z</time>
      </trkpt>
      <trkpt lat="44.43699" lon="0.91992">
        <ele>117.9</ele>
        <time>2013-02-23T14:53:42Z</time>
      </trkpt>
      <trkpt lat="44.43651" lon="0.91934">
        <ele>114.05</ele>
        <time>2013-02-23T14:53:50Z</time>
      </trkpt>
      <trkpt lat="44.43634" lon="0.91903">
        <ele>114.53</ele>
        <time>2013-02-23T14:53:55Z</time>
      </trkpt>
      <trkpt lat="44.43631" lon="0.91898">
        <ele>115.01</ele>
        <time>2013-02-23T14:53:56Z</time>
      </trkpt>
      <trkpt lat="44.43599" lon="0.91848">
        <ele>115.01</ele>
        <time>2013-02-23T14:54:07Z</time>
      </trkpt>
      <trkpt lat="44.43585" lon="0.91825">
        <ele>114.53</ele>
        <time>2013-02-23T14:54:11Z</time>
      </trkpt>
      <trkpt lat="44.43521" lon="0.91698">
        <ele>109.25</ele>
        <time>2013-02-23T14:54:27Z</time>
      </trkpt>
      <trkpt lat="44.4351" lon="0.91671">
        <ele>108.29</ele>
        <time>2013-02-23T14:54:30Z</time>
      </trkpt>
      <trkpt lat="44.43479" lon="0.91558">
        <ele>104.92</ele>
        <time>2013-02-23T14:54:43Z</time>
      </trkpt>
      <trkpt lat="44.43478" lon="0.91554">
        <ele>104.92</ele>
        <time>2013-02-23T14:54:44Z</time>
      </trkpt>
      <trkpt lat="44.43477" lon="0.9155">
        <ele>104.92</ele>
        <time>2013-02-23T14:54:45Z</time>
      </trkpt>
      <trkpt lat="44.43477" lon="0.91547">
        <ele>104.92</ele>
        <time>2013-02-23T14:54:46Z</time>
      </trkpt>
      <trkpt lat="44.43476" lon="0.91546">
        <ele>104.92</ele>
        <time>2013-02-23T14:54:47Z</time>
      </trkpt>
      <trkpt lat="44.43475" lon="0.91546">
        <ele>105.4</ele>
        <time>2013-02-23T14:55:02Z</time>
      </trkpt>
      <trkpt lat="44.43475" lon="0.91545">
        <ele>105.4</ele>
        <time>2013-02-23T14:55:13Z</time>
      </trkpt>
      <trkpt lat="44.43474" lon="0.91546">
        <ele>105.4</ele>
        <time>2013-02-23T14:55:14Z</time>
      </trkpt>
      <trkpt lat="44.43471" lon="0.91547">
        <ele>105.4</ele>
        <time>2013-02-23T14:55:16Z</time>
      </trkpt>
      <trkpt lat="44.43469" lon="0.91545">
        <ele>104.92</ele>
        <time>2013-02-23T14:55:17Z</time>
      </trkpt>
      <trkpt lat="44.43468" lon="0.91542">
        <ele>104.92</ele>
        <time>2013-02-23T14:55:18Z</time>
      </trkpt>
      <trkpt lat="44.43466" lon="0.91538">
        <ele>104.44</ele>
        <time>2013-02-23T14:55:19Z</time>
      </trkpt>
      <trkpt lat="44.43465" lon="0.91533">
        <ele>104.44</ele>
        <time>2013-02-23T14:55:20Z</time>
      </trkpt>
      <trkpt lat="44.43464" lon="0.91528">
        <ele>104.44</ele>
        <time>2013-02-23T14:55:21Z</time>
      </trkpt>
      <trkpt lat="44.43462" lon="0.91523">
        <ele>103.96</ele>
        <time>2013-02-23T14:55:22Z</time>
      </trkpt>
      <trkpt lat="44.43428" lon="0.91444">
        <ele>101.08</ele>
        <time>2013-02-23T14:55:35Z</time>
      </trkpt>
      <trkpt lat="44.43411" lon="0.9142">
        <ele>99.15</ele>
        <time>2013-02-23T14:55:39Z</time>
      </trkpt>
      <trkpt lat="44.43384" lon="0.91379">
        <ele>99.15</ele>
        <time>2013-02-23T14:55:50Z</time>
      </trkpt>
      <trkpt lat="44.43355" lon="0.91327">
        <ele>99.15</ele>
        <time>2013-02-23T14:56:03Z</time>
      </trkpt>
      <trkpt lat="44.43342" lon="0.91309">
        <ele>98.19</ele>
        <time>2013-02-23T14:56:07Z</time>
      </trkpt>
      <trkpt lat="44.43308" lon="0.91261">
        <ele>97.23</ele>
        <time>2013-02-23T14:56:19Z</time>
      </trkpt>
      <trkpt lat="44.43272" lon="0.91223">
        <ele>99.15</ele>
        <time>2013-02-23T14:56:32Z</time>
      </trkpt>
      <trkpt lat="44.43225" lon="0.91196">
        <ele>102.52</ele>
        <time>2013-02-23T14:56:46Z</time>
      </trkpt>
      <trkpt lat="44.43197" lon="0.91169">
        <ele>102.52</ele>
        <time>2013-02-23T14:56:57Z</time>
      </trkpt>
      <trkpt lat="44.43182" lon="0.91168">
        <ele>101.08</ele>
        <time>2013-02-23T14:57:04Z</time>
      </trkpt>
      <trkpt lat="44.43181" lon="0.91169">
        <ele>100.6</ele>
        <time>2013-02-23T14:57:15Z</time>
      </trkpt>
      <trkpt lat="44.4318" lon="0.91169">
        <ele>101.56</ele>
        <time>2013-02-23T14:57:33Z</time>
      </trkpt>
      <trkpt lat="44.43179" lon="0.91169">
        <ele>102.04</ele>
        <time>2013-02-23T14:58:06Z</time>
      </trkpt>
      <trkpt lat="44.43171" lon="0.91185">
        <ele>100.6</ele>
        <time>2013-02-23T14:58:20Z</time>
      </trkpt>
      <trkpt lat="44.43153" lon="0.91233">
        <ele>99.63</ele>
        <time>2013-02-23T14:58:30Z</time>
      </trkpt>
      <trkpt lat="44.43141" lon="0.91258">
        <ele>99.63</ele>
        <time>2013-02-23T14:58:35Z</time>
      </trkpt>
      <trkpt lat="44.43139" lon="0.91263">
        <ele>99.63</ele>
        <time>2013-02-23T14:58:36Z</time>
      </trkpt>
      <trkpt lat="44.43131" lon="0.91274">
        <ele>100.6</ele>
        <time>2013-02-23T14:58:39Z</time>
      </trkpt>
      <trkpt lat="44.43109" lon="0.91264">
        <ele>101.08</ele>
        <time>2013-02-23T14:58:47Z</time>
      </trkpt>
      <trkpt lat="44.43086" lon="0.91241">
        <ele>102.52</ele>
        <time>2013-02-23T14:59:02Z</time>
      </trkpt>
      <trkpt lat="44.43077" lon="0.91232">
        <ele>102.52</ele>
        <time>2013-02-23T14:59:07Z</time>
      </trkpt>
      <trkpt lat="44.43066" lon="0.91213">
        <ele>107.32</ele>
        <time>2013-02-23T14:59:17Z</time>
      </trkpt>
      <trkpt lat="44.43065" lon="0.9121">
        <ele>107.32</ele>
        <time>2013-02-23T14:59:18Z</time>
      </trkpt>
      <trkpt lat="44.43047" lon="0.91168">
        <ele>105.88</ele>
        <time>2013-02-23T14:59:35Z</time>
      </trkpt>
      <trkpt lat="44.43049" lon="0.9113">
        <ele>107.32</ele>
        <time>2013-02-23T14:59:48Z</time>
      </trkpt>
      <trkpt lat="44.43051" lon="0.91116">
        <ele>107.32</ele>
        <time>2013-02-23T14:59:59Z</time>
      </trkpt>
      <trkpt lat="44.4305" lon="0.91108">
        <ele>109.25</ele>
        <time>2013-02-23T15:00:03Z</time>
      </trkpt>
      <trkpt lat="44.43063" lon="0.91061">
        <ele>109.25</ele>
        <time>2013-02-23T15:00:17Z</time>
      </trkpt>
      <trkpt lat="44.43064" lon="0.91053">
        <ele>108.77</ele>
        <time>2013-02-23T15:00:19Z</time>
      </trkpt>
      <trkpt lat="44.43049" lon="0.91032">
        <ele>108.29</ele>
        <time>2013-02-23T15:00:29Z</time>
      </trkpt>
      <trkpt lat="44.43044" lon="0.91028">
        <ele>108.29</ele>
        <time>2013-02-23T15:00:31Z</time>
      </trkpt>
      <trkpt lat="44.43007" lon="0.91002">
        <ele>107.81</ele>
        <time>2013-02-23T15:00:46Z</time>
      </trkpt>
      <trkpt lat="44.42977" lon="0.9099">
        <ele>105.4</ele>
        <time>2013-02-23T15:00:55Z</time>
      </trkpt>
      <trkpt lat="44.42957" lon="0.90988">
        <ele>102.52</ele>
        <time>2013-02-23T15:00:59Z</time>
      </trkpt>
      <trkpt lat="44.42924" lon="0.90986">
        <ele>96.75</ele>
        <time>2013-02-23T15:01:04Z</time>
      </trkpt>
      <trkpt lat="44.42906" lon="0.91003">
        <ele>91.94</ele>
        <time>2013-02-23T15:01:10Z</time>
      </trkpt>
      <trkpt lat="44.42892" lon="0.91004">
        <ele>91.46</ele>
        <time>2013-02-23T15:01:15Z</time>
      </trkpt>
      <trkpt lat="44.4288" lon="0.91002">
        <ele>91.46</ele>
        <time>2013-02-23T15:01:19Z</time>
      </trkpt>
      <trkpt lat="44.42869" lon="0.9099">
        <ele>91.46</ele>
        <time>2013-02-23T15:01:24Z</time>
      </trkpt>
      <trkpt lat="44.42844" lon="0.90991">
        <ele>89.06</ele>
        <time>2013-02-23T15:01:34Z</time>
      </trkpt>
      <trkpt lat="44.42837" lon="0.90991">
        <ele>89.06</ele>
        <time>2013-02-23T15:01:37Z</time>
      </trkpt>
      <trkpt lat="44.42822" lon="0.90977">
        <ele>88.58</ele>
        <time>2013-02-23T15:01:49Z</time>
      </trkpt>
      <trkpt lat="44.42816" lon="0.90976">
        <ele>88.1</ele>
        <time>2013-02-23T15:02:04Z</time>
      </trkpt>
      <trkpt lat="44.42816" lon="0.90974">
        <ele>86.66</ele>
        <time>2013-02-23T15:02:25Z</time>
      </trkpt>
      <trkpt lat="44.42815" lon="0.90974">
        <ele>85.21</ele>
        <time>2013-02-23T15:02:50Z</time>
      </trkpt>
      <trkpt lat="44.42815" lon="0.90974">
        <ele>84.73</ele>
        <time>2013-02-23T15:02:55Z</time>
      </trkpt>
      <trkpt lat="44.42786" lon="0.90967">
        <ele>85.21</ele>
        <time>2013-02-23T15:03:08Z</time>
      </trkpt>
      <trkpt lat="44.42744" lon="0.90955">
        <ele>82.33</ele>
        <time>2013-02-23T15:03:19Z</time>
      </trkpt>
      <trkpt lat="44.42716" lon="0.90958">
        <ele>81.85</ele>
        <time>2013-02-23T15:03:27Z</time>
      </trkpt>
      <trkpt lat="44.42699" lon="0.90953">
        <ele>78</ele>
        <time>2013-02-23T15:03:33Z</time>
      </trkpt>
      <trkpt lat="44.42677" lon="0.90966">
        <ele>71.76</ele>
        <time>2013-02-23T15:03:43Z</time>
      </trkpt>
      <trkpt lat="44.42674" lon="0.90976">
        <ele>70.79</ele>
        <time>2013-02-23T15:03:46Z</time>
      </trkpt>
      <trkpt lat="44.42656" lon="0.91023">
        <ele>73.2</ele>
        <time>2013-02-23T15:03:59Z</time>
      </trkpt>
      <trkpt lat="44.42636" lon="0.91049">
        <ele>74.64</ele>
        <time>2013-02-23T15:04:09Z</time>
      </trkpt>
      <trkpt lat="44.42629" lon="0.91053">
        <ele>75.6</ele>
        <time>2013-02-23T15:04:20Z</time>
      </trkpt>
      <trkpt lat="44.42627" lon="0.91054">
        <ele>74.64</ele>
        <time>2013-02-23T15:04:44Z</time>
      </trkpt>
      <trkpt lat="44.42624" lon="0.91051">
        <ele>74.64</ele>
        <time>2013-02-23T15:04:53Z</time>
      </trkpt>
      <trkpt lat="44.4262" lon="0.91043">
        <ele>75.6</ele>
        <time>2013-02-23T15:04:59Z</time>
      </trkpt>
      <trkpt lat="44.42615" lon="0.91021">
        <ele>78.48</ele>
        <time>2013-02-23T15:05:07Z</time>
      </trkpt>
      <trkpt lat="44.42608" lon="0.90983">
        <ele>78.48</ele>
        <time>2013-02-23T15:05:20Z</time>
      </trkpt>
      <trkpt lat="44.42592" lon="0.90938">
        <ele>78.97</ele>
        <time>2013-02-23T15:05:38Z</time>
      </trkpt>
      <trkpt lat="44.42584" lon="0.90909">
        <ele>79.93</ele>
        <time>2013-02-23T15:05:51Z</time>
      </trkpt>
      <trkpt lat="44.42575" lon="0.90879">
        <ele>80.41</ele>
        <time>2013-02-23T15:06:03Z</time>
      </trkpt>
      <trkpt lat="44.42562" lon="0.90838">
        <ele>82.81</ele>
        <time>2013-02-23T15:06:19Z</time>
      </trkpt>
      <trkpt lat="44.4255" lon="0.90804">
        <ele>84.73</ele>
        <time>2013-02-23T15:06:32Z</time>
      </trkpt>
      <trkpt lat="44.42537" lon="0.90762">
        <ele>86.66</ele>
        <time>2013-02-23T15:06:47Z</time>
      </trkpt>
      <trkpt lat="44.42521" lon="0.90712">
        <ele>88.58</ele>
        <time>2013-02-23T15:07:04Z</time>
      </trkpt>
      <trkpt lat="44.42507" lon="0.90667">
        <ele>90.5</ele>
        <time>2013-02-23T15:07:20Z</time>
      </trkpt>
      <trkpt lat="44.42501" lon="0.90645">
        <ele>91.94</ele>
        <time>2013-02-23T15:07:28Z</time>
      </trkpt>
      <trkpt lat="44.42491" lon="0.90644">
        <ele>92.9</ele>
        <time>2013-02-23T15:07:38Z</time>
      </trkpt>
      <trkpt lat="44.4249" lon="0.90645">
        <ele>93.87</ele>
        <time>2013-02-23T15:07:54Z</time>
      </trkpt>
      <trkpt lat="44.4249" lon="0.90645">
        <ele>94.83</ele>
        <time>2013-02-23T15:08:23Z</time>
      </trkpt>
      <trkpt lat="44.42489" lon="0.90645">
        <ele>94.35</ele>
        <time>2013-02-23T15:08:51Z</time>
      </trkpt>
      <trkpt lat="44.4249" lon="0.90646">
        <ele>94.83</ele>
        <time>2013-02-23T15:09:07Z</time>
      </trkpt>
      <trkpt lat="44.42489" lon="0.90647">
        <ele>95.31</ele>
        <time>2013-02-23T15:09:28Z</time>
      </trkpt>
      <trkpt lat="44.42487" lon="0.90646">
        <ele>95.79</ele>
        <time>2013-02-23T15:09:50Z</time>
      </trkpt>
      <trkpt lat="44.42487" lon="0.90646">
        <ele>95.79</ele>
        <time>2013-02-23T15:10:05Z</time>
      </trkpt>
      <trkpt lat="44.42487" lon="0.90646">
        <ele>96.27</ele>
        <time>2013-02-23T15:10:28Z</time>
      </trkpt>
      <trkpt lat="44.42487" lon="0.90646">
        <ele>95.79</ele>
        <time>2013-02-23T15:10:55Z</time>
      </trkpt>
      <trkpt lat="44.42486" lon="0.90645">
        <ele>95.79</ele>
        <time>2013-02-23T15:10:58Z</time>
      </trkpt>
      <trkpt lat="44.42482" lon="0.90644">
        <ele>95.31</ele>
        <time>2013-02-23T15:11:12Z</time>
      </trkpt>
      <trkpt lat="44.42482" lon="0.90645">
        <ele>95.79</ele>
        <time>2013-02-23T15:11:42Z</time>
      </trkpt>
      <trkpt lat="44.42482" lon="0.90646">
        <ele>96.27</ele>
        <time>2013-02-23T15:12:17Z</time>
      </trkpt>
      <trkpt lat="44.42482" lon="0.90647">
        <ele>96.27</ele>
        <time>2013-02-23T15:12:56Z</time>
      </trkpt>
      <trkpt lat="44.42482" lon="0.90647">
        <ele>96.27</ele>
        <time>2013-02-23T15:13:35Z</time>
      </trkpt>
      <trkpt lat="44.42483" lon="0.90647">
        <ele>95.31</ele>
        <time>2013-02-23T15:14:19Z</time>
      </trkpt>
      <trkpt lat="44.42483" lon="0.90647">
        <ele>95.31</ele>
        <time>2013-02-23T15:14:42Z</time>
      </trkpt>
      <trkpt lat="44.42483" lon="0.90647">
        <ele>94.35</ele>
        <time>2013-02-23T15:15:15Z</time>
      </trkpt>
      <trkpt lat="44.42483" lon="0.90647">
        <ele>93.87</ele>
        <time>2013-02-23T15:15:51Z</time>
      </trkpt>
      <trkpt lat="44.42483" lon="0.90647">
        <ele>93.87</ele>
        <time>2013-02-23T15:16:34Z</time>
      </trkpt>
      <trkpt lat="44.42483" lon="0.90647">
        <ele>93.87</ele>
        <time>2013-02-23T15:17:08Z</time>
      </trkpt>
      <trkpt lat="44.42483" lon="0.90647">
        <ele>93.87</ele>
        <time>2013-02-23T15:17:46Z</time>
      </trkpt>
      <trkpt lat="44.42483" lon="0.90647">
        <ele>93.87</ele>
        <time>2013-02-23T15:18:17Z</time>
      </trkpt>
      <trkpt lat="44.42483" lon="0.90647">
        <ele>93.87</ele>
        <time>2013-02-23T15:18:52Z</time>
      </trkpt>
      <trkpt lat="44.42482" lon="0.90647">
        <ele>93.87</ele>
        <time>2013-02-23T15:19:24Z</time>
      </trkpt>
      <trkpt lat="44.42472" lon="0.90653">
        <ele>93.87</ele>
        <time>2013-02-23T15:19:33Z</time>
      </trkpt>
      <trkpt lat="44.42446" lon="0.90661">
        <ele>95.31</ele>
        <time>2013-02-23T15:19:43Z</time>
      </trkpt>
      <trkpt lat="44.42408" lon="0.90677">
        <ele>97.23</ele>
        <time>2013-02-23T15:19:55Z</time>
      </trkpt>
      <trkpt lat="44.424" lon="0.9068">
        <ele>96.75</ele>
        <time>2013-02-23T15:19:57Z</time>
      </trkpt>
      <trkpt lat="44.42383" lon="0.90688">
        <ele>95.79</ele>
        <time>2013-02-23T15:20:01Z</time>
      </trkpt>
      <trkpt lat="44.42379" lon="0.90693">
        <ele>95.79</ele>
        <time>2013-02-23T15:20:02Z</time>
      </trkpt>
      <trkpt lat="44.42377" lon="0.907">
        <ele>94.83</ele>
        <time>2013-02-23T15:20:03Z</time>
      </trkpt>
      <trkpt lat="44.42375" lon="0.90708">
        <ele>94.35</ele>
        <time>2013-02-23T15:20:04Z</time>
      </trkpt>
      <trkpt lat="44.42375" lon="0.90717">
        <ele>93.87</ele>
        <time>2013-02-23T15:20:05Z</time>
      </trkpt>
      <trkpt lat="44.42375" lon="0.90726">
        <ele>93.39</ele>
        <time>2013-02-23T15:20:06Z</time>
      </trkpt>
      <trkpt lat="44.42375" lon="0.90736">
        <ele>92.9</ele>
        <time>2013-02-23T15:20:07Z</time>
      </trkpt>
      <trkpt lat="44.42383" lon="0.90818">
        <ele>88.58</ele>
        <time>2013-02-23T15:20:14Z</time>
      </trkpt>
      <trkpt lat="44.42384" lon="0.90831">
        <ele>87.62</ele>
        <time>2013-02-23T15:20:15Z</time>
      </trkpt>
      <trkpt lat="44.42383" lon="0.90844">
        <ele>87.14</ele>
        <time>2013-02-23T15:20:16Z</time>
      </trkpt>
      <trkpt lat="44.42373" lon="0.90964">
        <ele>80.89</ele>
        <time>2013-02-23T15:20:25Z</time>
      </trkpt>
      <trkpt lat="44.42366" lon="0.90993">
        <ele>79.93</ele>
        <time>2013-02-23T15:20:28Z</time>
      </trkpt>
      <trkpt lat="44.42365" lon="0.91001">
        <ele>79.93</ele>
        <time>2013-02-23T15:20:29Z</time>
      </trkpt>
      <trkpt lat="44.42362" lon="0.91014">
        <ele>79.93</ele>
        <time>2013-02-23T15:20:31Z</time>
      </trkpt>
      <trkpt lat="44.42362" lon="0.91019">
        <ele>79.45</ele>
        <time>2013-02-23T15:20:32Z</time>
      </trkpt>
      <trkpt lat="44.42361" lon="0.91024">
        <ele>79.45</ele>
        <time>2013-02-23T15:20:33Z</time>
      </trkpt>
      <trkpt lat="44.4236" lon="0.91027">
        <ele>79.93</ele>
        <time>2013-02-23T15:20:34Z</time>
      </trkpt>
      <trkpt lat="44.42358" lon="0.91031">
        <ele>79.93</ele>
        <time>2013-02-23T15:20:35Z</time>
      </trkpt>
      <trkpt lat="44.42356" lon="0.91034">
        <ele>80.41</ele>
        <time>2013-02-23T15:20:36Z</time>
      </trkpt>
      <trkpt lat="44.42355" lon="0.91038">
        <ele>80.89</ele>
        <time>2013-02-23T15:20:37Z</time>
      </trkpt>
      <trkpt lat="44.42354" lon="0.91041">
        <ele>81.85</ele>
        <time>2013-02-23T15:20:38Z</time>
      </trkpt>
      <trkpt lat="44.42341" lon="0.91076">
        <ele>82.33</ele>
        <time>2013-02-23T15:20:48Z</time>
      </trkpt>
      <trkpt lat="44.42337" lon="0.9108">
        <ele>81.85</ele>
        <time>2013-02-23T15:20:49Z</time>
      </trkpt>
      <trkpt lat="44.42333" lon="0.91083">
        <ele>80.89</ele>
        <time>2013-02-23T15:20:50Z</time>
      </trkpt>
      <trkpt lat="44.42325" lon="0.91086">
        <ele>79.93</ele>
        <time>2013-02-23T15:20:52Z</time>
      </trkpt>
      <trkpt lat="44.42321" lon="0.91088">
        <ele>79.93</ele>
        <time>2013-02-23T15:20:53Z</time>
      </trkpt>
      <trkpt lat="44.42318" lon="0.91091">
        <ele>79.93</ele>
        <time>2013-02-23T15:20:54Z</time>
      </trkpt>
      <trkpt lat="44.42316" lon="0.91095">
        <ele>79.93</ele>
        <time>2013-02-23T15:20:55Z</time>
      </trkpt>
      <trkpt lat="44.42314" lon="0.91098">
        <ele>79.93</ele>
        <time>2013-02-23T15:20:56Z</time>
      </trkpt>
      <trkpt lat="44.42312" lon="0.911">
        <ele>79.93</ele>
        <time>2013-02-23T15:20:57Z</time>
      </trkpt>
      <trkpt lat="44.4231" lon="0.91103">
        <ele>80.41</ele>
        <time>2013-02-23T15:20:58Z</time>
      </trkpt>
      <trkpt lat="44.42309" lon="0.91106">
        <ele>80.41</ele>
        <time>2013-02-23T15:20:59Z</time>
      </trkpt>
      <trkpt lat="44.42307" lon="0.91109">
        <ele>80.89</ele>
        <time>2013-02-23T15:21:00Z</time>
      </trkpt>
      <trkpt lat="44.42305" lon="0.91113">
        <ele>81.37</ele>
        <time>2013-02-23T15:21:01Z</time>
      </trkpt>
      <trkpt lat="44.42283" lon="0.91147">
        <ele>84.73</ele>
        <time>2013-02-23T15:21:13Z</time>
      </trkpt>
      <trkpt lat="44.42268" lon="0.91174">
        <ele>86.18</ele>
        <time>2013-02-23T15:21:24Z</time>
      </trkpt>
      <trkpt lat="44.42245" lon="0.91202">
        <ele>88.58</ele>
        <time>2013-02-23T15:21:38Z</time>
      </trkpt>
      <trkpt lat="44.42231" lon="0.91215">
        <ele>89.54</ele>
        <time>2013-02-23T15:21:47Z</time>
      </trkpt>
      <trkpt lat="44.42212" lon="0.91237">
        <ele>89.06</ele>
        <time>2013-02-23T15:21:59Z</time>
      </trkpt>
      <trkpt lat="44.4219" lon="0.9126">
        <ele>88.58</ele>
        <time>2013-02-23T15:22:10Z</time>
      </trkpt>
      <trkpt lat="44.42163" lon="0.91293">
        <ele>88.1</ele>
        <time>2013-02-23T15:22:26Z</time>
      </trkpt>
      <trkpt lat="44.42139" lon="0.91325">
        <ele>87.62</ele>
        <time>2013-02-23T15:22:41Z</time>
      </trkpt>
      <trkpt lat="44.42119" lon="0.91367">
        <ele>87.14</ele>
        <time>2013-02-23T15:22:56Z</time>
      </trkpt>
      <trkpt lat="44.42103" lon="0.91411">
        <ele>87.62</ele>
        <time>2013-02-23T15:23:12Z</time>
      </trkpt>
      <trkpt lat="44.42089" lon="0.91455">
        <ele>86.66</ele>
        <time>2013-02-23T15:23:27Z</time>
      </trkpt>
      <trkpt lat="44.42075" lon="0.915">
        <ele>86.18</ele>
        <time>2013-02-23T15:23:42Z</time>
      </trkpt>
      <trkpt lat="44.4205" lon="0.91532">
        <ele>88.58</ele>
        <time>2013-02-23T15:23:55Z</time>
      </trkpt>
      <trkpt lat="44.42023" lon="0.91563">
        <ele>90.5</ele>
        <time>2013-02-23T15:24:09Z</time>
      </trkpt>
      <trkpt lat="44.41988" lon="0.91604">
        <ele>89.06</ele>
        <time>2013-02-23T15:24:23Z</time>
      </trkpt>
      <trkpt lat="44.41972" lon="0.91624">
        <ele>89.06</ele>
        <time>2013-02-23T15:24:32Z</time>
      </trkpt>
      <trkpt lat="44.41971" lon="0.91627">
        <ele>89.06</ele>
        <time>2013-02-23T15:24:33Z</time>
      </trkpt>
      <trkpt lat="44.4197" lon="0.91631">
        <ele>89.06</ele>
        <time>2013-02-23T15:24:34Z</time>
      </trkpt>
      <trkpt lat="44.41953" lon="0.91681">
        <ele>88.1</ele>
        <time>2013-02-23T15:24:48Z</time>
      </trkpt>
      <trkpt lat="44.41932" lon="0.91739">
        <ele>87.14</ele>
        <time>2013-02-23T15:25:04Z</time>
      </trkpt>
      <trkpt lat="44.41929" lon="0.91758">
        <ele>86.18</ele>
        <time>2013-02-23T15:25:11Z</time>
      </trkpt>
      <trkpt lat="44.4193" lon="0.9176">
        <ele>85.69</ele>
        <time>2013-02-23T15:25:12Z</time>
      </trkpt>
      <trkpt lat="44.41931" lon="0.91762">
        <ele>85.69</ele>
        <time>2013-02-23T15:25:13Z</time>
      </trkpt>
      <trkpt lat="44.41932" lon="0.91764">
        <ele>85.69</ele>
        <time>2013-02-23T15:25:14Z</time>
      </trkpt>
      <trkpt lat="44.41932" lon="0.91766">
        <ele>85.69</ele>
        <time>2013-02-23T15:25:15Z</time>
      </trkpt>
      <trkpt lat="44.41933" lon="0.91768">
        <ele>85.21</ele>
        <time>2013-02-23T15:25:16Z</time>
      </trkpt>
      <trkpt lat="44.41934" lon="0.9177">
        <ele>85.21</ele>
        <time>2013-02-23T15:25:17Z</time>
      </trkpt>
      <trkpt lat="44.41961" lon="0.91802">
        <ele>84.25</ele>
        <time>2013-02-23T15:25:31Z</time>
      </trkpt>
      <trkpt lat="44.41996" lon="0.91815">
        <ele>83.29</ele>
        <time>2013-02-23T15:25:44Z</time>
      </trkpt>
      <trkpt lat="44.42032" lon="0.91837">
        <ele>84.73</ele>
        <time>2013-02-23T15:25:57Z</time>
      </trkpt>
      <trkpt lat="44.42073" lon="0.91861">
        <ele>90.02</ele>
        <time>2013-02-23T15:26:14Z</time>
      </trkpt>
      <trkpt lat="44.42101" lon="0.91879">
        <ele>95.31</ele>
        <time>2013-02-23T15:26:27Z</time>
      </trkpt>
      <trkpt lat="44.42119" lon="0.91889">
        <ele>97.71</ele>
        <time>2013-02-23T15:26:36Z</time>
      </trkpt>
      <trkpt lat="44.42124" lon="0.91889">
        <ele>98.19</ele>
        <time>2013-02-23T15:26:40Z</time>
      </trkpt>
      <trkpt lat="44.42125" lon="0.91889">
        <ele>98.19</ele>
        <time>2013-02-23T15:26:41Z</time>
      </trkpt>
      <trkpt lat="44.42127" lon="0.9189">
        <ele>98.19</ele>
        <time>2013-02-23T15:26:42Z</time>
      </trkpt>
      <trkpt lat="44.42128" lon="0.9189">
        <ele>98.67</ele>
        <time>2013-02-23T15:26:43Z</time>
      </trkpt>
      <trkpt lat="44.42129" lon="0.9189">
        <ele>98.67</ele>
        <time>2013-02-23T15:26:44Z</time>
      </trkpt>
      <trkpt lat="44.42131" lon="0.9189">
        <ele>98.67</ele>
        <time>2013-02-23T15:26:45Z</time>
      </trkpt>
      <trkpt lat="44.42133" lon="0.91891">
        <ele>98.67</ele>
        <time>2013-02-23T15:26:46Z</time>
      </trkpt>
      <trkpt lat="44.42134" lon="0.91892">
        <ele>99.15</ele>
        <time>2013-02-23T15:26:47Z</time>
      </trkpt>
      <trkpt lat="44.4216" lon="0.919">
        <ele>101.08</ele>
        <time>2013-02-23T15:27:02Z</time>
      </trkpt>
      <trkpt lat="44.42182" lon="0.91907">
        <ele>102.04</ele>
        <time>2013-02-23T15:27:15Z</time>
      </trkpt>
      <trkpt lat="44.42213" lon="0.91921">
        <ele>101.56</ele>
        <time>2013-02-23T15:27:33Z</time>
      </trkpt>
      <trkpt lat="44.42243" lon="0.91944">
        <ele>102.04</ele>
        <time>2013-02-23T15:27:50Z</time>
      </trkpt>
      <trkpt lat="44.42271" lon="0.91966">
        <ele>102.04</ele>
        <time>2013-02-23T15:28:06Z</time>
      </trkpt>
      <trkpt lat="44.42302" lon="0.91989">
        <ele>103</ele>
        <time>2013-02-23T15:28:23Z</time>
      </trkpt>
      <trkpt lat="44.4233" lon="0.92012">
        <ele>104.92</ele>
        <time>2013-02-23T15:28:40Z</time>
      </trkpt>
      <trkpt lat="44.42348" lon="0.9204">
        <ele>105.4</ele>
        <time>2013-02-23T15:28:56Z</time>
      </trkpt>
      <trkpt lat="44.42346" lon="0.92052">
        <ele>105.88</ele>
        <time>2013-02-23T15:29:01Z</time>
      </trkpt>
      <trkpt lat="44.42345" lon="0.92055">
        <ele>105.88</ele>
        <time>2013-02-23T15:29:02Z</time>
      </trkpt>
      <trkpt lat="44.42345" lon="0.92058">
        <ele>106.36</ele>
        <time>2013-02-23T15:29:03Z</time>
      </trkpt>
      <trkpt lat="44.42333" lon="0.92095">
        <ele>108.29</ele>
        <time>2013-02-23T15:29:17Z</time>
      </trkpt>
      <trkpt lat="44.4233" lon="0.92139">
        <ele>107.81</ele>
        <time>2013-02-23T15:29:33Z</time>
      </trkpt>
      <trkpt lat="44.42341" lon="0.92172">
        <ele>107.32</ele>
        <time>2013-02-23T15:29:45Z</time>
      </trkpt>
      <trkpt lat="44.42358" lon="0.92226">
        <ele>107.32</ele>
        <time>2013-02-23T15:30:03Z</time>
      </trkpt>
      <trkpt lat="44.42375" lon="0.92273">
        <ele>106.84</ele>
        <time>2013-02-23T15:30:17Z</time>
      </trkpt>
      <trkpt lat="44.4241" lon="0.92301">
        <ele>104.44</ele>
        <time>2013-02-23T15:30:29Z</time>
      </trkpt>
      <trkpt lat="44.42452" lon="0.92324">
        <ele>104.44</ele>
        <time>2013-02-23T15:30:44Z</time>
      </trkpt>
      <trkpt lat="44.42496" lon="0.9234">
        <ele>104.92</ele>
        <time>2013-02-23T15:30:59Z</time>
      </trkpt>
      <trkpt lat="44.42539" lon="0.92354">
        <ele>107.32</ele>
        <time>2013-02-23T15:31:15Z</time>
      </trkpt>
      <trkpt lat="44.42573" lon="0.92366">
        <ele>108.29</ele>
        <time>2013-02-23T15:31:28Z</time>
      </trkpt>
      <trkpt lat="44.42601" lon="0.92382">
        <ele>109.73</ele>
        <time>2013-02-23T15:31:39Z</time>
      </trkpt>
      <trkpt lat="44.42624" lon="0.92398">
        <ele>108.77</ele>
        <time>2013-02-23T15:31:46Z</time>
      </trkpt>
      <trkpt lat="44.42627" lon="0.92402">
        <ele>108.29</ele>
        <time>2013-02-23T15:31:47Z</time>
      </trkpt>
      <trkpt lat="44.42655" lon="0.92428">
        <ele>106.84</ele>
        <time>2013-02-23T15:31:54Z</time>
      </trkpt>
      <trkpt lat="44.42661" lon="0.92437">
        <ele>106.84</ele>
        <time>2013-02-23T15:31:56Z</time>
      </trkpt>
      <trkpt lat="44.42664" lon="0.92439">
        <ele>106.36</ele>
        <time>2013-02-23T15:31:57Z</time>
      </trkpt>
      <trkpt lat="44.42666" lon="0.92441">
        <ele>106.36</ele>
        <time>2013-02-23T15:31:58Z</time>
      </trkpt>
      <trkpt lat="44.42668" lon="0.92441">
        <ele>105.88</ele>
        <time>2013-02-23T15:31:59Z</time>
      </trkpt>
      <trkpt lat="44.4267" lon="0.9244">
        <ele>105.88</ele>
        <time>2013-02-23T15:32:00Z</time>
      </trkpt>
      <trkpt lat="44.42671" lon="0.92439">
        <ele>105.88</ele>
        <time>2013-02-23T15:32:01Z</time>
      </trkpt>
      <trkpt lat="44.42672" lon="0.92439">
        <ele>105.88</ele>
        <time>2013-02-23T15:32:12Z</time>
      </trkpt>
      <trkpt lat="44.42672" lon="0.92439">
        <ele>106.36</ele>
        <time>2013-02-23T15:32:34Z</time>
      </trkpt>
      <trkpt lat="44.42673" lon="0.92439">
        <ele>106.36</ele>
        <time>2013-02-23T15:32:58Z</time>
      </trkpt>
      <trkpt lat="44.42674" lon="0.9244">
        <ele>107.32</ele>
        <time>2013-02-23T15:33:23Z</time>
      </trkpt>
      <trkpt lat="44.42674" lon="0.92441">
        <ele>107.32</ele>
        <time>2013-02-23T15:33:50Z</time>
      </trkpt>
      <trkpt lat="44.42674" lon="0.92439">
        <ele>107.32</ele>
        <time>2013-02-23T15:33:52Z</time>
      </trkpt>
      <trkpt lat="44.42678" lon="0.92392">
        <ele>106.84</ele>
        <time>2013-02-23T15:34:04Z</time>
      </trkpt>
      <trkpt lat="44.42685" lon="0.92345">
        <ele>105.4</ele>
        <time>2013-02-23T15:34:13Z</time>
      </trkpt>
      <trkpt lat="44.42687" lon="0.92334">
        <ele>104.92</ele>
        <time>2013-02-23T15:34:15Z</time>
      </trkpt>
      <trkpt lat="44.42693" lon="0.92307">
        <ele>104.44</ele>
        <time>2013-02-23T15:34:20Z</time>
      </trkpt>
      <trkpt lat="44.42695" lon="0.92302">
        <ele>104.44</ele>
        <time>2013-02-23T15:34:21Z</time>
      </trkpt>
      <trkpt lat="44.42697" lon="0.92296">
        <ele>104.44</ele>
        <time>2013-02-23T15:34:22Z</time>
      </trkpt>
      <trkpt lat="44.42699" lon="0.92291">
        <ele>104.44</ele>
        <time>2013-02-23T15:34:23Z</time>
      </trkpt>
      <trkpt lat="44.42702" lon="0.92287">
        <ele>104.44</ele>
        <time>2013-02-23T15:34:24Z</time>
      </trkpt>
      <trkpt lat="44.42711" lon="0.92267">
        <ele>104.44</ele>
        <time>2013-02-23T15:34:28Z</time>
      </trkpt>
      <trkpt lat="44.42715" lon="0.9225">
        <ele>104.44</ele>
        <time>2013-02-23T15:34:31Z</time>
      </trkpt>
      <trkpt lat="44.42717" lon="0.92239">
        <ele>103.48</ele>
        <time>2013-02-23T15:34:33Z</time>
      </trkpt>
      <trkpt lat="44.42719" lon="0.92234">
        <ele>103</ele>
        <time>2013-02-23T15:34:34Z</time>
      </trkpt>
      <trkpt lat="44.42741" lon="0.92171">
        <ele>104.92</ele>
        <time>2013-02-23T15:34:47Z</time>
      </trkpt>
      <trkpt lat="44.42775" lon="0.92098">
        <ele>105.4</ele>
        <time>2013-02-23T15:35:03Z</time>
      </trkpt>
      <trkpt lat="44.42804" lon="0.92034">
        <ele>104.92</ele>
        <time>2013-02-23T15:35:18Z</time>
      </trkpt>
      <trkpt lat="44.42843" lon="0.9199">
        <ele>105.88</ele>
        <time>2013-02-23T15:35:32Z</time>
      </trkpt>
      <trkpt lat="44.4288" lon="0.91956">
        <ele>107.32</ele>
        <time>2013-02-23T15:35:46Z</time>
      </trkpt>
      <trkpt lat="44.4291" lon="0.91929">
        <ele>107.32</ele>
        <time>2013-02-23T15:35:57Z</time>
      </trkpt>
      <trkpt lat="44.42953" lon="0.91891">
        <ele>108.77</ele>
        <time>2013-02-23T15:36:11Z</time>
      </trkpt>
      <trkpt lat="44.43005" lon="0.9185">
        <ele>110.21</ele>
        <time>2013-02-23T15:36:28Z</time>
      </trkpt>
      <trkpt lat="44.43055" lon="0.91824">
        <ele>111.17</ele>
        <time>2013-02-23T15:36:45Z</time>
      </trkpt>
      <trkpt lat="44.43103" lon="0.91793">
        <ele>110.69</ele>
        <time>2013-02-23T15:37:01Z</time>
      </trkpt>
      <trkpt lat="44.43149" lon="0.91751">
        <ele>108.77</ele>
        <time>2013-02-23T15:37:15Z</time>
      </trkpt>
      <trkpt lat="44.43202" lon="0.91729">
        <ele>108.29</ele>
        <time>2013-02-23T15:37:30Z</time>
      </trkpt>
      <trkpt lat="44.43243" lon="0.91698">
        <ele>109.73</ele>
        <time>2013-02-23T15:37:43Z</time>
      </trkpt>
      <trkpt lat="44.43287" lon="0.91664">
        <ele>110.69</ele>
        <time>2013-02-23T15:37:57Z</time>
      </trkpt>
      <trkpt lat="44.43291" lon="0.91663">
        <ele>110.21</ele>
        <time>2013-02-23T15:37:58Z</time>
      </trkpt>
      <trkpt lat="44.43335" lon="0.91648">
        <ele>107.32</ele>
        <time>2013-02-23T15:38:06Z</time>
      </trkpt>
      <trkpt lat="44.43408" lon="0.91607">
        <ele>105.4</ele>
        <time>2013-02-23T15:38:21Z</time>
      </trkpt>
      <trkpt lat="44.43417" lon="0.91601">
        <ele>104.44</ele>
        <time>2013-02-23T15:38:23Z</time>
      </trkpt>
      <trkpt lat="44.43472" lon="0.9155">
        <ele>105.4</ele>
        <time>2013-02-23T15:38:37Z</time>
      </trkpt>
      <trkpt lat="44.43475" lon="0.91546">
        <ele>105.4</ele>
        <time>2013-02-23T15:38:38Z</time>
      </trkpt>
      <trkpt lat="44.4349" lon="0.91527">
        <ele>105.88</ele>
        <time>2013-02-23T15:38:43Z</time>
      </trkpt>
      <trkpt lat="44.43494" lon="0.91525">
        <ele>106.36</ele>
        <time>2013-02-23T15:38:44Z</time>
      </trkpt>
      <trkpt lat="44.43497" lon="0.91522">
        <ele>106.36</ele>
        <time>2013-02-23T15:38:45Z</time>
      </trkpt>
      <trkpt lat="44.4351" lon="0.91509">
        <ele>107.32</ele>
        <time>2013-02-23T15:38:49Z</time>
      </trkpt>
      <trkpt lat="44.43572" lon="0.91468">
        <ele>109.25</ele>
        <time>2013-02-23T15:39:06Z</time>
      </trkpt>
      <trkpt lat="44.43583" lon="0.91463">
        <ele>108.77</ele>
        <time>2013-02-23T15:39:09Z</time>
      </trkpt>
      <trkpt lat="44.43591" lon="0.91457">
        <ele>108.29</ele>
        <time>2013-02-23T15:39:11Z</time>
      </trkpt>
      <trkpt lat="44.43595" lon="0.91454">
        <ele>107.81</ele>
        <time>2013-02-23T15:39:12Z</time>
      </trkpt>
      <trkpt lat="44.43598" lon="0.9145">
        <ele>107.81</ele>
        <time>2013-02-23T15:39:13Z</time>
      </trkpt>
      <trkpt lat="44.43609" lon="0.91437">
        <ele>106.84</ele>
        <time>2013-02-23T15:39:16Z</time>
      </trkpt>
      <trkpt lat="44.43663" lon="0.91365">
        <ele>105.4</ele>
        <time>2013-02-23T15:39:30Z</time>
      </trkpt>
      <trkpt lat="44.43677" lon="0.91352">
        <ele>104.92</ele>
        <time>2013-02-23T15:39:33Z</time>
      </trkpt>
      <trkpt lat="44.43693" lon="0.91341">
        <ele>104.44</ele>
        <time>2013-02-23T15:39:36Z</time>
      </trkpt>
      <trkpt lat="44.43699" lon="0.91339">
        <ele>103.48</ele>
        <time>2013-02-23T15:39:37Z</time>
      </trkpt>
      <trkpt lat="44.43706" lon="0.91337">
        <ele>103</ele>
        <time>2013-02-23T15:39:38Z</time>
      </trkpt>
      <trkpt lat="44.43713" lon="0.91337">
        <ele>102.52</ele>
        <time>2013-02-23T15:39:39Z</time>
      </trkpt>
      <trkpt lat="44.4372" lon="0.91338">
        <ele>101.56</ele>
        <time>2013-02-23T15:39:40Z</time>
      </trkpt>
      <trkpt lat="44.43727" lon="0.9134">
        <ele>101.08</ele>
        <time>2013-02-23T15:39:41Z</time>
      </trkpt>
      <trkpt lat="44.43734" lon="0.91343">
        <ele>100.6</ele>
        <time>2013-02-23T15:39:42Z</time>
      </trkpt>
      <trkpt lat="44.43741" lon="0.91347">
        <ele>100.11</ele>
        <time>2013-02-23T15:39:43Z</time>
      </trkpt>
      <trkpt lat="44.43759" lon="0.91361">
        <ele>98.67</ele>
        <time>2013-02-23T15:39:46Z</time>
      </trkpt>
      <trkpt lat="44.43788" lon="0.91389">
        <ele>99.15</ele>
        <time>2013-02-23T15:39:52Z</time>
      </trkpt>
      <trkpt lat="44.43791" lon="0.91393">
        <ele>99.15</ele>
        <time>2013-02-23T15:39:53Z</time>
      </trkpt>
      <trkpt lat="44.43793" lon="0.91397">
        <ele>99.63</ele>
        <time>2013-02-23T15:39:54Z</time>
      </trkpt>
      <trkpt lat="44.43807" lon="0.9143">
        <ele>103.96</ele>
        <time>2013-02-23T15:40:06Z</time>
      </trkpt>
      <trkpt lat="44.43831" lon="0.91458">
        <ele>108.77</ele>
        <time>2013-02-23T15:40:22Z</time>
      </trkpt>
      <trkpt lat="44.43835" lon="0.91464">
        <ele>109.25</ele>
        <time>2013-02-23T15:40:25Z</time>
      </trkpt>
      <trkpt lat="44.43836" lon="0.91466">
        <ele>109.73</ele>
        <time>2013-02-23T15:40:26Z</time>
      </trkpt>
      <trkpt lat="44.43838" lon="0.91468">
        <ele>110.21</ele>
        <time>2013-02-23T15:40:27Z</time>
      </trkpt>
      <trkpt lat="44.43839" lon="0.9147">
        <ele>110.21</ele>
        <time>2013-02-23T15:40:28Z</time>
      </trkpt>
      <trkpt lat="44.4384" lon="0.91473">
        <ele>110.69</ele>
        <time>2013-02-23T15:40:29Z</time>
      </trkpt>
      <trkpt lat="44.43841" lon="0.91475">
        <ele>110.69</ele>
        <time>2013-02-23T15:40:30Z</time>
      </trkpt>
      <trkpt lat="44.43842" lon="0.91477">
        <ele>110.69</ele>
        <time>2013-02-23T15:40:31Z</time>
      </trkpt>
      <trkpt lat="44.43844" lon="0.91479">
        <ele>110.69</ele>
        <time>2013-02-23T15:40:32Z</time>
      </trkpt>
      <trkpt lat="44.43845" lon="0.91481">
        <ele>110.69</ele>
        <time>2013-02-23T15:40:33Z</time>
      </trkpt>
      <trkpt lat="44.43847" lon="0.91483">
        <ele>110.69</ele>
        <time>2013-02-23T15:40:34Z</time>
      </trkpt>
      <trkpt lat="44.43848" lon="0.91485">
        <ele>111.17</ele>
        <time>2013-02-23T15:40:35Z</time>
      </trkpt>
      <trkpt lat="44.43849" lon="0.91488">
        <ele>111.17</ele>
        <time>2013-02-23T15:40:36Z</time>
      </trkpt>
      <trkpt lat="44.43869" lon="0.91515">
        <ele>113.09</ele>
        <time>2013-02-23T15:40:49Z</time>
      </trkpt>
      <trkpt lat="44.43884" lon="0.91529">
        <ele>113.57</ele>
        <time>2013-02-23T15:41:01Z</time>
      </trkpt>
      <trkpt lat="44.43885" lon="0.9153">
        <ele>114.53</ele>
        <time>2013-02-23T15:41:13Z</time>
      </trkpt>
      <trkpt lat="44.43885" lon="0.9153">
        <ele>115.01</ele>
        <time>2013-02-23T15:41:32Z</time>
      </trkpt>
      <trkpt lat="44.43885" lon="0.9153">
        <ele>114.53</ele>
        <time>2013-02-23T15:42:03Z</time>
      </trkpt>
      <trkpt lat="44.43885" lon="0.91529">
        <ele>114.53</ele>
        <time>2013-02-23T15:42:24Z</time>
      </trkpt>
      <trkpt lat="44.43886" lon="0.9153">
        <ele>115.01</ele>
        <time>2013-02-23T15:42:41Z</time>
      </trkpt>
      <trkpt lat="44.43887" lon="0.91531">
        <ele>115.01</ele>
        <time>2013-02-23T15:42:42Z</time>
      </trkpt>
      <trkpt lat="44.43889" lon="0.91532">
        <ele>115.01</ele>
        <time>2013-02-23T15:42:43Z</time>
      </trkpt>
      <trkpt lat="44.43891" lon="0.91533">
        <ele>115.01</ele>
        <time>2013-02-23T15:42:44Z</time>
      </trkpt>
      <trkpt lat="44.43894" lon="0.91534">
        <ele>115.01</ele>
        <time>2013-02-23T15:42:45Z</time>
      </trkpt>
      <trkpt lat="44.43943" lon="0.91561">
        <ele>112.61</ele>
        <time>2013-02-23T15:42:57Z</time>
      </trkpt>
      <trkpt lat="44.43987" lon="0.91589">
        <ele>109.73</ele>
        <time>2013-02-23T15:43:07Z</time>
      </trkpt>
      <trkpt lat="44.43991" lon="0.91593">
        <ele>109.73</ele>
        <time>2013-02-23T15:43:08Z</time>
      </trkpt>
      <trkpt lat="44.44035" lon="0.91627">
        <ele>109.25</ele>
        <time>2013-02-23T15:43:21Z</time>
      </trkpt>
      <trkpt lat="44.44067" lon="0.91655">
        <ele>105.88</ele>
        <time>2013-02-23T15:43:33Z</time>
      </trkpt>
      <trkpt lat="44.44074" lon="0.9166">
        <ele>104.92</ele>
        <time>2013-02-23T15:43:35Z</time>
      </trkpt>
      <trkpt lat="44.44077" lon="0.91663">
        <ele>104.44</ele>
        <time>2013-02-23T15:43:36Z</time>
      </trkpt>
      <trkpt lat="44.4408" lon="0.91666">
        <ele>103.96</ele>
        <time>2013-02-23T15:43:37Z</time>
      </trkpt>
      <trkpt lat="44.44083" lon="0.91668">
        <ele>103.48</ele>
        <time>2013-02-23T15:43:38Z</time>
      </trkpt>
      <trkpt lat="44.44086" lon="0.91671">
        <ele>103</ele>
        <time>2013-02-23T15:43:39Z</time>
      </trkpt>
      <trkpt lat="44.44088" lon="0.91673">
        <ele>102.52</ele>
        <time>2013-02-23T15:43:40Z</time>
      </trkpt>
      <trkpt lat="44.44126" lon="0.91709">
        <ele>101.56</ele>
        <time>2013-02-23T15:43:53Z</time>
      </trkpt>
      <trkpt lat="44.4416" lon="0.91744">
        <ele>102.04</ele>
        <time>2013-02-23T15:44:04Z</time>
      </trkpt>
      <trkpt lat="44.44165" lon="0.91746">
        <ele>102.04</ele>
        <time>2013-02-23T15:44:06Z</time>
      </trkpt>
      <trkpt lat="44.44167" lon="0.91745">
        <ele>102.04</ele>
        <time>2013-02-23T15:44:07Z</time>
      </trkpt>
      <trkpt lat="44.44172" lon="0.91724">
        <ele>103</ele>
        <time>2013-02-23T15:44:18Z</time>
      </trkpt>
      <trkpt lat="44.44173" lon="0.91713">
        <ele>106.84</ele>
        <time>2013-02-23T15:44:25Z</time>
      </trkpt>
      <trkpt lat="44.44174" lon="0.91708">
        <ele>108.29</ele>
        <time>2013-02-23T15:44:28Z</time>
      </trkpt>
      <trkpt lat="44.44177" lon="0.91695">
        <ele>110.21</ele>
        <time>2013-02-23T15:44:33Z</time>
      </trkpt>
      <trkpt lat="44.44195" lon="0.91654">
        <ele>115.01</ele>
        <time>2013-02-23T15:44:46Z</time>
      </trkpt>
      <trkpt lat="44.44211" lon="0.91621">
        <ele>118.38</ele>
        <time>2013-02-23T15:44:56Z</time>
      </trkpt>
      <trkpt lat="44.44235" lon="0.91585">
        <ele>118.38</ele>
        <time>2013-02-23T15:45:07Z</time>
      </trkpt>
      <trkpt lat="44.44262" lon="0.91533">
        <ele>117.42</ele>
        <time>2013-02-23T15:45:19Z</time>
      </trkpt>
      <trkpt lat="44.4429" lon="0.91481">
        <ele>115.01</ele>
        <time>2013-02-23T15:45:31Z</time>
      </trkpt>
      <trkpt lat="44.44322" lon="0.91419">
        <ele>108.77</ele>
        <time>2013-02-23T15:45:45Z</time>
      </trkpt>
      <trkpt lat="44.44348" lon="0.91391">
        <ele>105.88</ele>
        <time>2013-02-23T15:45:55Z</time>
      </trkpt>
      <trkpt lat="44.44383" lon="0.91345">
        <ele>103.96</ele>
        <time>2013-02-23T15:46:09Z</time>
      </trkpt>
      <trkpt lat="44.4442" lon="0.91278">
        <ele>102.04</ele>
        <time>2013-02-23T15:46:25Z</time>
      </trkpt>
      <trkpt lat="44.44453" lon="0.91225">
        <ele>101.56</ele>
        <time>2013-02-23T15:46:38Z</time>
      </trkpt>
      <trkpt lat="44.44463" lon="0.91214">
        <ele>100.11</ele>
        <time>2013-02-23T15:46:41Z</time>
      </trkpt>
      <trkpt lat="44.44471" lon="0.91208">
        <ele>99.15</ele>
        <time>2013-02-23T15:46:43Z</time>
      </trkpt>
      <trkpt lat="44.44475" lon="0.91206">
        <ele>98.67</ele>
        <time>2013-02-23T15:46:44Z</time>
      </trkpt>
      <trkpt lat="44.44483" lon="0.91201">
        <ele>98.19</ele>
        <time>2013-02-23T15:46:46Z</time>
      </trkpt>
      <trkpt lat="44.44521" lon="0.91163">
        <ele>99.15</ele>
        <time>2013-02-23T15:46:56Z</time>
      </trkpt>
      <trkpt lat="44.44525" lon="0.91159">
        <ele>99.63</ele>
        <time>2013-02-23T15:46:57Z</time>
      </trkpt>
      <trkpt lat="44.44529" lon="0.91156">
        <ele>99.63</ele>
        <time>2013-02-23T15:46:58Z</time>
      </trkpt>
      <trkpt lat="44.44533" lon="0.91154">
        <ele>99.63</ele>
        <time>2013-02-23T15:46:59Z</time>
      </trkpt>
      <trkpt lat="44.44539" lon="0.91152">
        <ele>99.15</ele>
        <time>2013-02-23T15:47:00Z</time>
      </trkpt>
      <trkpt lat="44.44544" lon="0.91152">
        <ele>98.67</ele>
        <time>2013-02-23T15:47:01Z</time>
      </trkpt>
      <trkpt lat="44.4455" lon="0.91153">
        <ele>97.71</ele>
        <time>2013-02-23T15:47:02Z</time>
      </trkpt>
      <trkpt lat="44.4457" lon="0.91163">
        <ele>94.83</ele>
        <time>2013-02-23T15:47:06Z</time>
      </trkpt>
      <trkpt lat="44.44646" lon="0.91204">
        <ele>81.37</ele>
        <time>2013-02-23T15:47:18Z</time>
      </trkpt>
      <trkpt lat="44.44653" lon="0.91208">
        <ele>80.41</ele>
        <time>2013-02-23T15:47:19Z</time>
      </trkpt>
      <trkpt lat="44.44659" lon="0.91211">
        <ele>79.93</ele>
        <time>2013-02-23T15:47:20Z</time>
      </trkpt>
      <trkpt lat="44.44664" lon="0.91209">
        <ele>78.97</ele>
        <time>2013-02-23T15:47:21Z</time>
      </trkpt>
      <trkpt lat="44.44669" lon="0.91205">
        <ele>78.48</ele>
        <time>2013-02-23T15:47:22Z</time>
      </trkpt>
      <trkpt lat="44.44672" lon="0.91199">
        <ele>78</ele>
        <time>2013-02-23T15:47:23Z</time>
      </trkpt>
      <trkpt lat="44.44675" lon="0.91194">
        <ele>77.52</ele>
        <time>2013-02-23T15:47:24Z</time>
      </trkpt>
      <trkpt lat="44.44684" lon="0.91179">
        <ele>76.08</ele>
        <time>2013-02-23T15:47:27Z</time>
      </trkpt>
      <trkpt lat="44.44688" lon="0.91175">
        <ele>75.6</ele>
        <time>2013-02-23T15:47:28Z</time>
      </trkpt>
      <trkpt lat="44.44691" lon="0.91172">
        <ele>75.12</ele>
        <time>2013-02-23T15:47:29Z</time>
      </trkpt>
      <trkpt lat="44.44693" lon="0.9117">
        <ele>74.64</ele>
        <time>2013-02-23T15:47:30Z</time>
      </trkpt>
      <trkpt lat="44.44695" lon="0.91169">
        <ele>74.64</ele>
        <time>2013-02-23T15:47:31Z</time>
      </trkpt>
      <trkpt lat="44.44698" lon="0.9117">
        <ele>73.68</ele>
        <time>2013-02-23T15:47:39Z</time>
      </trkpt>
      <trkpt lat="44.44697" lon="0.91171">
        <ele>71.27</ele>
        <time>2013-02-23T15:48:08Z</time>
      </trkpt>
      <trkpt lat="44.44698" lon="0.91172">
        <ele>71.27</ele>
        <time>2013-02-23T15:48:11Z</time>
      </trkpt>
      <trkpt lat="44.44699" lon="0.91173">
        <ele>71.27</ele>
        <time>2013-02-23T15:48:12Z</time>
      </trkpt>
      <trkpt lat="44.44701" lon="0.91176">
        <ele>71.27</ele>
        <time>2013-02-23T15:48:13Z</time>
      </trkpt>
      <trkpt lat="44.44728" lon="0.9123">
        <ele>72.24</ele>
        <time>2013-02-23T15:48:26Z</time>
      </trkpt>
      <trkpt lat="44.44751" lon="0.913">
        <ele>73.68</ele>
        <time>2013-02-23T15:48:39Z</time>
      </trkpt>
      <trkpt lat="44.44776" lon="0.91408">
        <ele>76.08</ele>
        <time>2013-02-23T15:48:57Z</time>
      </trkpt>
      <trkpt lat="44.44792" lon="0.91483">
        <ele>75.6</ele>
        <time>2013-02-23T15:49:08Z</time>
      </trkpt>
      <trkpt lat="44.44793" lon="0.9149">
        <ele>75.6</ele>
        <time>2013-02-23T15:49:09Z</time>
      </trkpt>
      <trkpt lat="44.44801" lon="0.91526">
        <ele>75.6</ele>
        <time>2013-02-23T15:49:14Z</time>
      </trkpt>
      <trkpt lat="44.44802" lon="0.91533">
        <ele>76.08</ele>
        <time>2013-02-23T15:49:15Z</time>
      </trkpt>
      <trkpt lat="44.44804" lon="0.9154">
        <ele>75.6</ele>
        <time>2013-02-23T15:49:16Z</time>
      </trkpt>
      <trkpt lat="44.44806" lon="0.91546">
        <ele>75.6</ele>
        <time>2013-02-23T15:49:17Z</time>
      </trkpt>
      <trkpt lat="44.44807" lon="0.91553">
        <ele>75.6</ele>
        <time>2013-02-23T15:49:18Z</time>
      </trkpt>
      <trkpt lat="44.44818" lon="0.91599">
        <ele>75.6</ele>
        <time>2013-02-23T15:49:27Z</time>
      </trkpt>
      <trkpt lat="44.4482" lon="0.91601">
        <ele>75.6</ele>
        <time>2013-02-23T15:49:28Z</time>
      </trkpt>
      <trkpt lat="44.44823" lon="0.91604">
        <ele>74.64</ele>
        <time>2013-02-23T15:49:35Z</time>
      </trkpt>
      <trkpt lat="44.44826" lon="0.91603">
        <ele>74.64</ele>
        <time>2013-02-23T15:49:36Z</time>
      </trkpt>
      <trkpt lat="44.44834" lon="0.91599">
        <ele>74.16</ele>
        <time>2013-02-23T15:49:38Z</time>
      </trkpt>
      <trkpt lat="44.4484" lon="0.91599">
        <ele>74.16</ele>
        <time>2013-02-23T15:49:39Z</time>
      </trkpt>
      <trkpt lat="44.44862" lon="0.91597">
        <ele>73.2</ele>
        <time>2013-02-23T15:49:42Z</time>
      </trkpt>
      <trkpt lat="44.44871" lon="0.91594">
        <ele>72.72</ele>
        <time>2013-02-23T15:49:43Z</time>
      </trkpt>
      <trkpt lat="44.44878" lon="0.91588">
        <ele>72.24</ele>
        <time>2013-02-23T15:49:44Z</time>
      </trkpt>
      <trkpt lat="44.44884" lon="0.91579">
        <ele>71.76</ele>
        <time>2013-02-23T15:49:45Z</time>
      </trkpt>
      <trkpt lat="44.44888" lon="0.91568">
        <ele>71.27</ele>
        <time>2013-02-23T15:49:46Z</time>
      </trkpt>
      <trkpt lat="44.4489" lon="0.91556">
        <ele>70.79</ele>
        <time>2013-02-23T15:49:47Z</time>
      </trkpt>
      <trkpt lat="44.44892" lon="0.91543">
        <ele>70.31</ele>
        <time>2013-02-23T15:49:48Z</time>
      </trkpt>
      <trkpt lat="44.44895" lon="0.91518">
        <ele>69.83</ele>
        <time>2013-02-23T15:49:50Z</time>
      </trkpt>
      <trkpt lat="44.44906" lon="0.91483">
        <ele>68.87</ele>
        <time>2013-02-23T15:49:53Z</time>
      </trkpt>
      <trkpt lat="44.44911" lon="0.91472">
        <ele>68.87</ele>
        <time>2013-02-23T15:49:54Z</time>
      </trkpt>
      <trkpt lat="44.44917" lon="0.91463">
        <ele>68.39</ele>
        <time>2013-02-23T15:49:55Z</time>
      </trkpt>
      <trkpt lat="44.44923" lon="0.91455">
        <ele>68.39</ele>
        <time>2013-02-23T15:49:56Z</time>
      </trkpt>
      <trkpt lat="44.4493" lon="0.91447">
        <ele>68.39</ele>
        <time>2013-02-23T15:49:57Z</time>
      </trkpt>
      <trkpt lat="44.44937" lon="0.91441">
        <ele>67.91</ele>
        <time>2013-02-23T15:49:58Z</time>
      </trkpt>
      <trkpt lat="44.44945" lon="0.91435">
        <ele>67.43</ele>
        <time>2013-02-23T15:49:59Z</time>
      </trkpt>
      <trkpt lat="44.45047" lon="0.91354">
        <ele>65.99</ele>
        <time>2013-02-23T15:50:13Z</time>
      </trkpt>
      <trkpt lat="44.45072" lon="0.91319">
        <ele>65.99</ele>
        <time>2013-02-23T15:50:18Z</time>
      </trkpt>
      <trkpt lat="44.45076" lon="0.91312">
        <ele>65.99</ele>
        <time>2013-02-23T15:50:19Z</time>
      </trkpt>
      <trkpt lat="44.4508" lon="0.91306">
        <ele>65.99</ele>
        <time>2013-02-23T15:50:20Z</time>
      </trkpt>
      <trkpt lat="44.45084" lon="0.91303">
        <ele>65.99</ele>
        <time>2013-02-23T15:50:21Z</time>
      </trkpt>
      <trkpt lat="44.45088" lon="0.91304">
        <ele>66.47</ele>
        <time>2013-02-23T15:50:22Z</time>
      </trkpt>
      <trkpt lat="44.4509" lon="0.91308">
        <ele>66.47</ele>
        <time>2013-02-23T15:50:23Z</time>
      </trkpt>
      <trkpt lat="44.45115" lon="0.91338">
        <ele>65.99</ele>
        <time>2013-02-23T15:50:33Z</time>
      </trkpt>
      <trkpt lat="44.45157" lon="0.91389">
        <ele>66.95</ele>
        <time>2013-02-23T15:50:48Z</time>
      </trkpt>
      <trkpt lat="44.45199" lon="0.9144">
        <ele>66.47</ele>
        <time>2013-02-23T15:51:03Z</time>
      </trkpt>
      <trkpt lat="44.45246" lon="0.91507">
        <ele>68.39</ele>
        <time>2013-02-23T15:51:21Z</time>
      </trkpt>
      <trkpt lat="44.45292" lon="0.91561">
        <ele>67.43</ele>
        <time>2013-02-23T15:51:37Z</time>
      </trkpt>
      <trkpt lat="44.45358" lon="0.91606">
        <ele>67.43</ele>
        <time>2013-02-23T15:51:56Z</time>
      </trkpt>
      <trkpt lat="44.45407" lon="0.91651">
        <ele>67.43</ele>
        <time>2013-02-23T15:52:11Z</time>
      </trkpt>
      <trkpt lat="44.45451" lon="0.91713">
        <ele>65.99</ele>
        <time>2013-02-23T15:52:26Z</time>
      </trkpt>
      <trkpt lat="44.45461" lon="0.91728">
        <ele>65.99</ele>
        <time>2013-02-23T15:52:29Z</time>
      </trkpt>
      <trkpt lat="44.45464" lon="0.91732">
        <ele>65.99</ele>
        <time>2013-02-23T15:52:30Z</time>
      </trkpt>
      <trkpt lat="44.455" lon="0.91808">
        <ele>66.47</ele>
        <time>2013-02-23T15:52:45Z</time>
      </trkpt>
      <trkpt lat="44.45509" lon="0.91832">
        <ele>66.47</ele>
        <time>2013-02-23T15:52:50Z</time>
      </trkpt>
      <trkpt lat="44.45511" lon="0.91837">
        <ele>66.47</ele>
        <time>2013-02-23T15:52:51Z</time>
      </trkpt>
      <trkpt lat="44.45513" lon="0.91843">
        <ele>66.95</ele>
        <time>2013-02-23T15:52:52Z</time>
      </trkpt>
      <trkpt lat="44.45514" lon="0.91848">
        <ele>66.95</ele>
        <time>2013-02-23T15:52:53Z</time>
      </trkpt>
      <trkpt lat="44.45516" lon="0.91853">
        <ele>66.95</ele>
        <time>2013-02-23T15:52:54Z</time>
      </trkpt>
      <trkpt lat="44.45519" lon="0.919">
        <ele>66.95</ele>
        <time>2013-02-23T15:53:04Z</time>
      </trkpt>
      <trkpt lat="44.45521" lon="0.91904">
        <ele>66.95</ele>
        <time>2013-02-23T15:53:05Z</time>
      </trkpt>
      <trkpt lat="44.45554" lon="0.91939">
        <ele>65.99</ele>
        <time>2013-02-23T15:53:18Z</time>
      </trkpt>
      <trkpt lat="44.45598" lon="0.91983">
        <ele>65.03</ele>
        <time>2013-02-23T15:53:33Z</time>
      </trkpt>
      <trkpt lat="44.4564" lon="0.92021">
        <ele>64.55</ele>
        <time>2013-02-23T15:53:47Z</time>
      </trkpt>
      <trkpt lat="44.45686" lon="0.92066">
        <ele>64.07</ele>
        <time>2013-02-23T15:54:03Z</time>
      </trkpt>
      <trkpt lat="44.45728" lon="0.92119">
        <ele>65.51</ele>
        <time>2013-02-23T15:54:20Z</time>
      </trkpt>
      <trkpt lat="44.45763" lon="0.92163">
        <ele>67.43</ele>
        <time>2013-02-23T15:54:35Z</time>
      </trkpt>
      <trkpt lat="44.45797" lon="0.92197">
        <ele>65.99</ele>
        <time>2013-02-23T15:54:47Z</time>
      </trkpt>
      <trkpt lat="44.4581" lon="0.92208">
        <ele>65.03</ele>
        <time>2013-02-23T15:54:51Z</time>
      </trkpt>
      <trkpt lat="44.45813" lon="0.92212">
        <ele>64.55</ele>
        <time>2013-02-23T15:54:52Z</time>
      </trkpt>
      <trkpt lat="44.45838" lon="0.92239">
        <ele>64.55</ele>
        <time>2013-02-23T15:55:03Z</time>
      </trkpt>
      <trkpt lat="44.45866" lon="0.92268">
        <ele>64.55</ele>
        <time>2013-02-23T15:55:15Z</time>
      </trkpt>
      <trkpt lat="44.4591" lon="0.92307">
        <ele>64.55</ele>
        <time>2013-02-23T15:55:34Z</time>
      </trkpt>
      <trkpt lat="44.45944" lon="0.92334">
        <ele>64.55</ele>
        <time>2013-02-23T15:55:49Z</time>
      </trkpt>
      <trkpt lat="44.45952" lon="0.92342">
        <ele>65.03</ele>
        <time>2013-02-23T15:56:00Z</time>
      </trkpt>
      <trkpt lat="44.45952" lon="0.92342">
        <ele>65.99</ele>
        <time>2013-02-23T15:56:27Z</time>
      </trkpt>
      <trkpt lat="44.45953" lon="0.92341">
        <ele>66.47</ele>
        <time>2013-02-23T15:56:39Z</time>
      </trkpt>
      <trkpt lat="44.45953" lon="0.92341">
        <ele>65.99</ele>
        <time>2013-02-23T15:57:04Z</time>
      </trkpt>
      <trkpt lat="44.45953" lon="0.92341">
        <ele>66.47</ele>
        <time>2013-02-23T15:57:24Z</time>
      </trkpt>
      <trkpt lat="44.45955" lon="0.92342">
        <ele>66.47</ele>
        <time>2013-02-23T15:57:27Z</time>
      </trkpt>
      <trkpt lat="44.45956" lon="0.92341">
        <ele>66.47</ele>
        <time>2013-02-23T15:57:28Z</time>
      </trkpt>
      <trkpt lat="44.45958" lon="0.92339">
        <ele>66.47</ele>
        <time>2013-02-23T15:57:29Z</time>
      </trkpt>
      <trkpt lat="44.4596" lon="0.92338">
        <ele>66.47</ele>
        <time>2013-02-23T15:57:30Z</time>
      </trkpt>
      <trkpt lat="44.45962" lon="0.92336">
        <ele>66.47</ele>
        <time>2013-02-23T15:57:31Z</time>
      </trkpt>
      <trkpt lat="44.45989" lon="0.92313">
        <ele>66.95</ele>
        <time>2013-02-23T15:57:42Z</time>
      </trkpt>
      <trkpt lat="44.4603" lon="0.92262">
        <ele>65.51</ele>
        <time>2013-02-23T15:57:57Z</time>
      </trkpt>
      <trkpt lat="44.46057" lon="0.92219">
        <ele>65.03</ele>
        <time>2013-02-23T15:58:07Z</time>
      </trkpt>
      <trkpt lat="44.4606" lon="0.92214">
        <ele>65.03</ele>
        <time>2013-02-23T15:58:08Z</time>
      </trkpt>
      <trkpt lat="44.46062" lon="0.9221">
        <ele>65.03</ele>
        <time>2013-02-23T15:58:09Z</time>
      </trkpt>
      <trkpt lat="44.46065" lon="0.92206">
        <ele>65.03</ele>
        <time>2013-02-23T15:58:10Z</time>
      </trkpt>
      <trkpt lat="44.46068" lon="0.92201">
        <ele>64.55</ele>
        <time>2013-02-23T15:58:11Z</time>
      </trkpt>
      <trkpt lat="44.46076" lon="0.92188">
        <ele>64.55</ele>
        <time>2013-02-23T15:58:14Z</time>
      </trkpt>
      <trkpt lat="44.4609" lon="0.92167">
        <ele>64.07</ele>
        <time>2013-02-23T15:58:19Z</time>
      </trkpt>
      <trkpt lat="44.46094" lon="0.92163">
        <ele>64.07</ele>
        <time>2013-02-23T15:58:20Z</time>
      </trkpt>
      <trkpt lat="44.46097" lon="0.9216">
        <ele>64.07</ele>
        <time>2013-02-23T15:58:21Z</time>
      </trkpt>
      <trkpt lat="44.46101" lon="0.92158">
        <ele>64.07</ele>
        <time>2013-02-23T15:58:22Z</time>
      </trkpt>
      <trkpt lat="44.46105" lon="0.92158">
        <ele>64.07</ele>
        <time>2013-02-23T15:58:23Z</time>
      </trkpt>
      <trkpt lat="44.46109" lon="0.92158">
        <ele>64.07</ele>
        <time>2013-02-23T15:58:24Z</time>
      </trkpt>
      <trkpt lat="44.46113" lon="0.9216">
        <ele>64.07</ele>
        <time>2013-02-23T15:58:25Z</time>
      </trkpt>
      <trkpt lat="44.46117" lon="0.92162">
        <ele>63.58</ele>
        <time>2013-02-23T15:58:26Z</time>
      </trkpt>
      <trkpt lat="44.46121" lon="0.92165">
        <ele>63.58</ele>
        <time>2013-02-23T15:58:27Z</time>
      </trkpt>
      <trkpt lat="44.46124" lon="0.92168">
        <ele>64.07</ele>
        <time>2013-02-23T15:58:28Z</time>
      </trkpt>
      <trkpt lat="44.46135" lon="0.92178">
        <ele>64.07</ele>
        <time>2013-02-23T15:58:31Z</time>
      </trkpt>
      <trkpt lat="44.46203" lon="0.92226">
        <ele>64.55</ele>
        <time>2013-02-23T15:58:50Z</time>
      </trkpt>
      <trkpt lat="44.4628" lon="0.92275">
        <ele>64.07</ele>
        <time>2013-02-23T15:59:11Z</time>
      </trkpt>
      <trkpt lat="44.46336" lon="0.92312">
        <ele>64.55</ele>
        <time>2013-02-23T15:59:26Z</time>
      </trkpt>
      <trkpt lat="44.46349" lon="0.92324">
        <ele>65.03</ele>
        <time>2013-02-23T15:59:30Z</time>
      </trkpt>
      <trkpt lat="44.46353" lon="0.92328">
        <ele>65.03</ele>
        <time>2013-02-23T15:59:31Z</time>
      </trkpt>
      <trkpt lat="44.46359" lon="0.92334">
        <ele>64.55</ele>
        <time>2013-02-23T15:59:33Z</time>
      </trkpt>
      <trkpt lat="44.46383" lon="0.92349">
        <ele>65.03</ele>
        <time>2013-02-23T15:59:41Z</time>
      </trkpt>
      <trkpt lat="44.46385" lon="0.92346">
        <ele>65.03</ele>
        <time>2013-02-23T15:59:42Z</time>
      </trkpt>
      <trkpt lat="44.46387" lon="0.92343">
        <ele>64.55</ele>
        <time>2013-02-23T15:59:43Z</time>
      </trkpt>
      <trkpt lat="44.46408" lon="0.92296">
        <ele>64.07</ele>
        <time>2013-02-23T15:59:56Z</time>
      </trkpt>
      <trkpt lat="44.46437" lon="0.92236">
        <ele>63.1</ele>
        <time>2013-02-23T16:00:11Z</time>
      </trkpt>
      <trkpt lat="44.46471" lon="0.92175">
        <ele>62.62</ele>
        <time>2013-02-23T16:00:27Z</time>
      </trkpt>
      <trkpt lat="44.46527" lon="0.92136">
        <ele>65.03</ele>
        <time>2013-02-23T16:00:43Z</time>
      </trkpt>
      <trkpt lat="44.46584" lon="0.92094">
        <ele>64.55</ele>
        <time>2013-02-23T16:00:59Z</time>
      </trkpt>
      <trkpt lat="44.46598" lon="0.92085">
        <ele>64.55</ele>
        <time>2013-02-23T16:01:03Z</time>
      </trkpt>
      <trkpt lat="44.46602" lon="0.92082">
        <ele>64.55</ele>
        <time>2013-02-23T16:01:04Z</time>
      </trkpt>
      <trkpt lat="44.46661" lon="0.92038">
        <ele>64.55</ele>
        <time>2013-02-23T16:01:21Z</time>
      </trkpt>
      <trkpt lat="44.46678" lon="0.92024">
        <ele>64.07</ele>
        <time>2013-02-23T16:01:26Z</time>
      </trkpt>
      <trkpt lat="44.46682" lon="0.92021">
        <ele>64.07</ele>
        <time>2013-02-23T16:01:27Z</time>
      </trkpt>
      <trkpt lat="44.46731" lon="0.91987">
        <ele>65.03</ele>
        <time>2013-02-23T16:01:42Z</time>
      </trkpt>
      <trkpt lat="44.46775" lon="0.91954">
        <ele>63.58</ele>
        <time>2013-02-23T16:01:56Z</time>
      </trkpt>
      <trkpt lat="44.46816" lon="0.91926">
        <ele>63.58</ele>
        <time>2013-02-23T16:02:09Z</time>
      </trkpt>
      <trkpt lat="44.46823" lon="0.91924">
        <ele>62.62</ele>
        <time>2013-02-23T16:02:19Z</time>
      </trkpt>
      <trkpt lat="44.46823" lon="0.91924">
        <ele>63.1</ele>
        <time>2013-02-23T16:02:40Z</time>
      </trkpt>
      <trkpt lat="44.46823" lon="0.91924">
        <ele>63.1</ele>
        <time>2013-02-23T16:02:59Z</time>
      </trkpt>
      <trkpt lat="44.46834" lon="0.91964">
        <ele>62.62</ele>
        <time>2013-02-23T16:03:12Z</time>
      </trkpt>
      <trkpt lat="44.46853" lon="0.92036">
        <ele>62.62</ele>
        <time>2013-02-23T16:03:27Z</time>
      </trkpt>
      <trkpt lat="44.46869" lon="0.92106">
        <ele>63.1</ele>
        <time>2013-02-23T16:03:41Z</time>
      </trkpt>
      <trkpt lat="44.46881" lon="0.92186">
        <ele>63.1</ele>
        <time>2013-02-23T16:03:56Z</time>
      </trkpt>
      <trkpt lat="44.46884" lon="0.92214">
        <ele>63.1</ele>
        <time>2013-02-23T16:04:01Z</time>
      </trkpt>
      <trkpt lat="44.46885" lon="0.9222">
        <ele>63.1</ele>
        <time>2013-02-23T16:04:02Z</time>
      </trkpt>
      <trkpt lat="44.46898" lon="0.92319">
        <ele>63.1</ele>
        <time>2013-02-23T16:04:18Z</time>
      </trkpt>
      <trkpt lat="44.46899" lon="0.92326">
        <ele>63.1</ele>
        <time>2013-02-23T16:04:19Z</time>
      </trkpt>
      <trkpt lat="44.46914" lon="0.9244">
        <ele>62.62</ele>
        <time>2013-02-23T16:04:36Z</time>
      </trkpt>
      <trkpt lat="44.46918" lon="0.92529">
        <ele>61.66</ele>
        <time>2013-02-23T16:04:48Z</time>
      </trkpt>
      <trkpt lat="44.46916" lon="0.92536">
        <ele>61.66</ele>
        <time>2013-02-23T16:04:49Z</time>
      </trkpt>
      <trkpt lat="44.46914" lon="0.92543">
        <ele>61.66</ele>
        <time>2013-02-23T16:04:50Z</time>
      </trkpt>
      <trkpt lat="44.46888" lon="0.92613">
        <ele>61.66</ele>
        <time>2013-02-23T16:05:01Z</time>
      </trkpt>
      <trkpt lat="44.46887" lon="0.92618">
        <ele>62.14</ele>
        <time>2013-02-23T16:05:02Z</time>
      </trkpt>
      <trkpt lat="44.46886" lon="0.92624">
        <ele>62.14</ele>
        <time>2013-02-23T16:05:03Z</time>
      </trkpt>
      <trkpt lat="44.46886" lon="0.92628">
        <ele>62.62</ele>
        <time>2013-02-23T16:05:04Z</time>
      </trkpt>
      <trkpt lat="44.46887" lon="0.92632">
        <ele>62.62</ele>
        <time>2013-02-23T16:05:05Z</time>
      </trkpt>
      <trkpt lat="44.46887" lon="0.92636">
        <ele>62.62</ele>
        <time>2013-02-23T16:05:06Z</time>
      </trkpt>
      <trkpt lat="44.46903" lon="0.92689">
        <ele>65.99</ele>
        <time>2013-02-23T16:05:20Z</time>
      </trkpt>
      <trkpt lat="44.46915" lon="0.92728">
        <ele>66.95</ele>
        <time>2013-02-23T16:05:30Z</time>
      </trkpt>
      <trkpt lat="44.46923" lon="0.92794">
        <ele>68.39</ele>
        <time>2013-02-23T16:05:44Z</time>
      </trkpt>
      <trkpt lat="44.46925" lon="0.92866">
        <ele>67.43</ele>
        <time>2013-02-23T16:05:57Z</time>
      </trkpt>
      <trkpt lat="44.46925" lon="0.92877">
        <ele>66.95</ele>
        <time>2013-02-23T16:05:59Z</time>
      </trkpt>
      <trkpt lat="44.46927" lon="0.929">
        <ele>66.47</ele>
        <time>2013-02-23T16:06:03Z</time>
      </trkpt>
      <trkpt lat="44.46928" lon="0.92906">
        <ele>66.47</ele>
        <time>2013-02-23T16:06:04Z</time>
      </trkpt>
      <trkpt lat="44.46928" lon="0.92912">
        <ele>66.47</ele>
        <time>2013-02-23T16:06:05Z</time>
      </trkpt>
      <trkpt lat="44.46929" lon="0.92917">
        <ele>66.95</ele>
        <time>2013-02-23T16:06:06Z</time>
      </trkpt>
      <trkpt lat="44.46929" lon="0.92923">
        <ele>66.47</ele>
        <time>2013-02-23T16:06:07Z</time>
      </trkpt>
      <trkpt lat="44.46957" lon="0.93013">
        <ele>66.47</ele>
        <time>2013-02-23T16:06:24Z</time>
      </trkpt>
      <trkpt lat="44.46981" lon="0.93058">
        <ele>65.99</ele>
        <time>2013-02-23T16:06:33Z</time>
      </trkpt>
      <trkpt lat="44.46983" lon="0.93063">
        <ele>65.99</ele>
        <time>2013-02-23T16:06:34Z</time>
      </trkpt>
      <trkpt lat="44.46989" lon="0.93081">
        <ele>65.99</ele>
        <time>2013-02-23T16:06:37Z</time>
      </trkpt>
      <trkpt lat="44.4699" lon="0.93087">
        <ele>66.47</ele>
        <time>2013-02-23T16:06:38Z</time>
      </trkpt>
      <trkpt lat="44.47006" lon="0.93203">
        <ele>66.47</ele>
        <time>2013-02-23T16:06:57Z</time>
      </trkpt>
      <trkpt lat="44.47029" lon="0.93299">
        <ele>66.95</ele>
        <time>2013-02-23T16:07:13Z</time>
      </trkpt>
      <trkpt lat="44.47043" lon="0.93343">
        <ele>66.95</ele>
        <time>2013-02-23T16:07:21Z</time>
      </trkpt>
      <trkpt lat="44.47081" lon="0.93434">
        <ele>66.95</ele>
        <time>2013-02-23T16:07:38Z</time>
      </trkpt>
      <trkpt lat="44.47107" lon="0.93488">
        <ele>65.99</ele>
        <time>2013-02-23T16:07:50Z</time>
      </trkpt>
      <trkpt lat="44.4711" lon="0.9349">
        <ele>65.99</ele>
        <time>2013-02-23T16:07:51Z</time>
      </trkpt>
      <trkpt lat="44.47113" lon="0.9349">
        <ele>65.99</ele>
        <time>2013-02-23T16:07:52Z</time>
      </trkpt>
      <trkpt lat="44.47117" lon="0.9349">
        <ele>66.47</ele>
        <time>2013-02-23T16:07:53Z</time>
      </trkpt>
      <trkpt lat="44.4712" lon="0.93488">
        <ele>66.47</ele>
        <time>2013-02-23T16:07:54Z</time>
      </trkpt>
      <trkpt lat="44.47123" lon="0.93487">
        <ele>66.95</ele>
        <time>2013-02-23T16:07:55Z</time>
      </trkpt>
      <trkpt lat="44.47127" lon="0.93486">
        <ele>66.95</ele>
        <time>2013-02-23T16:07:56Z</time>
      </trkpt>
      <trkpt lat="44.4717" lon="0.93468">
        <ele>66.47</ele>
        <time>2013-02-23T16:08:07Z</time>
      </trkpt>
      <trkpt lat="44.4721" lon="0.93444">
        <ele>66.95</ele>
        <time>2013-02-23T16:08:19Z</time>
      </trkpt>
      <trkpt lat="44.47211" lon="0.93439">
        <ele>66.95</ele>
        <time>2013-02-23T16:08:20Z</time>
      </trkpt>
      <trkpt lat="44.47211" lon="0.93435">
        <ele>66.95</ele>
        <time>2013-02-23T16:08:21Z</time>
      </trkpt>
      <trkpt lat="44.47211" lon="0.93431">
        <ele>66.95</ele>
        <time>2013-02-23T16:08:22Z</time>
      </trkpt>
      <trkpt lat="44.4721" lon="0.93428">
        <ele>66.95</ele>
        <time>2013-02-23T16:08:23Z</time>
      </trkpt>
      <trkpt lat="44.47209" lon="0.93425">
        <ele>66.95</ele>
        <time>2013-02-23T16:08:24Z</time>
      </trkpt>
      <trkpt lat="44.47208" lon="0.93423">
        <ele>66.47</ele>
        <time>2013-02-23T16:08:25Z</time>
      </trkpt>
      <trkpt lat="44.47208" lon="0.93421">
        <ele>65.51</ele>
        <time>2013-02-23T16:08:36Z</time>
      </trkpt>
      <trkpt lat="44.47207" lon="0.9342">
        <ele>65.99</ele>
        <time>2013-02-23T16:09:09Z</time>
      </trkpt>
      <trkpt lat="44.47208" lon="0.93419">
        <ele>66.47</ele>
        <time>2013-02-23T16:09:45Z</time>
      </trkpt>
      <trkpt lat="44.47207" lon="0.9342">
        <ele>66.47</ele>
        <time>2013-02-23T16:10:32Z</time>
      </trkpt>
      <trkpt lat="44.47207" lon="0.9342">
        <ele>66.47</ele>
        <time>2013-02-23T16:10:56Z</time>
      </trkpt>
      <trkpt lat="44.47203" lon="0.93414">
        <ele>67.43</ele>
        <time>2013-02-23T16:11:03Z</time>
      </trkpt>
      <trkpt lat="44.472" lon="0.93422">
        <ele>66.95</ele>
        <time>2013-02-23T16:11:10Z</time>
      </trkpt>
      <trkpt lat="44.47209" lon="0.93426">
        <ele>67.91</ele>
        <time>2013-02-23T16:11:23Z</time>
      </trkpt>
      <trkpt lat="44.4721" lon="0.93425">
        <ele>67.43</ele>
        <time>2013-02-23T16:11:35Z</time>
      </trkpt>
      <trkpt lat="44.47207" lon="0.93422">
        <ele>67.43</ele>
        <time>2013-02-23T16:11:47Z</time>
      </trkpt>
      <trkpt lat="44.47207" lon="0.93422">
        <ele>67.43</ele>
        <time>2013-02-23T16:11:54Z</time>
      </trkpt>
    </trkseg>
  </trk>
</gpx>